PWSweather.com
Personal Weather Stations
Station Observations
SARATOGA
Aldara Apartments, Saratoga Springs, UT 84045

Aldara ApartmentsSaratoga Springs, UT 84045

Lat: 40.384864, Lon: -111.913644

Elevation: 4531

Station Type: VantagePro 2

High Low Average
Temperature 61.4°F16.3°C 30.0°F-1.1°C 44.5°F6.9°C
Dew Point 37.6°F3.1°C 24.6°F-4.1°C 29.2°F-1.6°C
Winds 13.0 mph 20.9 kmh Calm Calm 1.0 mph S1.6 kmh S
Wind Gusts 14.0 mph22.5 kmh -- 3.0 mph4.8 kmh
Humidity 83% 25% 59%
Pressure 29.96 in1014.6 mb 29.56 in1001.0 mb -
Precipitation 0.00 in0.0 mm - -
Hour Temp Dew Point Humidity Winds Wind Gusts Pressure Precip Precip Rate Daily Precip Total
12:00 AM 35.4°F1.9°C 27.3°F-2.6°C 72% Calm Calm -- 29.96 in1014.6 mb 0.00 in0.0 mm 0.00 in0.0 mm 0.00 in0.0 mm
12:01 AM 35.3°F1.8°C 27.2°F-2.7°C 72% Calm Calm -- 29.96 in1014.6 mb 0.00 in0.0 mm 0.00 in0.0 mm 0.00 in0.0 mm
12:02 AM 35.3°F1.8°C 27.2°F-2.7°C 72% Calm Calm -- 29.96 in1014.6 mb 0.00 in0.0 mm 0.00 in0.0 mm 0.00 in0.0 mm
12:03 AM 35.2°F1.8°C 27.1°F-2.7°C 72% Calm Calm -- 29.96 in1014.6 mb 0.00 in0.0 mm 0.00 in0.0 mm 0.00 in0.0 mm
12:04 AM 35.2°F1.8°C 27.1°F-2.7°C 72% Calm Calm -- 29.96 in1014.6 mb 0.00 in0.0 mm 0.00 in0.0 mm 0.00 in0.0 mm
12:05 AM 35.1°F1.7°C 27.0°F-2.8°C 72% Calm Calm -- 29.96 in1014.6 mb 0.00 in0.0 mm 0.00 in0.0 mm 0.00 in0.0 mm
12:06 AM 35.1°F1.7°C 27.3°F-2.6°C 73% Calm Calm -- 29.96 in1014.6 mb 0.00 in0.0 mm 0.00 in0.0 mm 0.00 in0.0 mm
12:07 AM 35.1°F1.7°C 27.3°F-2.6°C 73% Calm Calm -- 29.96 in1014.6 mb 0.00 in0.0 mm 0.00 in0.0 mm 0.00 in0.0 mm
12:08 AM 35.1°F1.7°C 27.3°F-2.6°C 73% Calm Calm -- 29.96 in1014.6 mb 0.00 in0.0 mm 0.00 in0.0 mm 0.00 in0.0 mm
12:09 AM 35.1°F1.7°C 27.3°F-2.6°C 73% Calm Calm -- 29.96 in1014.6 mb 0.00 in0.0 mm 0.00 in0.0 mm 0.00 in0.0 mm
12:10 AM 35.1°F1.7°C 27.3°F-2.6°C 73% Calm Calm -- 29.96 in1014.6 mb 0.00 in0.0 mm 0.00 in0.0 mm 0.00 in0.0 mm
12:11 AM 35.1°F1.7°C 27.7°F-2.4°C 74% Calm Calm -- 29.96 in1014.6 mb 0.00 in0.0 mm 0.00 in0.0 mm 0.00 in0.0 mm
12:12 AM 35.1°F1.7°C 27.7°F-2.4°C 74% Calm Calm -- 29.96 in1014.6 mb 0.00 in0.0 mm 0.00 in0.0 mm 0.00 in0.0 mm
12:13 AM 35.1°F1.7°C 27.7°F-2.4°C 74% Calm Calm -- 29.96 in1014.6 mb 0.00 in0.0 mm 0.00 in0.0 mm 0.00 in0.0 mm
12:14 AM 35.2°F1.8°C 27.8°F-2.3°C 74% Calm Calm -- 29.96 in1014.6 mb 0.00 in0.0 mm 0.00 in0.0 mm 0.00 in0.0 mm
12:15 AM 35.2°F1.8°C 27.8°F-2.3°C 74% Calm Calm -- 29.96 in1014.6 mb 0.00 in0.0 mm 0.00 in0.0 mm 0.00 in0.0 mm
12:16 AM 35.2°F1.8°C 27.8°F-2.3°C 74% Calm Calm -- 29.96 in1014.6 mb 0.00 in0.0 mm 0.00 in0.0 mm 0.00 in0.0 mm
12:17 AM 35.2°F1.8°C 27.8°F-2.3°C 74% Calm Calm -- 29.96 in1014.6 mb 0.00 in0.0 mm 0.00 in0.0 mm 0.00 in0.0 mm
12:18 AM 35.2°F1.8°C 27.8°F-2.3°C 74% Calm Calm -- 29.95 in1014.2 mb 0.00 in0.0 mm 0.00 in0.0 mm 0.00 in0.0 mm
12:19 AM 35.2°F1.8°C 27.8°F-2.3°C 74% Calm Calm -- 29.95 in1014.2 mb 0.00 in0.0 mm 0.00 in0.0 mm 0.00 in0.0 mm
12:20 AM 35.2°F1.8°C 27.8°F-2.3°C 74% Calm Calm -- 29.95 in1014.2 mb 0.00 in0.0 mm 0.00 in0.0 mm 0.00 in0.0 mm
12:21 AM 35.2°F1.8°C 27.8°F-2.3°C 74% Calm Calm -- 29.95 in1014.2 mb 0.00 in0.0 mm 0.00 in0.0 mm 0.00 in0.0 mm
12:22 AM 35.2°F1.8°C 27.8°F-2.3°C 74% Calm Calm -- 29.95 in1014.2 mb 0.00 in0.0 mm 0.00 in0.0 mm 0.00 in0.0 mm
12:23 AM 35.2°F1.8°C 27.8°F-2.3°C 74% Calm Calm -- 29.95 in1014.2 mb 0.00 in0.0 mm 0.00 in0.0 mm 0.00 in0.0 mm
12:24 AM 35.2°F1.8°C 27.8°F-2.3°C 74% Calm Calm -- 29.95 in1014.2 mb 0.00 in0.0 mm 0.00 in0.0 mm 0.00 in0.0 mm
12:25 AM 35.2°F1.8°C 27.8°F-2.3°C 74% Calm Calm -- 29.95 in1014.2 mb 0.00 in0.0 mm 0.00 in0.0 mm 0.00 in0.0 mm
12:26 AM 35.2°F1.8°C 27.8°F-2.3°C 74% Calm Calm -- 29.95 in1014.2 mb 0.00 in0.0 mm 0.00 in0.0 mm 0.00 in0.0 mm
12:27 AM 35.2°F1.8°C 27.8°F-2.3°C 74% Calm Calm -- 29.96 in1014.6 mb 0.00 in0.0 mm 0.00 in0.0 mm 0.00 in0.0 mm
12:28 AM 35.2°F1.8°C 27.8°F-2.3°C 74% Calm Calm -- 29.96 in1014.6 mb 0.00 in0.0 mm 0.00 in0.0 mm 0.00 in0.0 mm
12:29 AM 35.2°F1.8°C 27.8°F-2.3°C 74% Calm Calm -- 29.96 in1014.6 mb 0.00 in0.0 mm 0.00 in0.0 mm 0.00 in0.0 mm
12:30 AM 35.2°F1.8°C 27.8°F-2.3°C 74% Calm Calm -- 29.96 in1014.6 mb 0.00 in0.0 mm 0.00 in0.0 mm 0.00 in0.0 mm
12:31 AM 35.2°F1.8°C 27.8°F-2.3°C 74% Calm Calm -- 29.96 in1014.6 mb 0.00 in0.0 mm 0.00 in0.0 mm 0.00 in0.0 mm
12:32 AM 35.2°F1.8°C 27.8°F-2.3°C 74% Calm Calm -- 29.96 in1014.6 mb 0.00 in0.0 mm 0.00 in0.0 mm 0.00 in0.0 mm
12:33 AM 35.2°F1.8°C 27.8°F-2.3°C 74% Calm Calm -- 29.96 in1014.6 mb 0.00 in0.0 mm 0.00 in0.0 mm 0.00 in0.0 mm
12:34 AM 35.2°F1.8°C 27.8°F-2.3°C 74% Calm Calm -- 29.96 in1014.6 mb 0.00 in0.0 mm 0.00 in0.0 mm 0.00 in0.0 mm
12:35 AM 35.2°F1.8°C 27.8°F-2.3°C 74% Calm Calm -- 29.96 in1014.6 mb 0.00 in0.0 mm 0.00 in0.0 mm 0.00 in0.0 mm
12:36 AM 35.2°F1.8°C 27.8°F-2.3°C 74% Calm Calm -- 29.96 in1014.6 mb 0.00 in0.0 mm 0.00 in0.0 mm 0.00 in0.0 mm
12:37 AM 35.2°F1.8°C 27.8°F-2.3°C 74% Calm Calm -- 29.96 in1014.6 mb 0.00 in0.0 mm 0.00 in0.0 mm 0.00 in0.0 mm
12:38 AM 35.2°F1.8°C 27.8°F-2.3°C 74% Calm Calm -- 29.96 in1014.6 mb 0.00 in0.0 mm 0.00 in0.0 mm 0.00 in0.0 mm
12:39 AM 35.2°F1.8°C 27.8°F-2.3°C 74% Calm Calm -- 29.96 in1014.6 mb 0.00 in0.0 mm 0.00 in0.0 mm 0.00 in0.0 mm
12:40 AM 35.2°F1.8°C 27.8°F-2.3°C 74% Calm Calm -- 29.96 in1014.6 mb 0.00 in0.0 mm 0.00 in0.0 mm 0.00 in0.0 mm
12:41 AM 35.2°F1.8°C 28.1°F-2.2°C 75% Calm Calm -- 29.96 in1014.6 mb 0.00 in0.0 mm 0.00 in0.0 mm 0.00 in0.0 mm
12:42 AM 35.2°F1.8°C 28.1°F-2.2°C 75% Calm Calm -- 29.96 in1014.6 mb 0.00 in0.0 mm 0.00 in0.0 mm 0.00 in0.0 mm
12:43 AM 35.2°F1.8°C 28.1°F-2.2°C 75% Calm Calm -- 29.95 in1014.2 mb 0.00 in0.0 mm 0.00 in0.0 mm 0.00 in0.0 mm
12:44 AM 35.3°F1.8°C 28.2°F-2.1°C 75% Calm Calm -- 29.95 in1014.2 mb 0.00 in0.0 mm 0.00 in0.0 mm 0.00 in0.0 mm
12:45 AM 35.3°F1.8°C 28.2°F-2.1°C 75% Calm Calm -- 29.95 in1014.2 mb 0.00 in0.0 mm 0.00 in0.0 mm 0.00 in0.0 mm
12:47 AM 35.3°F1.8°C 27.9°F-2.3°C 74% Calm Calm -- 29.95 in1014.2 mb 0.00 in0.0 mm 0.00 in0.0 mm 0.00 in0.0 mm
12:48 AM 35.3°F1.8°C 27.9°F-2.3°C 74% Calm Calm -- 29.96 in1014.6 mb 0.00 in0.0 mm 0.00 in0.0 mm 0.00 in0.0 mm
12:49 AM 35.3°F1.8°C 27.9°F-2.3°C 74% Calm Calm -- 29.96 in1014.6 mb 0.00 in0.0 mm 0.00 in0.0 mm 0.00 in0.0 mm
12:50 AM 35.3°F1.8°C 27.9°F-2.3°C 74% Calm Calm -- 29.95 in1014.2 mb 0.00 in0.0 mm 0.00 in0.0 mm 0.00 in0.0 mm
12:51 AM 35.3°F1.8°C 27.9°F-2.3°C 74% Calm Calm -- 29.95 in1014.2 mb 0.00 in0.0 mm 0.00 in0.0 mm 0.00 in0.0 mm
12:52 AM 35.3°F1.8°C 27.9°F-2.3°C 74% Calm Calm -- 29.95 in1014.2 mb 0.00 in0.0 mm 0.00 in0.0 mm 0.00 in0.0 mm
12:53 AM 35.3°F1.8°C 27.9°F-2.3°C 74% Calm Calm -- 29.95 in1014.2 mb 0.00 in0.0 mm 0.00 in0.0 mm 0.00 in0.0 mm
12:54 AM 35.3°F1.8°C 27.9°F-2.3°C 74% Calm Calm -- 29.95 in1014.2 mb 0.00 in0.0 mm 0.00 in0.0 mm 0.00 in0.0 mm
12:55 AM 35.3°F1.8°C 27.9°F-2.3°C 74% Calm Calm -- 29.95 in1014.2 mb 0.00 in0.0 mm 0.00 in0.0 mm 0.00 in0.0 mm
12:56 AM 35.3°F1.8°C 27.9°F-2.3°C 74% Calm Calm -- 29.95 in1014.2 mb 0.00 in0.0 mm 0.00 in0.0 mm 0.00 in0.0 mm
12:57 AM 35.3°F1.8°C 27.9°F-2.3°C 74% Calm Calm -- 29.96 in1014.6 mb 0.00 in0.0 mm 0.00 in0.0 mm 0.00 in0.0 mm
12:58 AM 35.3°F1.8°C 27.9°F-2.3°C 74% Calm Calm -- 29.96 in1014.6 mb 0.00 in0.0 mm 0.00 in0.0 mm 0.00 in0.0 mm
12:59 AM 35.3°F1.8°C 27.9°F-2.3°C 74% Calm Calm -- 29.96 in1014.6 mb 0.00 in0.0 mm 0.00 in0.0 mm 0.00 in0.0 mm
01:00 AM 35.2°F1.8°C 27.8°F-2.3°C 74% Calm Calm -- 29.96 in1014.6 mb 0.00 in0.0 mm 0.00 in0.0 mm 0.00 in0.0 mm
01:01 AM 35.2°F1.8°C 27.8°F-2.3°C 74% Calm Calm -- 29.95 in1014.2 mb 0.00 in0.0 mm 0.00 in0.0 mm 0.00 in0.0 mm
01:02 AM 35.2°F1.8°C 27.8°F-2.3°C 74% Calm Calm -- 29.96 in1014.6 mb 0.00 in0.0 mm 0.00 in0.0 mm 0.00 in0.0 mm
01:03 AM 35.2°F1.8°C 27.8°F-2.3°C 74% Calm Calm -- 29.96 in1014.6 mb 0.00 in0.0 mm 0.00 in0.0 mm 0.00 in0.0 mm
01:04 AM 35.2°F1.8°C 27.8°F-2.3°C 74% Calm Calm -- 29.95 in1014.2 mb 0.00 in0.0 mm 0.00 in0.0 mm 0.00 in0.0 mm
01:05 AM 35.2°F1.8°C 27.8°F-2.3°C 74% Calm Calm -- 29.95 in1014.2 mb 0.00 in0.0 mm 0.00 in0.0 mm 0.00 in0.0 mm
01:06 AM 35.2°F1.8°C 28.1°F-2.2°C 75% Calm Calm -- 29.95 in1014.2 mb 0.00 in0.0 mm 0.00 in0.0 mm 0.00 in0.0 mm
01:07 AM 35.2°F1.8°C 28.1°F-2.2°C 75% Calm Calm -- 29.96 in1014.6 mb 0.00 in0.0 mm 0.00 in0.0 mm 0.00 in0.0 mm
01:08 AM 35.2°F1.8°C 28.1°F-2.2°C 75% Calm Calm -- 29.95 in1014.2 mb 0.00 in0.0 mm 0.00 in0.0 mm 0.00 in0.0 mm
01:09 AM 35.2°F1.8°C 28.1°F-2.2°C 75% Calm Calm -- 29.95 in1014.2 mb 0.00 in0.0 mm 0.00 in0.0 mm 0.00 in0.0 mm
01:10 AM 35.2°F1.8°C 28.1°F-2.2°C 75% Calm Calm -- 29.95 in1014.2 mb 0.00 in0.0 mm 0.00 in0.0 mm 0.00 in0.0 mm
01:11 AM 35.2°F1.8°C 28.1°F-2.2°C 75% Calm Calm -- 29.95 in1014.2 mb 0.00 in0.0 mm 0.00 in0.0 mm 0.00 in0.0 mm
01:12 AM 35.1°F1.7°C 28.0°F-2.2°C 75% Calm Calm -- 29.96 in1014.6 mb 0.00 in0.0 mm 0.00 in0.0 mm 0.00 in0.0 mm
01:13 AM 35.1°F1.7°C 27.7°F-2.4°C 74% Calm Calm -- 29.96 in1014.6 mb 0.00 in0.0 mm 0.00 in0.0 mm 0.00 in0.0 mm
01:14 AM 35.1°F1.7°C 27.7°F-2.4°C 74% Calm Calm -- 29.96 in1014.6 mb 0.00 in0.0 mm 0.00 in0.0 mm 0.00 in0.0 mm
01:15 AM 35.1°F1.7°C 27.7°F-2.4°C 74% Calm Calm -- 29.96 in1014.6 mb 0.00 in0.0 mm 0.00 in0.0 mm 0.00 in0.0 mm
01:16 AM 35.0°F1.7°C 27.6°F-2.4°C 74% Calm Calm -- 29.96 in1014.6 mb 0.00 in0.0 mm 0.00 in0.0 mm 0.00 in0.0 mm
01:17 AM 35.0°F1.7°C 27.6°F-2.4°C 74% Calm Calm -- 29.96 in1014.6 mb 0.00 in0.0 mm 0.00 in0.0 mm 0.00 in0.0 mm
01:18 AM 34.9°F1.6°C 27.5°F-2.5°C 74% Calm Calm -- 29.96 in1014.6 mb 0.00 in0.0 mm 0.00 in0.0 mm 0.00 in0.0 mm
01:19 AM 34.7°F1.5°C 27.3°F-2.6°C 74% Calm Calm -- 29.96 in1014.6 mb 0.00 in0.0 mm 0.00 in0.0 mm 0.00 in0.0 mm
01:20 AM 34.7°F1.5°C 27.3°F-2.6°C 74% Calm Calm -- 29.96 in1014.6 mb 0.00 in0.0 mm 0.00 in0.0 mm 0.00 in0.0 mm
01:21 AM 34.6°F1.4°C 27.5°F-2.5°C 75% Calm Calm -- 29.96 in1014.6 mb 0.00 in0.0 mm 0.00 in0.0 mm 0.00 in0.0 mm
01:22 AM 34.5°F1.4°C 27.4°F-2.6°C 75% Calm Calm -- 29.96 in1014.6 mb 0.00 in0.0 mm 0.00 in0.0 mm 0.00 in0.0 mm
01:23 AM 34.4°F1.3°C 27.3°F-2.6°C 75% Calm Calm -- 29.96 in1014.6 mb 0.00 in0.0 mm 0.00 in0.0 mm 0.00 in0.0 mm
01:24 AM 34.4°F1.3°C 27.3°F-2.6°C 75% Calm Calm -- 29.96 in1014.6 mb 0.00 in0.0 mm 0.00 in0.0 mm 0.00 in0.0 mm
01:25 AM 34.3°F1.3°C 27.2°F-2.7°C 75% Calm Calm -- 29.96 in1014.6 mb 0.00 in0.0 mm 0.00 in0.0 mm 0.00 in0.0 mm
01:26 AM 34.3°F1.3°C 27.2°F-2.7°C 75% Calm Calm -- 29.96 in1014.6 mb 0.00 in0.0 mm 0.00 in0.0 mm 0.00 in0.0 mm
01:27 AM 34.2°F1.2°C 27.1°F-2.7°C 75% Calm Calm -- 29.95 in1014.2 mb 0.00 in0.0 mm 0.00 in0.0 mm 0.00 in0.0 mm
01:28 AM 34.2°F1.2°C 27.1°F-2.7°C 75% Calm Calm -- 29.96 in1014.6 mb 0.00 in0.0 mm 0.00 in0.0 mm 0.00 in0.0 mm
01:29 AM 34.1°F1.2°C 27.0°F-2.8°C 75% Calm Calm -- 29.95 in1014.2 mb 0.00 in0.0 mm 0.00 in0.0 mm 0.00 in0.0 mm
01:30 AM 34.1°F1.2°C 27.0°F-2.8°C 75% Calm Calm -- 29.95 in1014.2 mb 0.00 in0.0 mm 0.00 in0.0 mm 0.00 in0.0 mm
01:31 AM 34.0°F1.1°C 26.9°F-2.8°C 75% Calm Calm -- 29.95 in1014.2 mb 0.00 in0.0 mm 0.00 in0.0 mm 0.00 in0.0 mm
01:32 AM 34.0°F1.1°C 27.2°F-2.7°C 76% Calm Calm -- 29.95 in1014.2 mb 0.00 in0.0 mm 0.00 in0.0 mm 0.00 in0.0 mm
01:33 AM 33.9°F1.1°C 27.2°F-2.7°C 76% Calm Calm -- 29.95 in1014.2 mb 0.00 in0.0 mm 0.00 in0.0 mm 0.00 in0.0 mm
01:34 AM 33.9°F1.1°C 27.2°F-2.7°C 76% Calm Calm -- 29.95 in1014.2 mb 0.00 in0.0 mm 0.00 in0.0 mm 0.00 in0.0 mm
01:35 AM 33.8°F1.0°C 27.1°F-2.7°C 76% Calm Calm -- 29.96 in1014.6 mb 0.00 in0.0 mm 0.00 in0.0 mm 0.00 in0.0 mm
01:36 AM 33.8°F1.0°C 27.1°F-2.7°C 76% Calm Calm -- 29.95 in1014.2 mb 0.00 in0.0 mm 0.00 in0.0 mm 0.00 in0.0 mm
01:37 AM 33.8°F1.0°C 26.7°F-2.9°C 75% Calm Calm -- 29.95 in1014.2 mb 0.00 in0.0 mm 0.00 in0.0 mm 0.00 in0.0 mm
01:38 AM 33.7°F0.9°C 26.6°F-3.0°C 75% Calm Calm -- 29.95 in1014.2 mb 0.00 in0.0 mm 0.00 in0.0 mm 0.00 in0.0 mm
01:39 AM 33.7°F0.9°C 26.6°F-3.0°C 75% Calm Calm -- 29.95 in1014.2 mb 0.00 in0.0 mm 0.00 in0.0 mm 0.00 in0.0 mm
01:40 AM 33.6°F0.9°C 26.5°F-3.1°C 75% Calm Calm -- 29.95 in1014.2 mb 0.00 in0.0 mm 0.00 in0.0 mm 0.00 in0.0 mm
01:41 AM 33.5°F0.8°C 26.4°F-3.1°C 75% Calm Calm -- 29.95 in1014.2 mb 0.00 in0.0 mm 0.00 in0.0 mm 0.00 in0.0 mm
01:42 AM 33.5°F0.8°C 26.4°F-3.1°C 75% Calm Calm -- 29.95 in1014.2 mb 0.00 in0.0 mm 0.00 in0.0 mm 0.00 in0.0 mm
01:43 AM 33.4°F0.8°C 26.3°F-3.2°C 75% Calm Calm -- 29.95 in1014.2 mb 0.00 in0.0 mm 0.00 in0.0 mm 0.00 in0.0 mm
01:44 AM 33.4°F0.8°C 26.3°F-3.2°C 75% Calm Calm -- 29.95 in1014.2 mb 0.00 in0.0 mm 0.00 in0.0 mm 0.00 in0.0 mm
01:45 AM 33.4°F0.8°C 26.3°F-3.2°C 75% Calm Calm -- 29.95 in1014.2 mb 0.00 in0.0 mm 0.00 in0.0 mm 0.00 in0.0 mm
01:46 AM 33.3°F0.7°C 26.3°F-3.2°C 75% Calm Calm -- 29.96 in1014.6 mb 0.00 in0.0 mm 0.00 in0.0 mm 0.00 in0.0 mm
01:47 AM 33.3°F0.7°C 26.3°F-3.2°C 75% Calm Calm -- 29.95 in1014.2 mb 0.00 in0.0 mm 0.00 in0.0 mm 0.00 in0.0 mm
01:48 AM 33.2°F0.7°C 26.5°F-3.1°C 76% Calm Calm -- 29.96 in1014.6 mb 0.00 in0.0 mm 0.00 in0.0 mm 0.00 in0.0 mm
01:49 AM 33.1°F0.6°C 26.4°F-3.1°C 76% Calm Calm -- 29.96 in1014.6 mb 0.00 in0.0 mm 0.00 in0.0 mm 0.00 in0.0 mm
01:50 AM 33.1°F0.6°C 26.4°F-3.1°C 76% Calm Calm -- 29.95 in1014.2 mb 0.00 in0.0 mm 0.00 in0.0 mm 0.00 in0.0 mm
01:51 AM 33.0°F0.6°C 26.3°F-3.2°C 76% Calm Calm -- 29.96 in1014.6 mb 0.00 in0.0 mm 0.00 in0.0 mm 0.00 in0.0 mm
01:52 AM 33.0°F0.6°C 26.3°F-3.2°C 76% Calm Calm -- 29.95 in1014.2 mb 0.00 in0.0 mm 0.00 in0.0 mm 0.00 in0.0 mm
01:53 AM 32.9°F0.5°C 26.2°F-3.2°C 76% Calm Calm -- 29.95 in1014.2 mb 0.00 in0.0 mm 0.00 in0.0 mm 0.00 in0.0 mm
01:54 AM 32.9°F0.5°C 26.2°F-3.2°C 76% Calm Calm -- 29.95 in1014.2 mb 0.00 in0.0 mm 0.00 in0.0 mm 0.00 in0.0 mm
01:55 AM 32.9°F0.5°C 26.2°F-3.2°C 76% Calm Calm -- 29.95 in1014.2 mb 0.00 in0.0 mm 0.00 in0.0 mm 0.00 in0.0 mm
01:56 AM 32.8°F0.4°C 26.1°F-3.3°C 76% Calm Calm -- 29.95 in1014.2 mb 0.00 in0.0 mm 0.00 in0.0 mm 0.00 in0.0 mm
01:57 AM 32.8°F0.4°C 26.1°F-3.3°C 76% Calm Calm -- 29.95 in1014.2 mb 0.00 in0.0 mm 0.00 in0.0 mm 0.00 in0.0 mm
01:58 AM 32.8°F0.4°C 26.1°F-3.3°C 76% Calm Calm -- 29.95 in1014.2 mb 0.00 in0.0 mm 0.00 in0.0 mm 0.00 in0.0 mm
01:59 AM 32.7°F0.4°C 26.0°F-3.3°C 76% Calm Calm -- 29.95 in1014.2 mb 0.00 in0.0 mm 0.00 in0.0 mm 0.00 in0.0 mm
02:00 AM 32.7°F0.4°C 26.0°F-3.3°C 76% Calm Calm -- 29.95 in1014.2 mb 0.00 in0.0 mm 0.00 in0.0 mm 0.00 in0.0 mm
02:01 AM 32.6°F0.3°C 25.9°F-3.4°C 76% Calm Calm -- 29.95 in1014.2 mb 0.00 in0.0 mm 0.00 in0.0 mm 0.00 in0.0 mm
02:02 AM 32.5°F0.3°C 25.8°F-3.4°C 76% Calm Calm -- 29.95 in1014.2 mb 0.00 in0.0 mm 0.00 in0.0 mm 0.00 in0.0 mm
02:03 AM 32.5°F0.3°C 25.8°F-3.4°C 76% Calm Calm -- 29.95 in1014.2 mb 0.00 in0.0 mm 0.00 in0.0 mm 0.00 in0.0 mm
02:04 AM 32.5°F0.3°C 25.8°F-3.4°C 76% Calm Calm -- 29.95 in1014.2 mb 0.00 in0.0 mm 0.00 in0.0 mm 0.00 in0.0 mm
02:05 AM 32.4°F0.2°C 26.0°F-3.3°C 77% Calm Calm -- 29.95 in1014.2 mb 0.00 in0.0 mm 0.00 in0.0 mm 0.00 in0.0 mm
02:06 AM 32.4°F0.2°C 26.0°F-3.3°C 77% Calm Calm -- 29.95 in1014.2 mb 0.00 in0.0 mm 0.00 in0.0 mm 0.00 in0.0 mm
02:07 AM 32.4°F0.2°C 26.0°F-3.3°C 77% Calm Calm -- 29.95 in1014.2 mb 0.00 in0.0 mm 0.00 in0.0 mm 0.00 in0.0 mm
02:08 AM 32.3°F0.2°C 25.9°F-3.4°C 77% Calm Calm -- 29.95 in1014.2 mb 0.00 in0.0 mm 0.00 in0.0 mm 0.00 in0.0 mm
02:09 AM 32.3°F0.2°C 25.9°F-3.4°C 77% Calm Calm -- 29.95 in1014.2 mb 0.00 in0.0 mm 0.00 in0.0 mm 0.00 in0.0 mm
02:10 AM 32.3°F0.2°C 25.9°F-3.4°C 77% Calm Calm -- 29.95 in1014.2 mb 0.00 in0.0 mm 0.00 in0.0 mm 0.00 in0.0 mm
02:11 AM 32.2°F0.1°C 25.8°F-3.4°C 77% Calm Calm -- 29.95 in1014.2 mb 0.00 in0.0 mm 0.00 in0.0 mm 0.00 in0.0 mm
02:12 AM 32.2°F0.1°C 25.8°F-3.4°C 77% Calm Calm -- 29.95 in1014.2 mb 0.00 in0.0 mm 0.00 in0.0 mm 0.00 in0.0 mm
02:13 AM 32.1°F0.1°C 25.7°F-3.5°C 77% Calm Calm -- 29.95 in1014.2 mb 0.00 in0.0 mm 0.00 in0.0 mm 0.00 in0.0 mm
02:14 AM 32.1°F0.1°C 25.7°F-3.5°C 77% Calm Calm -- 29.95 in1014.2 mb 0.00 in0.0 mm 0.00 in0.0 mm 0.00 in0.0 mm
02:15 AM 32.0°F0.0°C 25.6°F-3.6°C 77% Calm Calm -- 29.95 in1014.2 mb 0.00 in0.0 mm 0.00 in0.0 mm 0.00 in0.0 mm
02:16 AM 32.0°F0.0°C 25.6°F-3.6°C 77% Calm Calm -- 29.95 in1014.2 mb 0.00 in0.0 mm 0.00 in0.0 mm 0.00 in0.0 mm
02:17 AM 32.0°F0.0°C 25.6°F-3.6°C 77% Calm Calm -- 29.95 in1014.2 mb 0.00 in0.0 mm 0.00 in0.0 mm 0.00 in0.0 mm
02:18 AM 31.9°F-0.1°C 25.5°F-3.6°C 77% Calm Calm -- 29.95 in1014.2 mb 0.00 in0.0 mm 0.00 in0.0 mm 0.00 in0.0 mm
02:19 AM 31.9°F-0.1°C 25.5°F-3.6°C 77% Calm Calm -- 29.95 in1014.2 mb 0.00 in0.0 mm 0.00 in0.0 mm 0.00 in0.0 mm
02:20 AM 31.9°F-0.1°C 25.5°F-3.6°C 77% Calm Calm -- 29.95 in1014.2 mb 0.00 in0.0 mm 0.00 in0.0 mm 0.00 in0.0 mm
02:21 AM 31.9°F-0.1°C 25.5°F-3.6°C 77% Calm Calm -- 29.95 in1014.2 mb 0.00 in0.0 mm 0.00 in0.0 mm 0.00 in0.0 mm
02:22 AM 31.9°F-0.1°C 25.5°F-3.6°C 77% Calm Calm -- 29.95 in1014.2 mb 0.00 in0.0 mm 0.00 in0.0 mm 0.00 in0.0 mm
02:23 AM 31.8°F-0.1°C 25.4°F-3.7°C 77% Calm Calm -- 29.94 in1013.9 mb 0.00 in0.0 mm 0.00 in0.0 mm 0.00 in0.0 mm
02:24 AM 31.8°F-0.1°C 25.4°F-3.7°C 77% Calm Calm -- 29.94 in1013.9 mb 0.00 in0.0 mm 0.00 in0.0 mm 0.00 in0.0 mm
02:25 AM 31.8°F-0.1°C 25.7°F-3.5°C 78% Calm Calm -- 29.94 in1013.9 mb 0.00 in0.0 mm 0.00 in0.0 mm 0.00 in0.0 mm
02:26 AM 31.8°F-0.1°C 25.7°F-3.5°C 78% Calm Calm -- 29.94 in1013.9 mb 0.00 in0.0 mm 0.00 in0.0 mm 0.00 in0.0 mm
02:27 AM 31.7°F-0.2°C 25.6°F-3.6°C 78% Calm Calm -- 29.94 in1013.9 mb 0.00 in0.0 mm 0.00 in0.0 mm 0.00 in0.0 mm
02:28 AM 31.8°F-0.1°C 25.7°F-3.5°C 78% Calm Calm -- 29.94 in1013.9 mb 0.00 in0.0 mm 0.00 in0.0 mm 0.00 in0.0 mm
02:29 AM 31.7°F-0.2°C 25.6°F-3.6°C 78% Calm Calm -- 29.94 in1013.9 mb 0.00 in0.0 mm 0.00 in0.0 mm 0.00 in0.0 mm
02:30 AM 31.7°F-0.2°C 25.6°F-3.6°C 78% Calm Calm -- 29.94 in1013.9 mb 0.00 in0.0 mm 0.00 in0.0 mm 0.00 in0.0 mm
02:31 AM 31.8°F-0.1°C 25.7°F-3.5°C 78% Calm Calm -- 29.94 in1013.9 mb 0.00 in0.0 mm 0.00 in0.0 mm 0.00 in0.0 mm
02:32 AM 31.7°F-0.2°C 25.6°F-3.6°C 78% Calm Calm -- 29.94 in1013.9 mb 0.00 in0.0 mm 0.00 in0.0 mm 0.00 in0.0 mm
02:33 AM 31.8°F-0.1°C 25.7°F-3.5°C 78% Calm Calm -- 29.94 in1013.9 mb 0.00 in0.0 mm 0.00 in0.0 mm 0.00 in0.0 mm
02:34 AM 31.8°F-0.1°C 25.7°F-3.5°C 78% Calm Calm -- 29.94 in1013.9 mb 0.00 in0.0 mm 0.00 in0.0 mm 0.00 in0.0 mm
02:35 AM 31.8°F-0.1°C 25.7°F-3.5°C 78% Calm Calm -- 29.94 in1013.9 mb 0.00 in0.0 mm 0.00 in0.0 mm 0.00 in0.0 mm
02:36 AM 31.8°F-0.1°C 26.0°F-3.3°C 79% Calm Calm -- 29.94 in1013.9 mb 0.00 in0.0 mm 0.00 in0.0 mm 0.00 in0.0 mm
02:37 AM 31.8°F-0.1°C 26.0°F-3.3°C 79% Calm Calm -- 29.94 in1013.9 mb 0.00 in0.0 mm 0.00 in0.0 mm 0.00 in0.0 mm
02:38 AM 31.9°F-0.1°C 26.1°F-3.3°C 79% Calm Calm -- 29.94 in1013.9 mb 0.00 in0.0 mm 0.00 in0.0 mm 0.00 in0.0 mm
02:39 AM 31.9°F-0.1°C 26.1°F-3.3°C 79% Calm Calm -- 29.94 in1013.9 mb 0.00 in0.0 mm 0.00 in0.0 mm 0.00 in0.0 mm
02:40 AM 31.9°F-0.1°C 26.1°F-3.3°C 79% Calm Calm -- 29.94 in1013.9 mb 0.00 in0.0 mm 0.00 in0.0 mm 0.00 in0.0 mm
02:41 AM 31.9°F-0.1°C 26.1°F-3.3°C 79% Calm Calm -- 29.94 in1013.9 mb 0.00 in0.0 mm 0.00 in0.0 mm 0.00 in0.0 mm
02:42 AM 31.9°F-0.1°C 26.1°F-3.3°C 79% Calm Calm -- 29.94 in1013.9 mb 0.00 in0.0 mm 0.00 in0.0 mm 0.00 in0.0 mm
02:43 AM 31.9°F-0.1°C 26.1°F-3.3°C 79% Calm Calm -- 29.94 in1013.9 mb 0.00 in0.0 mm 0.00 in0.0 mm 0.00 in0.0 mm
02:44 AM 31.8°F-0.1°C 26.0°F-3.3°C 79% Calm Calm -- 29.94 in1013.9 mb 0.00 in0.0 mm 0.00 in0.0 mm 0.00 in0.0 mm
02:45 AM 31.8°F-0.1°C 26.0°F-3.3°C 79% Calm Calm -- 29.94 in1013.9 mb 0.00 in0.0 mm 0.00 in0.0 mm 0.00 in0.0 mm
02:46 AM 31.8°F-0.1°C 26.0°F-3.3°C 79% Calm Calm -- 29.94 in1013.9 mb 0.00 in0.0 mm 0.00 in0.0 mm 0.00 in0.0 mm
02:47 AM 31.8°F-0.1°C 26.0°F-3.3°C 79% Calm Calm -- 29.94 in1013.9 mb 0.00 in0.0 mm 0.00 in0.0 mm 0.00 in0.0 mm
02:48 AM 31.7°F-0.2°C 25.9°F-3.4°C 79% Calm Calm -- 29.94 in1013.9 mb 0.00 in0.0 mm 0.00 in0.0 mm 0.00 in0.0 mm
02:49 AM 31.7°F-0.2°C 25.9°F-3.4°C 79% Calm Calm -- 29.94 in1013.9 mb 0.00 in0.0 mm 0.00 in0.0 mm 0.00 in0.0 mm
02:50 AM 31.7°F-0.2°C 25.9°F-3.4°C 79% Calm Calm -- 29.94 in1013.9 mb 0.00 in0.0 mm 0.00 in0.0 mm 0.00 in0.0 mm
02:51 AM 31.6°F-0.2°C 25.9°F-3.4°C 79% Calm Calm -- 29.94 in1013.9 mb 0.00 in0.0 mm 0.00 in0.0 mm 0.00 in0.0 mm
02:52 AM 31.6°F-0.2°C 25.9°F-3.4°C 79% Calm Calm -- 29.94 in1013.9 mb 0.00 in0.0 mm 0.00 in0.0 mm 0.00 in0.0 mm
02:53 AM 31.5°F-0.3°C 25.8°F-3.4°C 79% Calm Calm -- 29.94 in1013.9 mb 0.00 in0.0 mm 0.00 in0.0 mm 0.00 in0.0 mm
02:54 AM 31.5°F-0.3°C 25.8°F-3.4°C 79% Calm Calm -- 29.94 in1013.9 mb 0.00 in0.0 mm 0.00 in0.0 mm 0.00 in0.0 mm
02:55 AM 31.5°F-0.3°C 26.1°F-3.3°C 80% Calm Calm -- 29.94 in1013.9 mb 0.00 in0.0 mm 0.00 in0.0 mm 0.00 in0.0 mm
02:56 AM 31.4°F-0.3°C 25.7°F-3.5°C 79% Calm Calm -- 29.94 in1013.9 mb 0.00 in0.0 mm 0.00 in0.0 mm 0.00 in0.0 mm
02:57 AM 31.4°F-0.3°C 25.7°F-3.5°C 79% Calm Calm -- 29.94 in1013.9 mb 0.00 in0.0 mm 0.00 in0.0 mm 0.00 in0.0 mm
02:58 AM 31.3°F-0.4°C 25.6°F-3.6°C 79% Calm Calm -- 29.94 in1013.9 mb 0.00 in0.0 mm 0.00 in0.0 mm 0.00 in0.0 mm
02:59 AM 31.3°F-0.4°C 25.6°F-3.6°C 79% Calm Calm -- 29.93 in1013.5 mb 0.00 in0.0 mm 0.00 in0.0 mm 0.00 in0.0 mm
03:00 AM 31.3°F-0.4°C 25.9°F-3.4°C 80% Calm Calm -- 29.93 in1013.5 mb 0.00 in0.0 mm 0.00 in0.0 mm 0.00 in0.0 mm
03:01 AM 31.3°F-0.4°C 25.9°F-3.4°C 80% Calm Calm -- 29.93 in1013.5 mb 0.00 in0.0 mm 0.00 in0.0 mm 0.00 in0.0 mm
03:02 AM 31.3°F-0.4°C 25.9°F-3.4°C 80% Calm Calm -- 29.93 in1013.5 mb 0.00 in0.0 mm 0.00 in0.0 mm 0.00 in0.0 mm
03:03 AM 31.3°F-0.4°C 25.9°F-3.4°C 80% Calm Calm -- 29.93 in1013.5 mb 0.00 in0.0 mm 0.00 in0.0 mm 0.00 in0.0 mm
03:04 AM 31.3°F-0.4°C 25.9°F-3.4°C 80% Calm Calm -- 29.93 in1013.5 mb 0.00 in0.0 mm 0.00 in0.0 mm 0.00 in0.0 mm
03:05 AM 31.3°F-0.4°C 25.9°F-3.4°C 80% Calm Calm -- 29.93 in1013.5 mb 0.00 in0.0 mm 0.00 in0.0 mm 0.00 in0.0 mm
03:06 AM 31.2°F-0.4°C 25.8°F-3.4°C 80% Calm Calm -- 29.93 in1013.5 mb 0.00 in0.0 mm 0.00 in0.0 mm 0.00 in0.0 mm
03:07 AM 31.2°F-0.4°C 25.8°F-3.4°C 80% Calm Calm -- 29.93 in1013.5 mb 0.00 in0.0 mm 0.00 in0.0 mm 0.00 in0.0 mm
03:08 AM 31.2°F-0.4°C 25.8°F-3.4°C 80% Calm Calm -- 29.93 in1013.5 mb 0.00 in0.0 mm 0.00 in0.0 mm 0.00 in0.0 mm
03:09 AM 31.2°F-0.4°C 25.8°F-3.4°C 80% Calm Calm -- 29.93 in1013.5 mb 0.00 in0.0 mm 0.00 in0.0 mm 0.00 in0.0 mm
03:10 AM 31.1°F-0.5°C 25.7°F-3.5°C 80% Calm Calm -- 29.93 in1013.5 mb 0.00 in0.0 mm 0.00 in0.0 mm 0.00 in0.0 mm
03:11 AM 31.1°F-0.5°C 25.7°F-3.5°C 80% Calm Calm -- 29.93 in1013.5 mb 0.00 in0.0 mm 0.00 in0.0 mm 0.00 in0.0 mm
03:12 AM 31.1°F-0.5°C 25.7°F-3.5°C 80% Calm Calm -- 29.93 in1013.5 mb 0.00 in0.0 mm 0.00 in0.0 mm 0.00 in0.0 mm
03:13 AM 31.1°F-0.5°C 25.7°F-3.5°C 80% Calm Calm -- 29.93 in1013.5 mb 0.00 in0.0 mm 0.00 in0.0 mm 0.00 in0.0 mm
03:14 AM 31.1°F-0.5°C 25.7°F-3.5°C 80% Calm Calm -- 29.93 in1013.5 mb 0.00 in0.0 mm 0.00 in0.0 mm 0.00 in0.0 mm
03:15 AM 31.1°F-0.5°C 25.7°F-3.5°C 80% Calm Calm -- 29.92 in1013.2 mb 0.00 in0.0 mm 0.00 in0.0 mm 0.00 in0.0 mm
03:16 AM 31.1°F-0.5°C 25.7°F-3.5°C 80% Calm Calm -- 29.92 in1013.2 mb 0.00 in0.0 mm 0.00 in0.0 mm 0.00 in0.0 mm
03:17 AM 31.1°F-0.5°C 25.7°F-3.5°C 80% Calm Calm -- 29.92 in1013.2 mb 0.00 in0.0 mm 0.00 in0.0 mm 0.00 in0.0 mm
03:18 AM 31.1°F-0.5°C 25.7°F-3.5°C 80% Calm Calm -- 29.92 in1013.2 mb 0.00 in0.0 mm 0.00 in0.0 mm 0.00 in0.0 mm
03:19 AM 31.1°F-0.5°C 26.0°F-3.3°C 81% Calm Calm -- 29.92 in1013.2 mb 0.00 in0.0 mm 0.00 in0.0 mm 0.00 in0.0 mm
03:20 AM 31.1°F-0.5°C 25.7°F-3.5°C 80% Calm Calm -- 29.92 in1013.2 mb 0.00 in0.0 mm 0.00 in0.0 mm 0.00 in0.0 mm
03:21 AM 31.1°F-0.5°C 26.0°F-3.3°C 81% Calm Calm -- 29.92 in1013.2 mb 0.00 in0.0 mm 0.00 in0.0 mm 0.00 in0.0 mm
03:22 AM 31.1°F-0.5°C 25.7°F-3.5°C 80% Calm Calm -- 29.92 in1013.2 mb 0.00 in0.0 mm 0.00 in0.0 mm 0.00 in0.0 mm
03:23 AM 31.1°F-0.5°C 25.7°F-3.5°C 80% Calm Calm -- 29.92 in1013.2 mb 0.00 in0.0 mm 0.00 in0.0 mm 0.00 in0.0 mm
03:24 AM 31.0°F-0.6°C 25.6°F-3.6°C 80% Calm Calm -- 29.92 in1013.2 mb 0.00 in0.0 mm 0.00 in0.0 mm 0.00 in0.0 mm
03:25 AM 31.0°F-0.6°C 25.6°F-3.6°C 80% Calm Calm -- 29.92 in1013.2 mb 0.00 in0.0 mm 0.00 in0.0 mm 0.00 in0.0 mm
03:26 AM 31.0°F-0.6°C 25.9°F-3.4°C 81% Calm Calm -- 29.92 in1013.2 mb 0.00 in0.0 mm 0.00 in0.0 mm 0.00 in0.0 mm
03:27 AM 31.0°F-0.6°C 25.6°F-3.6°C 80% Calm Calm -- 29.92 in1013.2 mb 0.00 in0.0 mm 0.00 in0.0 mm 0.00 in0.0 mm
03:28 AM 31.0°F-0.6°C 25.6°F-3.6°C 80% Calm Calm -- 29.92 in1013.2 mb 0.00 in0.0 mm 0.00 in0.0 mm 0.00 in0.0 mm
03:29 AM 30.9°F-0.6°C 25.5°F-3.6°C 80% Calm Calm -- 29.92 in1013.2 mb 0.00 in0.0 mm 0.00 in0.0 mm 0.00 in0.0 mm
03:30 AM 30.9°F-0.6°C 25.5°F-3.6°C 80% Calm Calm -- 29.91 in1012.9 mb 0.00 in0.0 mm 0.00 in0.0 mm 0.00 in0.0 mm
03:31 AM 30.8°F-0.7°C 25.4°F-3.7°C 80% Calm Calm -- 29.92 in1013.2 mb 0.00 in0.0 mm 0.00 in0.0 mm 0.00 in0.0 mm
03:32 AM 30.8°F-0.7°C 25.4°F-3.7°C 80% Calm Calm -- 29.92 in1013.2 mb 0.00 in0.0 mm 0.00 in0.0 mm 0.00 in0.0 mm
03:33 AM 30.8°F-0.7°C 25.4°F-3.7°C 80% Calm Calm -- 29.92 in1013.2 mb 0.00 in0.0 mm 0.00 in0.0 mm 0.00 in0.0 mm
03:34 AM 30.8°F-0.7°C 25.4°F-3.7°C 80% Calm Calm -- 29.92 in1013.2 mb 0.00 in0.0 mm 0.00 in0.0 mm 0.00 in0.0 mm
03:35 AM 30.8°F-0.7°C 25.4°F-3.7°C 80% Calm Calm -- 29.91 in1012.9 mb 0.00 in0.0 mm 0.00 in0.0 mm 0.00 in0.0 mm
03:36 AM 30.8°F-0.7°C 25.4°F-3.7°C 80% Calm Calm -- 29.91 in1012.9 mb 0.00 in0.0 mm 0.00 in0.0 mm 0.00 in0.0 mm
03:37 AM 30.8°F-0.7°C 25.4°F-3.7°C 80% Calm Calm -- 29.91 in1012.9 mb 0.00 in0.0 mm 0.00 in0.0 mm 0.00 in0.0 mm
03:38 AM 30.7°F-0.7°C 25.6°F-3.6°C 81% Calm Calm -- 29.91 in1012.9 mb 0.00 in0.0 mm 0.00 in0.0 mm 0.00 in0.0 mm
03:39 AM 30.7°F-0.7°C 25.6°F-3.6°C 81% Calm Calm -- 29.91 in1012.9 mb 0.00 in0.0 mm 0.00 in0.0 mm 0.00 in0.0 mm
03:40 AM 30.7°F-0.7°C 25.6°F-3.6°C 81% Calm Calm -- 29.91 in1012.9 mb 0.00 in0.0 mm 0.00 in0.0 mm 0.00 in0.0 mm
03:41 AM 30.8°F-0.7°C 25.7°F-3.5°C 81% Calm Calm -- 29.91 in1012.9 mb 0.00 in0.0 mm 0.00 in0.0 mm 0.00 in0.0 mm
03:42 AM 30.8°F-0.7°C 25.7°F-3.5°C 81% Calm Calm -- 29.91 in1012.9 mb 0.00 in0.0 mm 0.00 in0.0 mm 0.00 in0.0 mm
03:43 AM 30.8°F-0.7°C 25.7°F-3.5°C 81% Calm Calm -- 29.91 in1012.9 mb 0.00 in0.0 mm 0.00 in0.0 mm 0.00 in0.0 mm
03:44 AM 30.8°F-0.7°C 25.7°F-3.5°C 81% Calm Calm -- 29.91 in1012.9 mb 0.00 in0.0 mm 0.00 in0.0 mm 0.00 in0.0 mm
03:45 AM 30.8°F-0.7°C 25.7°F-3.5°C 81% Calm Calm -- 29.91 in1012.9 mb 0.00 in0.0 mm 0.00 in0.0 mm 0.00 in0.0 mm
03:46 AM 30.8°F-0.7°C 26.0°F-3.3°C 82% Calm Calm -- 29.91 in1012.9 mb 0.00 in0.0 mm 0.00 in0.0 mm 0.00 in0.0 mm
03:47 AM 30.9°F-0.6°C 26.1°F-3.3°C 82% Calm Calm -- 29.90 in1012.5 mb 0.00 in0.0 mm 0.00 in0.0 mm 0.00 in0.0 mm
03:48 AM 30.9°F-0.6°C 26.1°F-3.3°C 82% Calm Calm -- 29.90 in1012.5 mb 0.00 in0.0 mm 0.00 in0.0 mm 0.00 in0.0 mm
03:49 AM 30.9°F-0.6°C 26.1°F-3.3°C 82% Calm Calm -- 29.90 in1012.5 mb 0.00 in0.0 mm 0.00 in0.0 mm 0.00 in0.0 mm
03:50 AM 30.9°F-0.6°C 25.8°F-3.4°C 81% Calm Calm -- 29.90 in1012.5 mb 0.00 in0.0 mm 0.00 in0.0 mm 0.00 in0.0 mm
03:51 AM 30.9°F-0.6°C 25.8°F-3.4°C 81% Calm Calm -- 29.90 in1012.5 mb 0.00 in0.0 mm 0.00 in0.0 mm 0.00 in0.0 mm
03:52 AM 30.9°F-0.6°C 25.8°F-3.4°C 81% Calm Calm -- 29.90 in1012.5 mb 0.00 in0.0 mm 0.00 in0.0 mm 0.00 in0.0 mm
03:53 AM 30.9°F-0.6°C 25.8°F-3.4°C 81% Calm Calm -- 29.90 in1012.5 mb 0.00 in0.0 mm 0.00 in0.0 mm 0.00 in0.0 mm
03:54 AM 30.9°F-0.6°C 25.8°F-3.4°C 81% Calm Calm -- 29.90 in1012.5 mb 0.00 in0.0 mm 0.00 in0.0 mm 0.00 in0.0 mm
03:55 AM 30.9°F-0.6°C 25.8°F-3.4°C 81% Calm Calm -- 29.90 in1012.5 mb 0.00 in0.0 mm 0.00 in0.0 mm 0.00 in0.0 mm
03:56 AM 30.9°F-0.6°C 25.8°F-3.4°C 81% Calm Calm -- 29.90 in1012.5 mb 0.00 in0.0 mm 0.00 in0.0 mm 0.00 in0.0 mm
03:57 AM 30.9°F-0.6°C 25.8°F-3.4°C 81% Calm Calm -- 29.90 in1012.5 mb 0.00 in0.0 mm 0.00 in0.0 mm 0.00 in0.0 mm
03:58 AM 31.0°F-0.6°C 25.9°F-3.4°C 81% Calm Calm -- 29.90 in1012.5 mb 0.00 in0.0 mm 0.00 in0.0 mm 0.00 in0.0 mm
03:59 AM 30.9°F-0.6°C 25.8°F-3.4°C 81% Calm Calm -- 29.89 in1012.2 mb 0.00 in0.0 mm 0.00 in0.0 mm 0.00 in0.0 mm
04:00 AM 31.0°F-0.6°C 25.9°F-3.4°C 81% Calm Calm -- 29.89 in1012.2 mb 0.00 in0.0 mm 0.00 in0.0 mm 0.00 in0.0 mm
04:01 AM 30.9°F-0.6°C 25.8°F-3.4°C 81% Calm Calm -- 29.89 in1012.2 mb 0.00 in0.0 mm 0.00 in0.0 mm 0.00 in0.0 mm
04:02 AM 31.0°F-0.6°C 25.9°F-3.4°C 81% Calm Calm -- 29.89 in1012.2 mb 0.00 in0.0 mm 0.00 in0.0 mm 0.00 in0.0 mm
04:03 AM 30.9°F-0.6°C 25.8°F-3.4°C 81% Calm Calm -- 29.89 in1012.2 mb 0.00 in0.0 mm 0.00 in0.0 mm 0.00 in0.0 mm
04:04 AM 30.9°F-0.6°C 25.8°F-3.4°C 81% Calm Calm -- 29.89 in1012.2 mb 0.00 in0.0 mm 0.00 in0.0 mm 0.00 in0.0 mm
04:05 AM 30.9°F-0.6°C 25.8°F-3.4°C 81% Calm Calm -- 29.89 in1012.2 mb 0.00 in0.0 mm 0.00 in0.0 mm 0.00 in0.0 mm
04:06 AM 30.8°F-0.7°C 25.7°F-3.5°C 81% Calm Calm -- 29.89 in1012.2 mb 0.00 in0.0 mm 0.00 in0.0 mm 0.00 in0.0 mm
04:07 AM 30.8°F-0.7°C 25.7°F-3.5°C 81% Calm Calm -- 29.89 in1012.2 mb 0.00 in0.0 mm 0.00 in0.0 mm 0.00 in0.0 mm
04:08 AM 30.8°F-0.7°C 25.7°F-3.5°C 81% Calm Calm -- 29.89 in1012.2 mb 0.00 in0.0 mm 0.00 in0.0 mm 0.00 in0.0 mm
04:09 AM 30.8°F-0.7°C 25.4°F-3.7°C 80% Calm Calm -- 29.89 in1012.2 mb 0.00 in0.0 mm 0.00 in0.0 mm 0.00 in0.0 mm
04:10 AM 30.8°F-0.7°C 25.4°F-3.7°C 80% Calm Calm -- 29.89 in1012.2 mb 0.00 in0.0 mm 0.00 in0.0 mm 0.00 in0.0 mm
04:11 AM 30.8°F-0.7°C 25.4°F-3.7°C 80% Calm Calm -- 29.88 in1011.9 mb 0.00 in0.0 mm 0.00 in0.0 mm 0.00 in0.0 mm
04:12 AM 30.7°F-0.7°C 25.3°F-3.7°C 80% Calm Calm -- 29.88 in1011.9 mb 0.00 in0.0 mm 0.00 in0.0 mm 0.00 in0.0 mm
04:13 AM 30.7°F-0.7°C 25.3°F-3.7°C 80% Calm Calm -- 29.88 in1011.9 mb 0.00 in0.0 mm 0.00 in0.0 mm 0.00 in0.0 mm
04:14 AM 30.7°F-0.7°C 25.3°F-3.7°C 80% Calm Calm -- 29.88 in1011.9 mb 0.00 in0.0 mm 0.00 in0.0 mm 0.00 in0.0 mm
04:15 AM 30.6°F-0.8°C 25.5°F-3.6°C 81% Calm Calm -- 29.88 in1011.9 mb 0.00 in0.0 mm 0.00 in0.0 mm 0.00 in0.0 mm
04:16 AM 30.6°F-0.8°C 25.5°F-3.6°C 81% Calm Calm -- 29.88 in1011.9 mb 0.00 in0.0 mm 0.00 in0.0 mm 0.00 in0.0 mm
04:17 AM 30.6°F-0.8°C 25.5°F-3.6°C 81% Calm Calm -- 29.88 in1011.9 mb 0.00 in0.0 mm 0.00 in0.0 mm 0.00 in0.0 mm
04:18 AM 30.6°F-0.8°C 25.5°F-3.6°C 81% Calm Calm -- 29.88 in1011.9 mb 0.00 in0.0 mm 0.00 in0.0 mm 0.00 in0.0 mm
04:19 AM 30.5°F-0.8°C 25.4°F-3.7°C 81% Calm Calm -- 29.88 in1011.9 mb 0.00 in0.0 mm 0.00 in0.0 mm 0.00 in0.0 mm
04:20 AM 30.5°F-0.8°C 25.4°F-3.7°C 81% Calm Calm -- 29.88 in1011.9 mb 0.00 in0.0 mm 0.00 in0.0 mm 0.00 in0.0 mm
04:21 AM 30.5°F-0.8°C 25.4°F-3.7°C 81% Calm Calm -- 29.88 in1011.9 mb 0.00 in0.0 mm 0.00 in0.0 mm 0.00 in0.0 mm
04:22 AM 30.5°F-0.8°C 25.4°F-3.7°C 81% Calm Calm -- 29.88 in1011.9 mb 0.00 in0.0 mm 0.00 in0.0 mm 0.00 in0.0 mm
04:23 AM 30.5°F-0.8°C 25.4°F-3.7°C 81% Calm Calm -- 29.88 in1011.9 mb 0.00 in0.0 mm 0.00 in0.0 mm 0.00 in0.0 mm
04:24 AM 30.5°F-0.8°C 25.4°F-3.7°C 81% Calm Calm -- 29.88 in1011.9 mb 0.00 in0.0 mm 0.00 in0.0 mm 0.00 in0.0 mm
04:25 AM 30.5°F-0.8°C 25.4°F-3.7°C 81% Calm Calm -- 29.88 in1011.9 mb 0.00 in0.0 mm 0.00 in0.0 mm 0.00 in0.0 mm
04:26 AM 30.5°F-0.8°C 25.4°F-3.7°C 81% Calm Calm -- 29.88 in1011.9 mb 0.00 in0.0 mm 0.00 in0.0 mm 0.00 in0.0 mm
04:27 AM 30.4°F-0.9°C 25.3°F-3.7°C 81% Calm Calm -- 29.88 in1011.9 mb 0.00 in0.0 mm 0.00 in0.0 mm 0.00 in0.0 mm
04:28 AM 30.4°F-0.9°C 25.3°F-3.7°C 81% Calm Calm -- 29.88 in1011.9 mb 0.00 in0.0 mm 0.00 in0.0 mm 0.00 in0.0 mm
04:29 AM 30.4°F-0.9°C 25.3°F-3.7°C 81% Calm Calm -- 29.88 in1011.9 mb 0.00 in0.0 mm 0.00 in0.0 mm 0.00 in0.0 mm
04:31 AM 30.5°F-0.8°C 25.4°F-3.7°C 81% Calm Calm -- 29.87 in1011.5 mb 0.00 in0.0 mm 0.00 in0.0 mm 0.00 in0.0 mm
04:32 AM 30.5°F-0.8°C 25.7°F-3.5°C 82% Calm Calm -- 29.88 in1011.9 mb 0.00 in0.0 mm 0.00 in0.0 mm 0.00 in0.0 mm
04:33 AM 30.5°F-0.8°C 25.7°F-3.5°C 82% Calm Calm -- 29.88 in1011.9 mb 0.00 in0.0 mm 0.00 in0.0 mm 0.00 in0.0 mm
04:34 AM 30.5°F-0.8°C 25.7°F-3.5°C 82% Calm Calm -- 29.88 in1011.9 mb 0.00 in0.0 mm 0.00 in0.0 mm 0.00 in0.0 mm
04:35 AM 30.5°F-0.8°C 25.7°F-3.5°C 82% Calm Calm -- 29.88 in1011.9 mb 0.00 in0.0 mm 0.00 in0.0 mm 0.00 in0.0 mm
04:36 AM 30.6°F-0.8°C 25.8°F-3.4°C 82% Calm Calm -- 29.88 in1011.9 mb 0.00 in0.0 mm 0.00 in0.0 mm 0.00 in0.0 mm
04:37 AM 30.6°F-0.8°C 25.8°F-3.4°C 82% Calm Calm -- 29.88 in1011.9 mb 0.00 in0.0 mm 0.00 in0.0 mm 0.00 in0.0 mm
04:38 AM 30.6°F-0.8°C 25.8°F-3.4°C 82% Calm Calm -- 29.88 in1011.9 mb 0.00 in0.0 mm 0.00 in0.0 mm 0.00 in0.0 mm
04:39 AM 30.6°F-0.8°C 25.8°F-3.4°C 82% Calm Calm -- 29.88 in1011.9 mb 0.00 in0.0 mm 0.00 in0.0 mm 0.00 in0.0 mm
04:40 AM 30.6°F-0.8°C 25.8°F-3.4°C 82% Calm Calm -- 29.88 in1011.9 mb 0.00 in0.0 mm 0.00 in0.0 mm 0.00 in0.0 mm
04:41 AM 30.7°F-0.7°C 25.9°F-3.4°C 82% Calm Calm -- 29.87 in1011.5 mb 0.00 in0.0 mm 0.00 in0.0 mm 0.00 in0.0 mm
04:42 AM 30.7°F-0.7°C 25.9°F-3.4°C 82% Calm Calm -- 29.88 in1011.9 mb 0.00 in0.0 mm 0.00 in0.0 mm 0.00 in0.0 mm
04:43 AM 30.7°F-0.7°C 25.9°F-3.4°C 82% Calm Calm -- 29.87 in1011.5 mb 0.00 in0.0 mm 0.00 in0.0 mm 0.00 in0.0 mm
04:44 AM 30.7°F-0.7°C 25.9°F-3.4°C 82% Calm Calm -- 29.88 in1011.9 mb 0.00 in0.0 mm 0.00 in0.0 mm 0.00 in0.0 mm
04:45 AM 30.7°F-0.7°C 25.9°F-3.4°C 82% Calm Calm -- 29.88 in1011.9 mb 0.00 in0.0 mm 0.00 in0.0 mm 0.00 in0.0 mm
04:46 AM 30.7°F-0.7°C 25.6°F-3.6°C 81% Calm Calm -- 29.88 in1011.9 mb 0.00 in0.0 mm 0.00 in0.0 mm 0.00 in0.0 mm
04:47 AM 30.7°F-0.7°C 25.6°F-3.6°C 81% Calm Calm -- 29.88 in1011.9 mb 0.00 in0.0 mm 0.00 in0.0 mm 0.00 in0.0 mm
04:48 AM 30.7°F-0.7°C 25.6°F-3.6°C 81% Calm Calm -- 29.88 in1011.9 mb 0.00 in0.0 mm 0.00 in0.0 mm 0.00 in0.0 mm
04:49 AM 30.7°F-0.7°C 25.6°F-3.6°C 81% Calm Calm -- 29.88 in1011.9 mb 0.00 in0.0 mm 0.00 in0.0 mm 0.00 in0.0 mm
04:50 AM 30.7°F-0.7°C 25.6°F-3.6°C 81% Calm Calm -- 29.88 in1011.9 mb 0.00 in0.0 mm 0.00 in0.0 mm 0.00 in0.0 mm
04:51 AM 30.7°F-0.7°C 25.6°F-3.6°C 81% Calm Calm -- 29.88 in1011.9 mb 0.00 in0.0 mm 0.00 in0.0 mm 0.00 in0.0 mm
04:52 AM 30.7°F-0.7°C 25.6°F-3.6°C 81% Calm Calm -- 29.87 in1011.5 mb 0.00 in0.0 mm 0.00 in0.0 mm 0.00 in0.0 mm
04:53 AM 30.7°F-0.7°C 25.6°F-3.6°C 81% Calm Calm -- 29.87 in1011.5 mb 0.00 in0.0 mm 0.00 in0.0 mm 0.00 in0.0 mm
04:54 AM 30.7°F-0.7°C 25.6°F-3.6°C 81% Calm Calm -- 29.87 in1011.5 mb 0.00 in0.0 mm 0.00 in0.0 mm 0.00 in0.0 mm
04:55 AM 30.7°F-0.7°C 25.6°F-3.6°C 81% Calm Calm -- 29.87 in1011.5 mb 0.00 in0.0 mm 0.00 in0.0 mm 0.00 in0.0 mm
04:56 AM 30.7°F-0.7°C 25.6°F-3.6°C 81% Calm Calm -- 29.87 in1011.5 mb 0.00 in0.0 mm 0.00 in0.0 mm 0.00 in0.0 mm
04:57 AM 30.7°F-0.7°C 25.6°F-3.6°C 81% Calm Calm -- 29.87 in1011.5 mb 0.00 in0.0 mm 0.00 in0.0 mm 0.00 in0.0 mm
04:58 AM 30.7°F-0.7°C 25.6°F-3.6°C 81% Calm Calm -- 29.87 in1011.5 mb 0.00 in0.0 mm 0.00 in0.0 mm 0.00 in0.0 mm
04:59 AM 30.7°F-0.7°C 25.6°F-3.6°C 81% Calm Calm -- 29.88 in1011.9 mb 0.00 in0.0 mm 0.00 in0.0 mm 0.00 in0.0 mm
05:00 AM 30.7°F-0.7°C 25.6°F-3.6°C 81% Calm Calm -- 29.87 in1011.5 mb 0.00 in0.0 mm 0.00 in0.0 mm 0.00 in0.0 mm
05:01 AM 30.7°F-0.7°C 25.6°F-3.6°C 81% Calm Calm -- 29.88 in1011.9 mb 0.00 in0.0 mm 0.00 in0.0 mm 0.00 in0.0 mm
05:02 AM 30.6°F-0.8°C 25.5°F-3.6°C 81% Calm Calm -- 29.88 in1011.9 mb 0.00 in0.0 mm 0.00 in0.0 mm 0.00 in0.0 mm
05:03 AM 30.6°F-0.8°C 25.5°F-3.6°C 81% Calm Calm -- 29.88 in1011.9 mb 0.00 in0.0 mm 0.00 in0.0 mm 0.00 in0.0 mm
05:04 AM 30.6°F-0.8°C 25.5°F-3.6°C 81% Calm Calm -- 29.88 in1011.9 mb 0.00 in0.0 mm 0.00 in0.0 mm 0.00 in0.0 mm
05:05 AM 30.6°F-0.8°C 25.5°F-3.6°C 81% Calm Calm -- 29.87 in1011.5 mb 0.00 in0.0 mm 0.00 in0.0 mm 0.00 in0.0 mm
05:06 AM 30.6°F-0.8°C 25.5°F-3.6°C 81% Calm Calm -- 29.88 in1011.9 mb 0.00 in0.0 mm 0.00 in0.0 mm 0.00 in0.0 mm
05:07 AM 30.5°F-0.8°C 25.4°F-3.7°C 81% Calm Calm -- 29.88 in1011.9 mb 0.00 in0.0 mm 0.00 in0.0 mm 0.00 in0.0 mm
05:08 AM 30.5°F-0.8°C 25.4°F-3.7°C 81% Calm Calm -- 29.88 in1011.9 mb 0.00 in0.0 mm 0.00 in0.0 mm 0.00 in0.0 mm
05:09 AM 30.5°F-0.8°C 25.4°F-3.7°C 81% Calm Calm -- 29.88 in1011.9 mb 0.00 in0.0 mm 0.00 in0.0 mm 0.00 in0.0 mm
05:10 AM 30.5°F-0.8°C 25.4°F-3.7°C 81% Calm Calm -- 29.88 in1011.9 mb 0.00 in0.0 mm 0.00 in0.0 mm 0.00 in0.0 mm
05:11 AM 30.4°F-0.9°C 25.3°F-3.7°C 81% Calm Calm -- 29.88 in1011.9 mb 0.00 in0.0 mm 0.00 in0.0 mm 0.00 in0.0 mm
05:12 AM 30.4°F-0.9°C 25.3°F-3.7°C 81% Calm Calm -- 29.87 in1011.5 mb 0.00 in0.0 mm 0.00 in0.0 mm 0.00 in0.0 mm
05:13 AM 30.4°F-0.9°C 25.3°F-3.7°C 81% Calm Calm -- 29.88 in1011.9 mb 0.00 in0.0 mm 0.00 in0.0 mm 0.00 in0.0 mm
05:14 AM 30.4°F-0.9°C 25.3°F-3.7°C 81% Calm Calm -- 29.88 in1011.9 mb 0.00 in0.0 mm 0.00 in0.0 mm 0.00 in0.0 mm
05:15 AM 30.4°F-0.9°C 25.3°F-3.7°C 81% Calm Calm -- 29.88 in1011.9 mb 0.00 in0.0 mm 0.00 in0.0 mm 0.00 in0.0 mm
05:16 AM 30.3°F-0.9°C 25.2°F-3.8°C 81% Calm Calm -- 29.88 in1011.9 mb 0.00 in0.0 mm 0.00 in0.0 mm 0.00 in0.0 mm
05:17 AM 30.3°F-0.9°C 25.2°F-3.8°C 81% Calm Calm -- 29.88 in1011.9 mb 0.00 in0.0 mm 0.00 in0.0 mm 0.00 in0.0 mm
05:18 AM 30.3°F-0.9°C 25.2°F-3.8°C 81% Calm Calm -- 29.88 in1011.9 mb 0.00 in0.0 mm 0.00 in0.0 mm 0.00 in0.0 mm
05:19 AM 30.3°F-0.9°C 25.2°F-3.8°C 81% Calm Calm -- 29.88 in1011.9 mb 0.00 in0.0 mm 0.00 in0.0 mm 0.00 in0.0 mm
05:20 AM 30.3°F-0.9°C 25.2°F-3.8°C 81% Calm Calm -- 29.88 in1011.9 mb 0.00 in0.0 mm 0.00 in0.0 mm 0.00 in0.0 mm
05:21 AM 30.3°F-0.9°C 25.2°F-3.8°C 81% Calm Calm -- 29.88 in1011.9 mb 0.00 in0.0 mm 0.00 in0.0 mm 0.00 in0.0 mm
05:22 AM 30.3°F-0.9°C 25.2°F-3.8°C 81% Calm Calm -- 29.88 in1011.9 mb 0.00 in0.0 mm 0.00 in0.0 mm 0.00 in0.0 mm
05:23 AM 30.3°F-0.9°C 25.2°F-3.8°C 81% Calm Calm -- 29.88 in1011.9 mb 0.00 in0.0 mm 0.00 in0.0 mm 0.00 in0.0 mm
05:24 AM 30.3°F-0.9°C 25.2°F-3.8°C 81% Calm Calm -- 29.87 in1011.5 mb 0.00 in0.0 mm 0.00 in0.0 mm 0.00 in0.0 mm
05:25 AM 30.3°F-0.9°C 25.2°F-3.8°C 81% Calm Calm -- 29.88 in1011.9 mb 0.00 in0.0 mm 0.00 in0.0 mm 0.00 in0.0 mm
05:26 AM 30.3°F-0.9°C 25.2°F-3.8°C 81% Calm Calm -- 29.87 in1011.5 mb 0.00 in0.0 mm 0.00 in0.0 mm 0.00 in0.0 mm
05:27 AM 30.3°F-0.9°C 25.2°F-3.8°C 81% Calm Calm -- 29.87 in1011.5 mb 0.00 in0.0 mm 0.00 in0.0 mm 0.00 in0.0 mm
05:28 AM 30.2°F-1.0°C 25.1°F-3.8°C 81% Calm Calm -- 29.87 in1011.5 mb 0.00 in0.0 mm 0.00 in0.0 mm 0.00 in0.0 mm
05:29 AM 30.2°F-1.0°C 25.1°F-3.8°C 81% Calm Calm -- 29.87 in1011.5 mb 0.00 in0.0 mm 0.00 in0.0 mm 0.00 in0.0 mm
05:32 AM 30.2°F-1.0°C 25.4°F-3.7°C 82% Calm Calm -- 29.88 in1011.9 mb 0.00 in0.0 mm 0.00 in0.0 mm 0.00 in0.0 mm
05:34 AM 30.2°F-1.0°C 25.1°F-3.8°C 81% Calm Calm -- 29.88 in1011.9 mb 0.00 in0.0 mm 0.00 in0.0 mm 0.00 in0.0 mm
05:35 AM 30.2°F-1.0°C 25.1°F-3.8°C 81% Calm Calm -- 29.88 in1011.9 mb 0.00 in0.0 mm 0.00 in0.0 mm 0.00 in0.0 mm
05:36 AM 30.1°F-1.1°C 25.0°F-3.9°C 81% Calm Calm -- 29.88 in1011.9 mb 0.00 in0.0 mm 0.00 in0.0 mm 0.00 in0.0 mm
05:37 AM 30.1°F-1.1°C 25.0°F-3.9°C 81% Calm Calm -- 29.87 in1011.5 mb 0.00 in0.0 mm 0.00 in0.0 mm 0.00 in0.0 mm
05:38 AM 30.1°F-1.1°C 25.0°F-3.9°C 81% Calm Calm -- 29.88 in1011.9 mb 0.00 in0.0 mm 0.00 in0.0 mm 0.00 in0.0 mm
05:39 AM 30.2°F-1.0°C 25.1°F-3.8°C 81% Calm Calm -- 29.87 in1011.5 mb 0.00 in0.0 mm 0.00 in0.0 mm 0.00 in0.0 mm
05:40 AM 30.2°F-1.0°C 25.1°F-3.8°C 81% Calm Calm -- 29.87 in1011.5 mb 0.00 in0.0 mm 0.00 in0.0 mm 0.00 in0.0 mm
05:41 AM 30.2°F-1.0°C 25.1°F-3.8°C 81% Calm Calm -- 29.87 in1011.5 mb 0.00 in0.0 mm 0.00 in0.0 mm 0.00 in0.0 mm
05:42 AM 30.1°F-1.1°C 25.0°F-3.9°C 81% Calm Calm -- 29.87 in1011.5 mb 0.00 in0.0 mm 0.00 in0.0 mm 0.00 in0.0 mm
05:43 AM 30.1°F-1.1°C 25.0°F-3.9°C 81% Calm Calm -- 29.87 in1011.5 mb 0.00 in0.0 mm 0.00 in0.0 mm 0.00 in0.0 mm
05:44 AM 30.2°F-1.0°C 25.1°F-3.8°C 81% Calm Calm -- 29.87 in1011.5 mb 0.00 in0.0 mm 0.00 in0.0 mm 0.00 in0.0 mm
05:45 AM 30.2°F-1.0°C 25.1°F-3.8°C 81% Calm Calm -- 29.87 in1011.5 mb 0.00 in0.0 mm 0.00 in0.0 mm 0.00 in0.0 mm
05:46 AM 30.2°F-1.0°C 25.1°F-3.8°C 81% Calm Calm -- 29.87 in1011.5 mb 0.00 in0.0 mm 0.00 in0.0 mm 0.00 in0.0 mm
05:47 AM 30.2°F-1.0°C 25.1°F-3.8°C 81% Calm Calm -- 29.87 in1011.5 mb 0.00 in0.0 mm 0.00 in0.0 mm 0.00 in0.0 mm
05:48 AM 30.2°F-1.0°C 25.4°F-3.7°C 82% Calm Calm -- 29.87 in1011.5 mb 0.00 in0.0 mm 0.00 in0.0 mm 0.00 in0.0 mm
05:49 AM 30.3°F-0.9°C 25.5°F-3.6°C 82% Calm Calm -- 29.87 in1011.5 mb 0.00 in0.0 mm 0.00 in0.0 mm 0.00 in0.0 mm
05:50 AM 30.3°F-0.9°C 25.5°F-3.6°C 82% Calm Calm -- 29.87 in1011.5 mb 0.00 in0.0 mm 0.00 in0.0 mm 0.00 in0.0 mm
05:51 AM 30.3°F-0.9°C 25.5°F-3.6°C 82% Calm Calm -- 29.87 in1011.5 mb 0.00 in0.0 mm 0.00 in0.0 mm 0.00 in0.0 mm
05:52 AM 30.3°F-0.9°C 25.5°F-3.6°C 82% Calm Calm -- 29.87 in1011.5 mb 0.00 in0.0 mm 0.00 in0.0 mm 0.00 in0.0 mm
05:53 AM 30.4°F-0.9°C 25.6°F-3.6°C 82% Calm Calm -- 29.87 in1011.5 mb 0.00 in0.0 mm 0.00 in0.0 mm 0.00 in0.0 mm
05:54 AM 30.4°F-0.9°C 25.6°F-3.6°C 82% Calm Calm -- 29.87 in1011.5 mb 0.00 in0.0 mm 0.00 in0.0 mm 0.00 in0.0 mm
05:55 AM 30.4°F-0.9°C 25.6°F-3.6°C 82% Calm Calm -- 29.87 in1011.5 mb 0.00 in0.0 mm 0.00 in0.0 mm 0.00 in0.0 mm
05:56 AM 30.5°F-0.8°C 25.7°F-3.5°C 82% Calm Calm -- 29.87 in1011.5 mb 0.00 in0.0 mm 0.00 in0.0 mm 0.00 in0.0 mm
05:57 AM 30.5°F-0.8°C 25.7°F-3.5°C 82% Calm Calm -- 29.87 in1011.5 mb 0.00 in0.0 mm 0.00 in0.0 mm 0.00 in0.0 mm
05:58 AM 30.5°F-0.8°C 25.7°F-3.5°C 82% Calm Calm -- 29.87 in1011.5 mb 0.00 in0.0 mm 0.00 in0.0 mm 0.00 in0.0 mm
05:59 AM 30.5°F-0.8°C 25.7°F-3.5°C 82% Calm Calm -- 29.87 in1011.5 mb 0.00 in0.0 mm 0.00 in0.0 mm 0.00 in0.0 mm
06:00 AM 30.6°F-0.8°C 25.8°F-3.4°C 82% Calm Calm -- 29.87 in1011.5 mb 0.00 in0.0 mm 0.00 in0.0 mm 0.00 in0.0 mm
06:01 AM 30.6°F-0.8°C 25.8°F-3.4°C 82% Calm Calm -- 29.87 in1011.5 mb 0.00 in0.0 mm 0.00 in0.0 mm 0.00 in0.0 mm
06:02 AM 30.6°F-0.8°C 25.8°F-3.4°C 82% Calm Calm -- 29.86 in1011.2 mb 0.00 in0.0 mm 0.00 in0.0 mm 0.00 in0.0 mm
06:03 AM 30.5°F-0.8°C 25.7°F-3.5°C 82% Calm Calm -- 29.86 in1011.2 mb 0.00 in0.0 mm 0.00 in0.0 mm 0.00 in0.0 mm
06:04 AM 30.5°F-0.8°C 25.7°F-3.5°C 82% Calm Calm -- 29.87 in1011.5 mb 0.00 in0.0 mm 0.00 in0.0 mm 0.00 in0.0 mm
06:05 AM 30.5°F-0.8°C 25.4°F-3.7°C 81% Calm Calm -- 29.87 in1011.5 mb 0.00 in0.0 mm 0.00 in0.0 mm 0.00 in0.0 mm
06:06 AM 30.5°F-0.8°C 25.4°F-3.7°C 81% Calm Calm -- 29.86 in1011.2 mb 0.00 in0.0 mm 0.00 in0.0 mm 0.00 in0.0 mm
06:07 AM 30.5°F-0.8°C 25.4°F-3.7°C 81% Calm Calm -- 29.86 in1011.2 mb 0.00 in0.0 mm 0.00 in0.0 mm 0.00 in0.0 mm
06:08 AM 30.5°F-0.8°C 25.4°F-3.7°C 81% Calm Calm -- 29.86 in1011.2 mb 0.00 in0.0 mm 0.00 in0.0 mm 0.00 in0.0 mm
06:09 AM 30.5°F-0.8°C 25.4°F-3.7°C 81% Calm Calm -- 29.86 in1011.2 mb 0.00 in0.0 mm 0.00 in0.0 mm 0.00 in0.0 mm
06:10 AM 30.5°F-0.8°C 25.4°F-3.7°C 81% Calm Calm -- 29.86 in1011.2 mb 0.00 in0.0 mm 0.00 in0.0 mm 0.00 in0.0 mm
06:11 AM 30.4°F-0.9°C 25.3°F-3.7°C 81% Calm Calm -- 29.86 in1011.2 mb 0.00 in0.0 mm 0.00 in0.0 mm 0.00 in0.0 mm
06:12 AM 30.5°F-0.8°C 25.4°F-3.7°C 81% Calm Calm -- 29.86 in1011.2 mb 0.00 in0.0 mm 0.00 in0.0 mm 0.00 in0.0 mm
06:13 AM 30.4°F-0.9°C 25.3°F-3.7°C 81% Calm Calm -- 29.86 in1011.2 mb 0.00 in0.0 mm 0.00 in0.0 mm 0.00 in0.0 mm
06:14 AM 30.4°F-0.9°C 25.3°F-3.7°C 81% Calm Calm -- 29.86 in1011.2 mb 0.00 in0.0 mm 0.00 in0.0 mm 0.00 in0.0 mm
06:15 AM 30.4°F-0.9°C 25.3°F-3.7°C 81% Calm Calm -- 29.86 in1011.2 mb 0.00 in0.0 mm 0.00 in0.0 mm 0.00 in0.0 mm
06:16 AM 30.3°F-0.9°C 25.2°F-3.8°C 81% Calm Calm -- 29.86 in1011.2 mb 0.00 in0.0 mm 0.00 in0.0 mm 0.00 in0.0 mm
06:17 AM 30.3°F-0.9°C 24.9°F-3.9°C 80% Calm Calm -- 29.87 in1011.5 mb 0.00 in0.0 mm 0.00 in0.0 mm 0.00 in0.0 mm
06:18 AM 30.2°F-1.0°C 24.8°F-4.0°C 80% Calm Calm -- 29.86 in1011.2 mb 0.00 in0.0 mm 0.00 in0.0 mm 0.00 in0.0 mm
06:19 AM 30.2°F-1.0°C 24.8°F-4.0°C 80% Calm Calm -- 29.86 in1011.2 mb 0.00 in0.0 mm 0.00 in0.0 mm 0.00 in0.0 mm
06:20 AM 30.2°F-1.0°C 24.8°F-4.0°C 80% Calm Calm -- 29.86 in1011.2 mb 0.00 in0.0 mm 0.00 in0.0 mm 0.00 in0.0 mm
06:21 AM 30.2°F-1.0°C 24.8°F-4.0°C 80% Calm Calm -- 29.86 in1011.2 mb 0.00 in0.0 mm 0.00 in0.0 mm 0.00 in0.0 mm
06:22 AM 30.2°F-1.0°C 24.8°F-4.0°C 80% Calm Calm -- 29.86 in1011.2 mb 0.00 in0.0 mm 0.00 in0.0 mm 0.00 in0.0 mm
06:23 AM 30.1°F-1.1°C 24.7°F-4.1°C 80% Calm Calm -- 29.86 in1011.2 mb 0.00 in0.0 mm 0.00 in0.0 mm 0.00 in0.0 mm
06:24 AM 30.1°F-1.1°C 24.7°F-4.1°C 80% Calm Calm -- 29.86 in1011.2 mb 0.00 in0.0 mm 0.00 in0.0 mm 0.00 in0.0 mm
06:25 AM 30.0°F-1.1°C 24.6°F-4.1°C 80% Calm Calm -- 29.86 in1011.2 mb 0.00 in0.0 mm 0.00 in0.0 mm 0.00 in0.0 mm
06:26 AM 30.1°F-1.1°C 25.0°F-3.9°C 81% Calm Calm -- 29.86 in1011.2 mb 0.00 in0.0 mm 0.00 in0.0 mm 0.00 in0.0 mm
06:27 AM 30.1°F-1.1°C 25.0°F-3.9°C 81% 2.0 mph S3.2 kmh S 2.0 mph3.2 kmh 29.86 in1011.2 mb 0.00 in0.0 mm 0.00 in0.0 mm 0.00 in0.0 mm
06:28 AM 30.2°F-1.0°C 25.1°F-3.8°C 81% 3.0 mph S4.8 kmh S 3.0 mph4.8 kmh 29.86 in1011.2 mb 0.00 in0.0 mm 0.00 in0.0 mm 0.00 in0.0 mm
06:29 AM 30.3°F-0.9°C 25.5°F-3.6°C 82% 2.0 mph S3.2 kmh S 3.0 mph4.8 kmh 29.86 in1011.2 mb 0.00 in0.0 mm 0.00 in0.0 mm 0.00 in0.0 mm
06:30 AM 30.4°F-0.9°C 25.3°F-3.7°C 81% 2.0 mph S3.2 kmh S 3.0 mph4.8 kmh 29.86 in1011.2 mb 0.00 in0.0 mm 0.00 in0.0 mm 0.00 in0.0 mm
06:31 AM 30.5°F-0.8°C 25.4°F-3.7°C 81% Calm Calm 2.0 mph3.2 kmh 29.86 in1011.2 mb 0.00 in0.0 mm 0.00 in0.0 mm 0.00 in0.0 mm
06:32 AM 30.6°F-0.8°C 25.5°F-3.6°C 81% Calm Calm 2.0 mph3.2 kmh 29.86 in1011.2 mb 0.00 in0.0 mm 0.00 in0.0 mm 0.00 in0.0 mm
06:33 AM 30.7°F-0.7°C 25.6°F-3.6°C 81% Calm Calm 2.0 mph3.2 kmh 29.86 in1011.2 mb 0.00 in0.0 mm 0.00 in0.0 mm 0.00 in0.0 mm
06:34 AM 30.7°F-0.7°C 25.6°F-3.6°C 81% Calm Calm -- 29.86 in1011.2 mb 0.00 in0.0 mm 0.00 in0.0 mm 0.00 in0.0 mm
06:35 AM 30.8°F-0.7°C 25.7°F-3.5°C 81% Calm Calm -- 29.86 in1011.2 mb 0.00 in0.0 mm 0.00 in0.0 mm 0.00 in0.0 mm
06:36 AM 30.9°F-0.6°C 25.8°F-3.4°C 81% Calm Calm -- 29.86 in1011.2 mb 0.00 in0.0 mm 0.00 in0.0 mm 0.00 in0.0 mm
06:37 AM 31.0°F-0.6°C 25.9°F-3.4°C 81% Calm Calm -- 29.86 in1011.2 mb 0.00 in0.0 mm 0.00 in0.0 mm 0.00 in0.0 mm
06:38 AM 31.0°F-0.6°C 25.9°F-3.4°C 81% Calm Calm -- 29.86 in1011.2 mb 0.00 in0.0 mm 0.00 in0.0 mm 0.00 in0.0 mm
06:39 AM 31.1°F-0.5°C 25.7°F-3.5°C 80% Calm Calm -- 29.85 in1010.8 mb 0.00 in0.0 mm 0.00 in0.0 mm 0.00 in0.0 mm
06:40 AM 31.1°F-0.5°C 25.7°F-3.5°C 80% Calm Calm -- 29.85 in1010.8 mb 0.00 in0.0 mm 0.00 in0.0 mm 0.00 in0.0 mm
06:41 AM 31.1°F-0.5°C 25.7°F-3.5°C 80% Calm Calm -- 29.86 in1011.2 mb 0.00 in0.0 mm 0.00 in0.0 mm 0.00 in0.0 mm
06:42 AM 31.1°F-0.5°C 25.7°F-3.5°C 80% Calm Calm -- 29.85 in1010.8 mb 0.00 in0.0 mm 0.00 in0.0 mm 0.00 in0.0 mm
06:43 AM 31.2°F-0.4°C 25.8°F-3.4°C 80% Calm Calm -- 29.85 in1010.8 mb 0.00 in0.0 mm 0.00 in0.0 mm 0.00 in0.0 mm
06:44 AM 31.2°F-0.4°C 25.8°F-3.4°C 80% Calm Calm -- 29.85 in1010.8 mb 0.00 in0.0 mm 0.00 in0.0 mm 0.00 in0.0 mm
06:45 AM 31.2°F-0.4°C 25.8°F-3.4°C 80% Calm Calm -- 29.85 in1010.8 mb 0.00 in0.0 mm 0.00 in0.0 mm 0.00 in0.0 mm
06:46 AM 31.2°F-0.4°C 25.8°F-3.4°C 80% Calm Calm -- 29.86 in1011.2 mb 0.00 in0.0 mm 0.00 in0.0 mm 0.00 in0.0 mm
06:47 AM 31.2°F-0.4°C 25.8°F-3.4°C 80% Calm Calm -- 29.86 in1011.2 mb 0.00 in0.0 mm 0.00 in0.0 mm 0.00 in0.0 mm
06:48 AM 31.2°F-0.4°C 25.8°F-3.4°C 80% Calm Calm -- 29.85 in1010.8 mb 0.00 in0.0 mm 0.00 in0.0 mm 0.00 in0.0 mm
06:49 AM 31.2°F-0.4°C 25.8°F-3.4°C 80% Calm Calm -- 29.85 in1010.8 mb 0.00 in0.0 mm 0.00 in0.0 mm 0.00 in0.0 mm
06:50 AM 31.2°F-0.4°C 25.8°F-3.4°C 80% Calm Calm -- 29.85 in1010.8 mb 0.00 in0.0 mm 0.00 in0.0 mm 0.00 in0.0 mm
06:51 AM 31.3°F-0.4°C 25.9°F-3.4°C 80% Calm Calm -- 29.85 in1010.8 mb 0.00 in0.0 mm 0.00 in0.0 mm 0.00 in0.0 mm
06:52 AM 31.2°F-0.4°C 25.8°F-3.4°C 80% Calm Calm -- 29.85 in1010.8 mb 0.00 in0.0 mm 0.00 in0.0 mm 0.00 in0.0 mm
06:53 AM 31.3°F-0.4°C 25.9°F-3.4°C 80% Calm Calm -- 29.85 in1010.8 mb 0.00 in0.0 mm 0.00 in0.0 mm 0.00 in0.0 mm
06:54 AM 31.3°F-0.4°C 25.9°F-3.4°C 80% Calm Calm -- 29.85 in1010.8 mb 0.00 in0.0 mm 0.00 in0.0 mm 0.00 in0.0 mm
06:55 AM 31.4°F-0.3°C 26.0°F-3.3°C 80% Calm Calm -- 29.85 in1010.8 mb 0.00 in0.0 mm 0.00 in0.0 mm 0.00 in0.0 mm
06:56 AM 31.4°F-0.3°C 26.3°F-3.2°C 81% Calm Calm -- 29.84 in1010.5 mb 0.00 in0.0 mm 0.00 in0.0 mm 0.00 in0.0 mm
06:57 AM 31.5°F-0.3°C 26.4°F-3.1°C 81% Calm Calm -- 29.84 in1010.5 mb 0.00 in0.0 mm 0.00 in0.0 mm 0.00 in0.0 mm
06:58 AM 31.6°F-0.2°C 26.5°F-3.1°C 81% 2.0 mph S3.2 kmh S 2.0 mph3.2 kmh 29.84 in1010.5 mb 0.00 in0.0 mm 0.00 in0.0 mm 0.00 in0.0 mm
06:59 AM 31.8°F-0.1°C 26.7°F-2.9°C 81% 2.0 mph S3.2 kmh S 2.0 mph3.2 kmh 29.84 in1010.5 mb 0.00 in0.0 mm 0.00 in0.0 mm 0.00 in0.0 mm
07:00 AM 31.9°F-0.1°C 26.7°F-2.9°C 81% Calm Calm 2.0 mph3.2 kmh 29.84 in1010.5 mb 0.00 in0.0 mm 0.00 in0.0 mm 0.00 in0.0 mm
07:01 AM 32.0°F0.0°C 26.5°F-3.1°C 80% Calm Calm 2.0 mph3.2 kmh 29.84 in1010.5 mb 0.00 in0.0 mm 0.00 in0.0 mm 0.00 in0.0 mm
07:02 AM 32.1°F0.1°C 26.6°F-3.0°C 80% 1.0 mph S1.6 kmh S 3.0 mph4.8 kmh 29.84 in1010.5 mb 0.00 in0.0 mm 0.00 in0.0 mm 0.00 in0.0 mm
07:03 AM 32.3°F0.2°C 26.8°F-2.9°C 80% 3.0 mph S4.8 kmh S 3.0 mph4.8 kmh 29.84 in1010.5 mb 0.00 in0.0 mm 0.00 in0.0 mm 0.00 in0.0 mm
07:04 AM 32.4°F0.2°C 26.9°F-2.8°C 80% 2.0 mph S3.2 kmh S 3.0 mph4.8 kmh 29.84 in1010.5 mb 0.00 in0.0 mm 0.00 in0.0 mm 0.00 in0.0 mm
07:05 AM 32.6°F0.3°C 27.1°F-2.7°C 80% 3.0 mph S4.8 kmh S 4.0 mph6.4 kmh 29.84 in1010.5 mb 0.00 in0.0 mm 0.00 in0.0 mm 0.00 in0.0 mm
07:06 AM 32.8°F0.4°C 27.3°F-2.6°C 80% 1.0 mph S1.6 kmh S 4.0 mph6.4 kmh 29.84 in1010.5 mb 0.00 in0.0 mm 0.00 in0.0 mm 0.00 in0.0 mm
07:07 AM 32.9°F0.5°C 27.4°F-2.6°C 80% 2.0 mph S3.2 kmh S 3.0 mph4.8 kmh 29.84 in1010.5 mb 0.00 in0.0 mm 0.00 in0.0 mm 0.00 in0.0 mm
07:08 AM 33.1°F0.6°C 27.6°F-2.4°C 80% 2.0 mph S3.2 kmh S 3.0 mph4.8 kmh 29.84 in1010.5 mb 0.00 in0.0 mm 0.00 in0.0 mm 0.00 in0.0 mm
07:09 AM 33.2°F0.7°C 27.4°F-2.6°C 79% Calm Calm 2.0 mph3.2 kmh 29.84 in1010.5 mb 0.00 in0.0 mm 0.00 in0.0 mm 0.00 in0.0 mm
07:10 AM 33.4°F0.8°C 27.6°F-2.4°C 79% Calm Calm 2.0 mph3.2 kmh 29.84 in1010.5 mb 0.00 in0.0 mm 0.00 in0.0 mm 0.00 in0.0 mm
07:11 AM 33.4°F0.8°C 27.6°F-2.4°C 79% Calm Calm 3.0 mph4.8 kmh 29.84 in1010.5 mb 0.00 in0.0 mm 0.00 in0.0 mm 0.00 in0.0 mm
07:12 AM 33.6°F0.9°C 27.8°F-2.3°C 79% Calm Calm 3.0 mph4.8 kmh 29.84 in1010.5 mb 0.00 in0.0 mm 0.00 in0.0 mm 0.00 in0.0 mm
07:13 AM 33.6°F0.9°C 27.5°F-2.5°C 78% Calm Calm 1.0 mph1.6 kmh 29.84 in1010.5 mb 0.00 in0.0 mm 0.00 in0.0 mm 0.00 in0.0 mm
07:14 AM 33.7°F0.9°C 27.6°F-2.4°C 78% Calm Calm 1.0 mph1.6 kmh 29.84 in1010.5 mb 0.00 in0.0 mm 0.00 in0.0 mm 0.00 in0.0 mm
07:15 AM 33.7°F0.9°C 27.6°F-2.4°C 78% 1.0 mph S1.6 kmh S 3.0 mph4.8 kmh 29.84 in1010.5 mb 0.00 in0.0 mm 0.00 in0.0 mm 0.00 in0.0 mm
07:16 AM 33.7°F0.9°C 27.3°F-2.6°C 77% Calm Calm 3.0 mph4.8 kmh 29.84 in1010.5 mb 0.00 in0.0 mm 0.00 in0.0 mm 0.00 in0.0 mm
07:17 AM 33.6°F0.9°C 26.9°F-2.8°C 76% Calm Calm 2.0 mph3.2 kmh 29.84 in1010.5 mb 0.00 in0.0 mm 0.00 in0.0 mm 0.00 in0.0 mm
07:18 AM 33.5°F0.8°C 26.8°F-2.9°C 76% Calm Calm -- 29.84 in1010.5 mb 0.00 in0.0 mm 0.00 in0.0 mm 0.00 in0.0 mm
07:19 AM 33.4°F0.8°C 26.7°F-2.9°C 76% Calm Calm -- 29.84 in1010.5 mb 0.00 in0.0 mm 0.00 in0.0 mm 0.00 in0.0 mm
07:20 AM 33.3°F0.7°C 26.6°F-3.0°C 76% Calm Calm -- 29.84 in1010.5 mb 0.00 in0.0 mm 0.00 in0.0 mm 0.00 in0.0 mm
07:21 AM 33.2°F0.7°C 26.5°F-3.1°C 76% Calm Calm -- 29.83 in1010.2 mb 0.00 in0.0 mm 0.00 in0.0 mm 0.00 in0.0 mm
07:22 AM 33.2°F0.7°C 26.5°F-3.1°C 76% Calm Calm -- 29.83 in1010.2 mb 0.00 in0.0 mm 0.00 in0.0 mm 0.00 in0.0 mm
07:23 AM 33.0°F0.6°C 26.3°F-3.2°C 76% Calm Calm -- 29.83 in1010.2 mb 0.00 in0.0 mm 0.00 in0.0 mm 0.00 in0.0 mm
07:24 AM 33.0°F0.6°C 26.3°F-3.2°C 76% Calm Calm -- 29.83 in1010.2 mb 0.00 in0.0 mm 0.00 in0.0 mm 0.00 in0.0 mm
07:25 AM 32.9°F0.5°C 26.2°F-3.2°C 76% Calm Calm -- 29.83 in1010.2 mb 0.00 in0.0 mm 0.00 in0.0 mm 0.00 in0.0 mm
07:26 AM 32.9°F0.5°C 25.9°F-3.4°C 75% Calm Calm -- 29.83 in1010.2 mb 0.00 in0.0 mm 0.00 in0.0 mm 0.00 in0.0 mm
07:27 AM 32.8°F0.4°C 25.8°F-3.4°C 75% Calm Calm -- 29.83 in1010.2 mb 0.00 in0.0 mm 0.00 in0.0 mm 0.00 in0.0 mm
07:28 AM 32.7°F0.4°C 25.7°F-3.5°C 75% Calm Calm -- 29.83 in1010.2 mb 0.00 in0.0 mm 0.00 in0.0 mm 0.00 in0.0 mm
07:29 AM 32.6°F0.3°C 25.9°F-3.4°C 76% Calm Calm -- 29.83 in1010.2 mb 0.00 in0.0 mm 0.00 in0.0 mm 0.00 in0.0 mm
07:30 AM 32.6°F0.3°C 25.9°F-3.4°C 76% Calm Calm -- 29.83 in1010.2 mb 0.00 in0.0 mm 0.00 in0.0 mm 0.00 in0.0 mm
07:31 AM 32.6°F0.3°C 26.2°F-3.2°C 77% Calm Calm -- 29.84 in1010.5 mb 0.00 in0.0 mm 0.00 in0.0 mm 0.00 in0.0 mm
07:32 AM 32.6°F0.3°C 26.2°F-3.2°C 77% Calm Calm -- 29.83 in1010.2 mb 0.00 in0.0 mm 0.00 in0.0 mm 0.00 in0.0 mm
07:33 AM 32.6°F0.3°C 26.2°F-3.2°C 77% Calm Calm -- 29.84 in1010.5 mb 0.00 in0.0 mm 0.00 in0.0 mm 0.00 in0.0 mm
07:34 AM 32.5°F0.3°C 26.1°F-3.3°C 77% Calm Calm -- 29.83 in1010.2 mb 0.00 in0.0 mm 0.00 in0.0 mm 0.00 in0.0 mm
07:35 AM 32.6°F0.3°C 26.2°F-3.2°C 77% Calm Calm -- 29.84 in1010.5 mb 0.00 in0.0 mm 0.00 in0.0 mm 0.00 in0.0 mm
07:36 AM 32.5°F0.3°C 26.1°F-3.3°C 77% Calm Calm -- 29.84 in1010.5 mb 0.00 in0.0 mm 0.00 in0.0 mm 0.00 in0.0 mm
07:37 AM 32.5°F0.3°C 26.1°F-3.3°C 77% Calm Calm -- 29.83 in1010.2 mb 0.00 in0.0 mm 0.00 in0.0 mm 0.00 in0.0 mm
07:38 AM 32.5°F0.3°C 26.1°F-3.3°C 77% Calm Calm -- 29.83 in1010.2 mb 0.00 in0.0 mm 0.00 in0.0 mm 0.00 in0.0 mm
07:39 AM 32.5°F0.3°C 26.1°F-3.3°C 77% Calm Calm -- 29.83 in1010.2 mb 0.00 in0.0 mm 0.00 in0.0 mm 0.00 in0.0 mm
07:40 AM 32.5°F0.3°C 26.1°F-3.3°C 77% Calm Calm -- 29.83 in1010.2 mb 0.00 in0.0 mm 0.00 in0.0 mm 0.00 in0.0 mm
07:41 AM 32.5°F0.3°C 26.1°F-3.3°C 77% Calm Calm -- 29.83 in1010.2 mb 0.00 in0.0 mm 0.00 in0.0 mm 0.00 in0.0 mm
07:42 AM 32.4°F0.2°C 26.0°F-3.3°C 77% Calm Calm -- 29.83 in1010.2 mb 0.00 in0.0 mm 0.00 in0.0 mm 0.00 in0.0 mm
07:43 AM 32.5°F0.3°C 26.1°F-3.3°C 77% Calm Calm -- 29.83 in1010.2 mb 0.00 in0.0 mm 0.00 in0.0 mm 0.00 in0.0 mm
07:44 AM 32.4°F0.2°C 26.0°F-3.3°C 77% Calm Calm -- 29.83 in1010.2 mb 0.00 in0.0 mm 0.00 in0.0 mm 0.00 in0.0 mm
07:45 AM 32.4°F0.2°C 26.0°F-3.3°C 77% Calm Calm -- 29.83 in1010.2 mb 0.00 in0.0 mm 0.00 in0.0 mm 0.00 in0.0 mm
07:46 AM 32.4°F0.2°C 26.0°F-3.3°C 77% Calm Calm -- 29.83 in1010.2 mb 0.00 in0.0 mm 0.00 in0.0 mm 0.00 in0.0 mm
07:47 AM 32.3°F0.2°C 25.9°F-3.4°C 77% Calm Calm -- 29.83 in1010.2 mb 0.00 in0.0 mm 0.00 in0.0 mm 0.00 in0.0 mm
07:48 AM 32.3°F0.2°C 25.9°F-3.4°C 77% Calm Calm -- 29.83 in1010.2 mb 0.00 in0.0 mm 0.00 in0.0 mm 0.00 in0.0 mm
07:49 AM 32.3°F0.2°C 25.9°F-3.4°C 77% Calm Calm -- 29.83 in1010.2 mb 0.00 in0.0 mm 0.00 in0.0 mm 0.00 in0.0 mm
07:50 AM 32.3°F0.2°C 25.9°F-3.4°C 77% Calm Calm -- 29.83 in1010.2 mb 0.00 in0.0 mm 0.00 in0.0 mm 0.00 in0.0 mm
07:51 AM 32.2°F0.1°C 25.8°F-3.4°C 77% Calm Calm -- 29.83 in1010.2 mb 0.00 in0.0 mm 0.00 in0.0 mm 0.00 in0.0 mm
07:52 AM 32.2°F0.1°C 25.8°F-3.4°C 77% Calm Calm -- 29.83 in1010.2 mb 0.00 in0.0 mm 0.00 in0.0 mm 0.00 in0.0 mm
07:53 AM 32.2°F0.1°C 26.1°F-3.3°C 78% Calm Calm -- 29.83 in1010.2 mb 0.00 in0.0 mm 0.00 in0.0 mm 0.00 in0.0 mm
07:54 AM 32.2°F0.1°C 26.1°F-3.3°C 78% Calm Calm -- 29.83 in1010.2 mb 0.00 in0.0 mm 0.00 in0.0 mm 0.00 in0.0 mm
07:55 AM 32.2°F0.1°C 26.1°F-3.3°C 78% Calm Calm -- 29.83 in1010.2 mb 0.00 in0.0 mm 0.00 in0.0 mm 0.00 in0.0 mm
07:56 AM 32.2°F0.1°C 26.1°F-3.3°C 78% Calm Calm -- 29.83 in1010.2 mb 0.00 in0.0 mm 0.00 in0.0 mm 0.00 in0.0 mm
07:57 AM 32.1°F0.1°C 26.0°F-3.3°C 78% Calm Calm -- 29.83 in1010.2 mb 0.00 in0.0 mm 0.00 in0.0 mm 0.00 in0.0 mm
07:58 AM 32.1°F0.1°C 26.0°F-3.3°C 78% Calm Calm -- 29.83 in1010.2 mb 0.00 in0.0 mm 0.00 in0.0 mm 0.00 in0.0 mm
07:59 AM 32.1°F0.1°C 26.0°F-3.3°C 78% Calm Calm -- 29.83 in1010.2 mb 0.00 in0.0 mm 0.00 in0.0 mm 0.00 in0.0 mm
08:00 AM 32.1°F0.1°C 25.7°F-3.5°C 77% Calm Calm -- 29.83 in1010.2 mb 0.00 in0.0 mm 0.00 in0.0 mm 0.00 in0.0 mm
08:01 AM 32.0°F0.0°C 25.6°F-3.6°C 77% Calm Calm -- 29.83 in1010.2 mb 0.00 in0.0 mm 0.00 in0.0 mm 0.00 in0.0 mm
08:02 AM 32.0°F0.0°C 25.6°F-3.6°C 77% Calm Calm -- 29.83 in1010.2 mb 0.00 in0.0 mm 0.00 in0.0 mm 0.00 in0.0 mm
08:03 AM 31.9°F-0.1°C 25.5°F-3.6°C 77% Calm Calm -- 29.83 in1010.2 mb 0.00 in0.0 mm 0.00 in0.0 mm 0.00 in0.0 mm
08:04 AM 31.9°F-0.1°C 25.5°F-3.6°C 77% Calm Calm -- 29.83 in1010.2 mb 0.00 in0.0 mm 0.00 in0.0 mm 0.00 in0.0 mm
08:05 AM 31.9°F-0.1°C 25.5°F-3.6°C 77% Calm Calm -- 29.83 in1010.2 mb 0.00 in0.0 mm 0.00 in0.0 mm 0.00 in0.0 mm
08:06 AM 31.8°F-0.1°C 25.4°F-3.7°C 77% Calm Calm -- 29.83 in1010.2 mb 0.00 in0.0 mm 0.00 in0.0 mm 0.00 in0.0 mm
08:07 AM 31.7°F-0.2°C 25.3°F-3.7°C 77% Calm Calm -- 29.83 in1010.2 mb 0.00 in0.0 mm 0.00 in0.0 mm 0.00 in0.0 mm
08:08 AM 31.7°F-0.2°C 25.3°F-3.7°C 77% Calm Calm -- 29.83 in1010.2 mb 0.00 in0.0 mm 0.00 in0.0 mm 0.00 in0.0 mm
08:09 AM 31.7°F-0.2°C 25.3°F-3.7°C 77% Calm Calm -- 29.82 in1009.8 mb 0.00 in0.0 mm 0.00 in0.0 mm 0.00 in0.0 mm
08:10 AM 31.6°F-0.2°C 25.2°F-3.8°C 77% Calm Calm -- 29.82 in1009.8 mb 0.00 in0.0 mm 0.00 in0.0 mm 0.00 in0.0 mm
08:11 AM 31.6°F-0.2°C 25.2°F-3.8°C 77% Calm Calm -- 29.82 in1009.8 mb 0.00 in0.0 mm 0.00 in0.0 mm 0.00 in0.0 mm
08:12 AM 31.5°F-0.3°C 25.1°F-3.8°C 77% Calm Calm -- 29.82 in1009.8 mb 0.00 in0.0 mm 0.00 in0.0 mm 0.00 in0.0 mm
08:13 AM 31.5°F-0.3°C 25.1°F-3.8°C 77% Calm Calm -- 29.82 in1009.8 mb 0.00 in0.0 mm 0.00 in0.0 mm 0.00 in0.0 mm
08:14 AM 31.4°F-0.3°C 25.4°F-3.7°C 78% Calm Calm -- 29.82 in1009.8 mb 0.00 in0.0 mm 0.00 in0.0 mm 0.00 in0.0 mm
08:15 AM 31.4°F-0.3°C 25.4°F-3.7°C 78% Calm Calm -- 29.82 in1009.8 mb 0.00 in0.0 mm 0.00 in0.0 mm 0.00 in0.0 mm
08:16 AM 31.4°F-0.3°C 25.4°F-3.7°C 78% Calm Calm -- 29.82 in1009.8 mb 0.00 in0.0 mm 0.00 in0.0 mm 0.00 in0.0 mm
08:17 AM 31.3°F-0.4°C 25.3°F-3.7°C 78% Calm Calm -- 29.82 in1009.8 mb 0.00 in0.0 mm 0.00 in0.0 mm 0.00 in0.0 mm
08:18 AM 31.3°F-0.4°C 25.3°F-3.7°C 78% Calm Calm -- 29.82 in1009.8 mb 0.00 in0.0 mm 0.00 in0.0 mm 0.00 in0.0 mm
08:19 AM 31.2°F-0.4°C 25.2°F-3.8°C 78% Calm Calm -- 29.82 in1009.8 mb 0.00 in0.0 mm 0.00 in0.0 mm 0.00 in0.0 mm
08:20 AM 31.2°F-0.4°C 25.2°F-3.8°C 78% Calm Calm -- 29.82 in1009.8 mb 0.00 in0.0 mm 0.00 in0.0 mm 0.00 in0.0 mm
08:21 AM 31.2°F-0.4°C 25.2°F-3.8°C 78% Calm Calm -- 29.82 in1009.8 mb 0.00 in0.0 mm 0.00 in0.0 mm 0.00 in0.0 mm
08:22 AM 31.1°F-0.5°C 25.1°F-3.8°C 78% Calm Calm -- 29.81 in1009.5 mb 0.00 in0.0 mm 0.00 in0.0 mm 0.00 in0.0 mm
08:23 AM 31.1°F-0.5°C 25.1°F-3.8°C 78% Calm Calm -- 29.81 in1009.5 mb 0.00 in0.0 mm 0.00 in0.0 mm 0.00 in0.0 mm
08:24 AM 31.0°F-0.6°C 25.0°F-3.9°C 78% Calm Calm -- 29.82 in1009.8 mb 0.00 in0.0 mm 0.00 in0.0 mm 0.00 in0.0 mm
08:25 AM 31.0°F-0.6°C 25.0°F-3.9°C 78% Calm Calm -- 29.82 in1009.8 mb 0.00 in0.0 mm 0.00 in0.0 mm 0.00 in0.0 mm
08:26 AM 31.0°F-0.6°C 25.0°F-3.9°C 78% Calm Calm -- 29.82 in1009.8 mb 0.00 in0.0 mm 0.00 in0.0 mm 0.00 in0.0 mm
08:27 AM 30.9°F-0.6°C 25.2°F-3.8°C 79% Calm Calm -- 29.82 in1009.8 mb 0.00 in0.0 mm 0.00 in0.0 mm 0.00 in0.0 mm
08:28 AM 30.9°F-0.6°C 25.2°F-3.8°C 79% Calm Calm -- 29.82 in1009.8 mb 0.00 in0.0 mm 0.00 in0.0 mm 0.00 in0.0 mm
08:29 AM 30.9°F-0.6°C 25.2°F-3.8°C 79% Calm Calm -- 29.82 in1009.8 mb 0.00 in0.0 mm 0.00 in0.0 mm 0.00 in0.0 mm
08:31 AM 30.9°F-0.6°C 25.2°F-3.8°C 79% Calm Calm -- 29.82 in1009.8 mb 0.00 in0.0 mm 0.00 in0.0 mm 0.00 in0.0 mm
08:32 AM 30.9°F-0.6°C 25.2°F-3.8°C 79% Calm Calm -- 29.82 in1009.8 mb 0.00 in0.0 mm 0.00 in0.0 mm 0.00 in0.0 mm
08:33 AM 30.9°F-0.6°C 25.2°F-3.8°C 79% Calm Calm -- 29.82 in1009.8 mb 0.00 in0.0 mm 0.00 in0.0 mm 0.00 in0.0 mm
08:34 AM 30.9°F-0.6°C 25.2°F-3.8°C 79% Calm Calm -- 29.82 in1009.8 mb 0.00 in0.0 mm 0.00 in0.0 mm 0.00 in0.0 mm
08:35 AM 30.9°F-0.6°C 25.2°F-3.8°C 79% Calm Calm -- 29.81 in1009.5 mb 0.00 in0.0 mm 0.00 in0.0 mm 0.00 in0.0 mm
08:36 AM 30.9°F-0.6°C 25.2°F-3.8°C 79% Calm Calm -- 29.81 in1009.5 mb 0.00 in0.0 mm 0.00 in0.0 mm 0.00 in0.0 mm
08:37 AM 30.9°F-0.6°C 25.2°F-3.8°C 79% Calm Calm -- 29.81 in1009.5 mb 0.00 in0.0 mm 0.00 in0.0 mm 0.00 in0.0 mm
08:38 AM 30.8°F-0.7°C 25.1°F-3.8°C 79% Calm Calm -- 29.81 in1009.5 mb 0.00 in0.0 mm 0.00 in0.0 mm 0.00 in0.0 mm
08:39 AM 30.8°F-0.7°C 25.1°F-3.8°C 79% Calm Calm -- 29.82 in1009.8 mb 0.00 in0.0 mm 0.00 in0.0 mm 0.00 in0.0 mm
08:40 AM 30.8°F-0.7°C 25.1°F-3.8°C 79% Calm Calm -- 29.82 in1009.8 mb 0.00 in0.0 mm 0.00 in0.0 mm 0.00 in0.0 mm
08:41 AM 30.8°F-0.7°C 25.4°F-3.7°C 80% Calm Calm -- 29.82 in1009.8 mb 0.00 in0.0 mm 0.00 in0.0 mm 0.00 in0.0 mm
08:42 AM 30.8°F-0.7°C 25.4°F-3.7°C 80% Calm Calm -- 29.82 in1009.8 mb 0.00 in0.0 mm 0.00 in0.0 mm 0.00 in0.0 mm
08:43 AM 30.8°F-0.7°C 25.4°F-3.7°C 80% Calm Calm -- 29.81 in1009.5 mb 0.00 in0.0 mm 0.00 in0.0 mm 0.00 in0.0 mm
08:44 AM 30.9°F-0.6°C 25.5°F-3.6°C 80% Calm Calm -- 29.81 in1009.5 mb 0.00 in0.0 mm 0.00 in0.0 mm 0.00 in0.0 mm
08:45 AM 30.9°F-0.6°C 25.8°F-3.4°C 81% Calm Calm -- 29.81 in1009.5 mb 0.00 in0.0 mm 0.00 in0.0 mm 0.00 in0.0 mm
08:46 AM 30.9°F-0.6°C 25.8°F-3.4°C 81% Calm Calm -- 29.81 in1009.5 mb 0.00 in0.0 mm 0.00 in0.0 mm 0.00 in0.0 mm
08:47 AM 31.0°F-0.6°C 25.9°F-3.4°C 81% Calm Calm -- 29.81 in1009.5 mb 0.00 in0.0 mm 0.00 in0.0 mm 0.00 in0.0 mm
08:48 AM 31.0°F-0.6°C 25.9°F-3.4°C 81% Calm Calm -- 29.81 in1009.5 mb 0.00 in0.0 mm 0.00 in0.0 mm 0.00 in0.0 mm
08:49 AM 31.0°F-0.6°C 25.9°F-3.4°C 81% Calm Calm -- 29.81 in1009.5 mb 0.00 in0.0 mm 0.00 in0.0 mm 0.00 in0.0 mm
08:50 AM 31.0°F-0.6°C 25.9°F-3.4°C 81% Calm Calm -- 29.81 in1009.5 mb 0.00 in0.0 mm 0.00 in0.0 mm 0.00 in0.0 mm
08:51 AM 31.1°F-0.5°C 26.0°F-3.3°C 81% 1.0 mph S1.6 kmh S 2.0 mph3.2 kmh 29.81 in1009.5 mb 0.00 in0.0 mm 0.00 in0.0 mm 0.00 in0.0 mm
08:52 AM 31.2°F-0.4°C 26.4°F-3.1°C 82% Calm Calm 2.0 mph3.2 kmh 29.81 in1009.5 mb 0.00 in0.0 mm 0.00 in0.0 mm 0.00 in0.0 mm
08:53 AM 31.4°F-0.3°C 26.6°F-3.0°C 82% Calm Calm 1.0 mph1.6 kmh 29.81 in1009.5 mb 0.00 in0.0 mm 0.00 in0.0 mm 0.00 in0.0 mm
08:54 AM 31.5°F-0.3°C 26.7°F-2.9°C 82% Calm Calm -- 29.82 in1009.8 mb 0.00 in0.0 mm 0.00 in0.0 mm 0.00 in0.0 mm
08:55 AM 31.7°F-0.2°C 27.1°F-2.7°C 83% Calm Calm -- 29.81 in1009.5 mb 0.00 in0.0 mm 0.00 in0.0 mm 0.00 in0.0 mm
08:56 AM 32.0°F0.0°C 27.4°F-2.6°C 83% Calm Calm -- 29.81 in1009.5 mb 0.00 in0.0 mm 0.00 in0.0 mm 0.00 in0.0 mm
08:57 AM 32.1°F0.1°C 27.5°F-2.5°C 83% Calm Calm -- 29.82 in1009.8 mb 0.00 in0.0 mm 0.00 in0.0 mm 0.00 in0.0 mm
08:58 AM 32.3°F0.2°C 27.7°F-2.4°C 83% 1.0 mph S1.6 kmh S 1.0 mph1.6 kmh 29.81 in1009.5 mb 0.00 in0.0 mm 0.00 in0.0 mm 0.00 in0.0 mm
08:59 AM 32.5°F0.3°C 27.9°F-2.3°C 83% Calm Calm 2.0 mph3.2 kmh 29.81 in1009.5 mb 0.00 in0.0 mm 0.00 in0.0 mm 0.00 in0.0 mm
09:00 AM 32.7°F0.4°C 28.1°F-2.2°C 83% Calm Calm 2.0 mph3.2 kmh 29.81 in1009.5 mb 0.00 in0.0 mm 0.00 in0.0 mm 0.00 in0.0 mm
09:01 AM 32.9°F0.5°C 28.0°F-2.2°C 82% Calm Calm 1.0 mph1.6 kmh 29.81 in1009.5 mb 0.00 in0.0 mm 0.00 in0.0 mm 0.00 in0.0 mm
09:02 AM 33.0°F0.6°C 28.1°F-2.2°C 82% Calm Calm 1.0 mph1.6 kmh 29.81 in1009.5 mb 0.00 in0.0 mm 0.00 in0.0 mm 0.00 in0.0 mm
09:03 AM 33.2°F0.7°C 28.3°F-2.1°C 82% 3.0 mph S4.8 kmh S 3.0 mph4.8 kmh 29.81 in1009.5 mb 0.00 in0.0 mm 0.00 in0.0 mm 0.00 in0.0 mm
09:04 AM 33.3°F0.7°C 28.4°F-2.0°C 82% 3.0 mph S4.8 kmh S 5.0 mph8.0 kmh 29.81 in1009.5 mb 0.00 in0.0 mm 0.00 in0.0 mm 0.00 in0.0 mm
09:05 AM 33.5°F0.8°C 28.3°F-2.1°C 81% Calm Calm 5.0 mph8.0 kmh 29.81 in1009.5 mb 0.00 in0.0 mm 0.00 in0.0 mm 0.00 in0.0 mm
09:06 AM 33.6°F0.9°C 28.4°F-2.0°C 81% Calm Calm 4.0 mph6.4 kmh 29.81 in1009.5 mb 0.00 in0.0 mm 0.00 in0.0 mm 0.00 in0.0 mm
09:07 AM 33.8°F1.0°C 28.6°F-1.9°C 81% Calm Calm -- 29.81 in1009.5 mb 0.00 in0.0 mm 0.00 in0.0 mm 0.00 in0.0 mm
09:08 AM 33.9°F1.1°C 28.4°F-2.0°C 80% Calm Calm -- 29.81 in1009.5 mb 0.00 in0.0 mm 0.00 in0.0 mm 0.00 in0.0 mm
09:09 AM 34.1°F1.2°C 28.6°F-1.9°C 80% 2.0 mph S3.2 kmh S 2.0 mph3.2 kmh 29.81 in1009.5 mb 0.00 in0.0 mm 0.00 in0.0 mm 0.00 in0.0 mm
09:10 AM 34.2°F1.2°C 28.7°F-1.8°C 80% Calm Calm 2.0 mph3.2 kmh 29.81 in1009.5 mb 0.00 in0.0 mm 0.00 in0.0 mm 0.00 in0.0 mm
09:11 AM 34.3°F1.3°C 28.5°F-1.9°C 79% Calm Calm 4.0 mph6.4 kmh 29.81 in1009.5 mb 0.00 in0.0 mm 0.00 in0.0 mm 0.00 in0.0 mm
09:12 AM 34.4°F1.3°C 28.6°F-1.9°C 79% Calm Calm 4.0 mph6.4 kmh 29.81 in1009.5 mb 0.00 in0.0 mm 0.00 in0.0 mm 0.00 in0.0 mm
09:13 AM 34.5°F1.4°C 28.7°F-1.8°C 79% Calm Calm 2.0 mph3.2 kmh 29.81 in1009.5 mb 0.00 in0.0 mm 0.00 in0.0 mm 0.00 in0.0 mm
09:14 AM 34.6°F1.4°C 28.5°F-1.9°C 78% Calm Calm -- 29.81 in1009.5 mb 0.00 in0.0 mm 0.00 in0.0 mm 0.00 in0.0 mm
09:15 AM 34.7°F1.5°C 28.6°F-1.9°C 78% Calm Calm 1.0 mph1.6 kmh 29.80 in1009.1 mb 0.00 in0.0 mm 0.00 in0.0 mm 0.00 in0.0 mm
09:16 AM 34.8°F1.6°C 28.3°F-2.1°C 77% Calm Calm 1.0 mph1.6 kmh 29.80 in1009.1 mb 0.00 in0.0 mm 0.00 in0.0 mm 0.00 in0.0 mm
09:17 AM 34.9°F1.6°C 28.4°F-2.0°C 77% Calm Calm 1.0 mph1.6 kmh 29.81 in1009.5 mb 0.00 in0.0 mm 0.00 in0.0 mm 0.00 in0.0 mm
09:18 AM 35.0°F1.7°C 28.5°F-1.9°C 77% Calm Calm 1.0 mph1.6 kmh 29.81 in1009.5 mb 0.00 in0.0 mm 0.00 in0.0 mm 0.00 in0.0 mm
09:19 AM 35.1°F1.7°C 28.3°F-2.1°C 76% Calm Calm 1.0 mph1.6 kmh 29.81 in1009.5 mb 0.00 in0.0 mm 0.00 in0.0 mm 0.00 in0.0 mm
09:20 AM 35.2°F1.8°C 28.4°F-2.0°C 76% 5.0 mph S8.0 kmh S 5.0 mph8.0 kmh 29.81 in1009.5 mb 0.00 in0.0 mm 0.00 in0.0 mm 0.00 in0.0 mm
09:21 AM 35.2°F1.8°C 28.4°F-2.0°C 76% 1.0 mph S1.6 kmh S 5.0 mph8.0 kmh 29.81 in1009.5 mb 0.00 in0.0 mm 0.00 in0.0 mm 0.00 in0.0 mm
09:22 AM 35.4°F1.9°C 28.6°F-1.9°C 76% 3.0 mph S4.8 kmh S 4.0 mph6.4 kmh 29.81 in1009.5 mb 0.00 in0.0 mm 0.00 in0.0 mm 0.00 in0.0 mm
09:23 AM 35.5°F1.9°C 28.7°F-1.8°C 76% 2.0 mph S3.2 kmh S 4.0 mph6.4 kmh 29.81 in1009.5 mb 0.00 in0.0 mm 0.00 in0.0 mm 0.00 in0.0 mm
09:24 AM 35.7°F2.1°C 28.6°F-1.9°C 75% 2.0 mph S3.2 kmh S 2.0 mph3.2 kmh 29.81 in1009.5 mb 0.00 in0.0 mm 0.00 in0.0 mm 0.00 in0.0 mm
09:25 AM 35.7°F2.1°C 28.6°F-1.9°C 75% 6.0 mph S9.7 kmh S 6.0 mph9.7 kmh 29.81 in1009.5 mb 0.00 in0.0 mm 0.00 in0.0 mm 0.00 in0.0 mm
09:26 AM 35.9°F2.2°C 28.4°F-2.0°C 74% Calm Calm 6.0 mph9.7 kmh 29.81 in1009.5 mb 0.00 in0.0 mm 0.00 in0.0 mm 0.00 in0.0 mm
09:27 AM 36.0°F2.2°C 28.5°F-1.9°C 74% Calm Calm 3.0 mph4.8 kmh 29.81 in1009.5 mb 0.00 in0.0 mm 0.00 in0.0 mm 0.00 in0.0 mm
09:28 AM 36.1°F2.3°C 28.6°F-1.9°C 74% 1.0 mph S1.6 kmh S 2.0 mph3.2 kmh 29.81 in1009.5 mb 0.00 in0.0 mm 0.00 in0.0 mm 0.00 in0.0 mm
09:29 AM 36.3°F2.4°C 28.5°F-1.9°C 73% Calm Calm 3.0 mph4.8 kmh 29.81 in1009.5 mb 0.00 in0.0 mm 0.00 in0.0 mm 0.00 in0.0 mm
09:30 AM 36.4°F2.4°C 28.6°F-1.9°C 73% Calm Calm 3.0 mph4.8 kmh 29.81 in1009.5 mb 0.00 in0.0 mm 0.00 in0.0 mm 0.00 in0.0 mm
09:31 AM 36.5°F2.5°C 28.4°F-2.0°C 72% Calm Calm -- 29.81 in1009.5 mb 0.00 in0.0 mm 0.00 in0.0 mm 0.00 in0.0 mm
09:32 AM 36.6°F2.6°C 28.4°F-2.0°C 72% Calm Calm -- 29.80 in1009.1 mb 0.00 in0.0 mm 0.00 in0.0 mm 0.00 in0.0 mm
09:33 AM 36.7°F2.6°C 28.5°F-1.9°C 72% 4.0 mph S6.4 kmh S 4.0 mph6.4 kmh 29.80 in1009.1 mb 0.00 in0.0 mm 0.00 in0.0 mm 0.00 in0.0 mm
09:34 AM 36.8°F2.7°C 28.6°F-1.9°C 72% Calm Calm 4.0 mph6.4 kmh 29.80 in1009.1 mb 0.00 in0.0 mm 0.00 in0.0 mm 0.00 in0.0 mm
09:35 AM 36.8°F2.7°C 28.3°F-2.1°C 71% Calm Calm -- 29.80 in1009.1 mb 0.00 in0.0 mm 0.00 in0.0 mm 0.00 in0.0 mm
09:36 AM 36.9°F2.7°C 28.4°F-2.0°C 71% Calm Calm 1.0 mph1.6 kmh 29.80 in1009.1 mb 0.00 in0.0 mm 0.00 in0.0 mm 0.00 in0.0 mm
09:37 AM 37.0°F2.8°C 28.5°F-1.9°C 71% Calm Calm -- 29.80 in1009.1 mb 0.00 in0.0 mm 0.00 in0.0 mm 0.00 in0.0 mm
09:38 AM 37.0°F2.8°C 28.5°F-1.9°C 71% Calm Calm -- 29.80 in1009.1 mb 0.00 in0.0 mm 0.00 in0.0 mm 0.00 in0.0 mm
09:39 AM 37.1°F2.8°C 28.6°F-1.9°C 71% Calm Calm -- 29.79 in1008.8 mb 0.00 in0.0 mm 0.00 in0.0 mm 0.00 in0.0 mm
09:40 AM 37.1°F2.8°C 28.2°F-2.1°C 70% 1.0 mph S1.6 kmh S 4.0 mph6.4 kmh 29.79 in1008.8 mb 0.00 in0.0 mm 0.00 in0.0 mm 0.00 in0.0 mm
09:41 AM 37.2°F2.9°C 28.3°F-2.1°C 70% 1.0 mph S1.6 kmh S 4.0 mph6.4 kmh 29.79 in1008.8 mb 0.00 in0.0 mm 0.00 in0.0 mm 0.00 in0.0 mm
09:42 AM 37.3°F2.9°C 28.4°F-2.0°C 70% 2.0 mph S3.2 kmh S 4.0 mph6.4 kmh 29.79 in1008.8 mb 0.00 in0.0 mm 0.00 in0.0 mm 0.00 in0.0 mm
09:43 AM 37.3°F2.9°C 28.4°F-2.0°C 70% Calm Calm 3.0 mph4.8 kmh 29.79 in1008.8 mb 0.00 in0.0 mm 0.00 in0.0 mm 0.00 in0.0 mm
09:44 AM 37.4°F3.0°C 28.5°F-1.9°C 70% Calm Calm 2.0 mph3.2 kmh 29.79 in1008.8 mb 0.00 in0.0 mm 0.00 in0.0 mm 0.00 in0.0 mm
09:45 AM 37.4°F3.0°C 28.5°F-1.9°C 70% Calm Calm -- 29.79 in1008.8 mb 0.00 in0.0 mm 0.00 in0.0 mm 0.00 in0.0 mm
09:46 AM 37.4°F3.0°C 28.5°F-1.9°C 70% Calm Calm -- 29.79 in1008.8 mb 0.00 in0.0 mm 0.00 in0.0 mm 0.00 in0.0 mm
09:47 AM 37.5°F3.1°C 28.6°F-1.9°C 70% Calm Calm -- 29.79 in1008.8 mb 0.00 in0.0 mm 0.00 in0.0 mm 0.00 in0.0 mm
09:48 AM 37.5°F3.1°C 28.6°F-1.9°C 70% Calm Calm -- 29.79 in1008.8 mb 0.00 in0.0 mm 0.00 in0.0 mm 0.00 in0.0 mm
09:49 AM 37.5°F3.1°C 29.0°F-1.7°C 71% Calm Calm -- 29.80 in1009.1 mb 0.00 in0.0 mm 0.00 in0.0 mm 0.00 in0.0 mm
09:50 AM 37.5°F3.1°C 29.0°F-1.7°C 71% Calm Calm -- 29.80 in1009.1 mb 0.00 in0.0 mm 0.00 in0.0 mm 0.00 in0.0 mm
09:51 AM 37.5°F3.1°C 29.0°F-1.7°C 71% Calm Calm -- 29.80 in1009.1 mb 0.00 in0.0 mm 0.00 in0.0 mm 0.00 in0.0 mm
09:52 AM 37.5°F3.1°C 29.0°F-1.7°C 71% Calm Calm -- 29.80 in1009.1 mb 0.00 in0.0 mm 0.00 in0.0 mm 0.00 in0.0 mm
09:53 AM 37.6°F3.1°C 29.1°F-1.6°C 71% Calm Calm -- 29.80 in1009.1 mb 0.00 in0.0 mm 0.00 in0.0 mm 0.00 in0.0 mm
09:54 AM 37.6°F3.1°C 29.1°F-1.6°C 71% Calm Calm -- 29.79 in1008.8 mb 0.00 in0.0 mm 0.00 in0.0 mm 0.00 in0.0 mm
09:55 AM 37.6°F3.1°C 29.1°F-1.6°C 71% Calm Calm -- 29.79 in1008.8 mb 0.00 in0.0 mm 0.00 in0.0 mm 0.00 in0.0 mm
09:56 AM 37.6°F3.1°C 29.1°F-1.6°C 71% Calm Calm -- 29.79 in1008.8 mb 0.00 in0.0 mm 0.00 in0.0 mm 0.00 in0.0 mm
09:57 AM 37.6°F3.1°C 28.7°F-1.8°C 70% Calm Calm -- 29.79 in1008.8 mb 0.00 in0.0 mm 0.00 in0.0 mm 0.00 in0.0 mm
09:58 AM 37.7°F3.2°C 28.8°F-1.8°C 70% Calm Calm -- 29.79 in1008.8 mb 0.00 in0.0 mm 0.00 in0.0 mm 0.00 in0.0 mm
09:59 AM 37.7°F3.2°C 28.8°F-1.8°C 70% Calm Calm -- 29.79 in1008.8 mb 0.00 in0.0 mm 0.00 in0.0 mm 0.00 in0.0 mm
10:00 AM 37.7°F3.2°C 29.2°F-1.6°C 71% Calm Calm -- 29.79 in1008.8 mb 0.00 in0.0 mm 0.00 in0.0 mm 0.00 in0.0 mm
10:01 AM 37.7°F3.2°C 29.2°F-1.6°C 71% Calm Calm -- 29.79 in1008.8 mb 0.00 in0.0 mm 0.00 in0.0 mm 0.00 in0.0 mm
10:02 AM 37.7°F3.2°C 29.2°F-1.6°C 71% 1.0 mph S1.6 kmh S 1.0 mph1.6 kmh 29.79 in1008.8 mb 0.00 in0.0 mm 0.00 in0.0 mm 0.00 in0.0 mm
10:03 AM 37.7°F3.2°C 29.2°F-1.6°C 71% Calm Calm 1.0 mph1.6 kmh 29.78 in1008.5 mb 0.00 in0.0 mm 0.00 in0.0 mm 0.00 in0.0 mm
10:04 AM 37.7°F3.2°C 29.2°F-1.6°C 71% Calm Calm 1.0 mph1.6 kmh 29.79 in1008.8 mb 0.00 in0.0 mm 0.00 in0.0 mm 0.00 in0.0 mm
10:05 AM 37.8°F3.2°C 29.3°F-1.5°C 71% Calm Calm -- 29.79 in1008.8 mb 0.00 in0.0 mm 0.00 in0.0 mm 0.00 in0.0 mm
10:06 AM 37.8°F3.2°C 29.3°F-1.5°C 71% Calm Calm -- 29.79 in1008.8 mb 0.00 in0.0 mm 0.00 in0.0 mm 0.00 in0.0 mm
10:07 AM 37.8°F3.2°C 29.3°F-1.5°C 71% Calm Calm 2.0 mph3.2 kmh 29.79 in1008.8 mb 0.00 in0.0 mm 0.00 in0.0 mm 0.00 in0.0 mm
10:08 AM 37.9°F3.3°C 29.4°F-1.4°C 71% Calm Calm -- 29.79 in1008.8 mb 0.00 in0.0 mm 0.00 in0.0 mm 0.00 in0.0 mm
10:09 AM 37.9°F3.3°C 29.7°F-1.3°C 72% Calm Calm -- 29.78 in1008.5 mb 0.00 in0.0 mm 0.00 in0.0 mm 0.00 in0.0 mm
10:10 AM 37.9°F3.3°C 29.7°F-1.3°C 72% Calm Calm -- 29.79 in1008.8 mb 0.00 in0.0 mm 0.00 in0.0 mm 0.00 in0.0 mm
10:11 AM 37.9°F3.3°C 29.7°F-1.3°C 72% Calm Calm -- 29.78 in1008.5 mb 0.00 in0.0 mm 0.00 in0.0 mm 0.00 in0.0 mm
10:12 AM 38.0°F3.3°C 29.8°F-1.2°C 72% Calm Calm -- 29.79 in1008.8 mb 0.00 in0.0 mm 0.00 in0.0 mm 0.00 in0.0 mm
10:13 AM 38.0°F3.3°C 29.8°F-1.2°C 72% Calm Calm -- 29.78 in1008.5 mb 0.00 in0.0 mm 0.00 in0.0 mm 0.00 in0.0 mm
10:14 AM 38.0°F3.3°C 30.1°F-1.1°C 73% Calm Calm -- 29.78 in1008.5 mb 0.00 in0.0 mm 0.00 in0.0 mm 0.00 in0.0 mm
10:15 AM 38.1°F3.4°C 30.2°F-1.0°C 73% Calm Calm -- 29.78 in1008.5 mb 0.00 in0.0 mm 0.00 in0.0 mm 0.00 in0.0 mm
10:16 AM 38.1°F3.4°C 30.2°F-1.0°C 73% Calm Calm -- 29.78 in1008.5 mb 0.00 in0.0 mm 0.00 in0.0 mm 0.00 in0.0 mm
10:17 AM 38.2°F3.4°C 30.7°F-0.7°C 74% Calm Calm -- 29.78 in1008.5 mb 0.00 in0.0 mm 0.00 in0.0 mm 0.00 in0.0 mm
10:18 AM 38.3°F3.5°C 30.8°F-0.7°C 74% Calm Calm -- 29.78 in1008.5 mb 0.00 in0.0 mm 0.00 in0.0 mm 0.00 in0.0 mm
10:19 AM 38.3°F3.5°C 30.8°F-0.7°C 74% Calm Calm 3.0 mph4.8 kmh 29.78 in1008.5 mb 0.00 in0.0 mm 0.00 in0.0 mm 0.00 in0.0 mm
10:20 AM 38.4°F3.6°C 30.9°F-0.6°C 74% 1.0 mph S1.6 kmh S 4.0 mph6.4 kmh 29.78 in1008.5 mb 0.00 in0.0 mm 0.00 in0.0 mm 0.00 in0.0 mm
10:21 AM 38.5°F3.6°C 31.0°F-0.6°C 74% 2.0 mph S3.2 kmh S 4.0 mph6.4 kmh 29.78 in1008.5 mb 0.00 in0.0 mm 0.00 in0.0 mm 0.00 in0.0 mm
10:22 AM 38.6°F3.7°C 31.0°F-0.6°C 74% Calm Calm 4.0 mph6.4 kmh 29.78 in1008.5 mb 0.00 in0.0 mm 0.00 in0.0 mm 0.00 in0.0 mm
10:23 AM 38.7°F3.7°C 30.8°F-0.7°C 73% 4.0 mph S6.4 kmh S 4.0 mph6.4 kmh 29.78 in1008.5 mb 0.00 in0.0 mm 0.00 in0.0 mm 0.00 in0.0 mm
10:24 AM 38.8°F3.8°C 30.9°F-0.6°C 73% Calm Calm 4.0 mph6.4 kmh 29.78 in1008.5 mb 0.00 in0.0 mm 0.00 in0.0 mm 0.00 in0.0 mm
10:25 AM 38.9°F3.8°C 31.0°F-0.6°C 73% 3.0 mph S4.8 kmh S 3.0 mph4.8 kmh 29.78 in1008.5 mb 0.00 in0.0 mm 0.00 in0.0 mm 0.00 in0.0 mm
10:26 AM 39.0°F3.9°C 31.1°F-0.5°C 73% Calm Calm 3.0 mph4.8 kmh 29.78 in1008.5 mb 0.00 in0.0 mm 0.00 in0.0 mm 0.00 in0.0 mm
10:27 AM 39.1°F3.9°C 31.2°F-0.4°C 73% Calm Calm 3.0 mph4.8 kmh 29.78 in1008.5 mb 0.00 in0.0 mm 0.00 in0.0 mm 0.00 in0.0 mm
10:28 AM 39.2°F4.0°C 31.3°F-0.4°C 73% Calm Calm -- 29.78 in1008.5 mb 0.00 in0.0 mm 0.00 in0.0 mm 0.00 in0.0 mm
10:29 AM 39.3°F4.1°C 31.4°F-0.3°C 73% Calm Calm -- 29.78 in1008.5 mb 0.00 in0.0 mm 0.00 in0.0 mm 0.00 in0.0 mm
10:31 AM 39.6°F4.2°C 31.7°F-0.2°C 73% Calm Calm -- 29.78 in1008.5 mb 0.00 in0.0 mm 0.00 in0.0 mm 0.00 in0.0 mm
10:32 AM 39.7°F4.3°C 31.8°F-0.1°C 73% Calm Calm -- 29.78 in1008.5 mb 0.00 in0.0 mm 0.00 in0.0 mm 0.00 in0.0 mm
10:33 AM 39.8°F4.3°C 31.9°F-0.1°C 73% Calm Calm 1.0 mph1.6 kmh 29.78 in1008.5 mb 0.00 in0.0 mm 0.00 in0.0 mm 0.00 in0.0 mm
10:34 AM 40.0°F4.4°C 32.1°F0.1°C 73% Calm Calm 1.0 mph1.6 kmh 29.78 in1008.5 mb 0.00 in0.0 mm 0.00 in0.0 mm 0.00 in0.0 mm
10:35 AM 40.1°F4.5°C 31.8°F-0.1°C 72% Calm Calm 4.0 mph6.4 kmh 29.78 in1008.5 mb 0.00 in0.0 mm 0.00 in0.0 mm 0.00 in0.0 mm
10:36 AM 40.2°F4.6°C 31.9°F-0.1°C 72% Calm Calm 2.0 mph3.2 kmh 29.78 in1008.5 mb 0.00 in0.0 mm 0.00 in0.0 mm 0.00 in0.0 mm
10:37 AM 40.3°F4.6°C 32.0°F0.0°C 72% Calm Calm -- 29.78 in1008.5 mb 0.00 in0.0 mm 0.00 in0.0 mm 0.00 in0.0 mm
10:38 AM 40.5°F4.7°C 31.9°F-0.1°C 71% Calm Calm -- 29.78 in1008.5 mb 0.00 in0.0 mm 0.00 in0.0 mm 0.00 in0.0 mm
10:39 AM 40.5°F4.7°C 31.9°F-0.1°C 71% Calm Calm -- 29.78 in1008.5 mb 0.00 in0.0 mm 0.00 in0.0 mm 0.00 in0.0 mm
10:40 AM 40.6°F4.8°C 32.3°F0.2°C 72% Calm Calm -- 29.78 in1008.5 mb 0.00 in0.0 mm 0.00 in0.0 mm 0.00 in0.0 mm
10:41 AM 40.8°F4.9°C 32.1°F0.1°C 71% Calm Calm -- 29.78 in1008.5 mb 0.00 in0.0 mm 0.00 in0.0 mm 0.00 in0.0 mm
10:42 AM 40.9°F4.9°C 32.2°F0.1°C 71% Calm Calm -- 29.77 in1008.1 mb 0.00 in0.0 mm 0.00 in0.0 mm 0.00 in0.0 mm
10:43 AM 41.1°F5.1°C 32.4°F0.2°C 71% Calm Calm 2.0 mph3.2 kmh 29.77 in1008.1 mb 0.00 in0.0 mm 0.00 in0.0 mm 0.00 in0.0 mm
10:44 AM 41.2°F5.1°C 32.2°F0.1°C 70% 3.0 mph S4.8 kmh S 5.0 mph8.0 kmh 29.77 in1008.1 mb 0.00 in0.0 mm 0.00 in0.0 mm 0.00 in0.0 mm
10:45 AM 41.3°F5.2°C 31.9°F-0.1°C 69% Calm Calm 5.0 mph8.0 kmh 29.77 in1008.1 mb 0.00 in0.0 mm 0.00 in0.0 mm 0.00 in0.0 mm
10:46 AM 41.4°F5.2°C 32.0°F0.0°C 69% Calm Calm 2.0 mph3.2 kmh 29.77 in1008.1 mb 0.00 in0.0 mm 0.00 in0.0 mm 0.00 in0.0 mm
10:47 AM 41.5°F5.3°C 31.7°F-0.2°C 68% Calm Calm 1.0 mph1.6 kmh 29.77 in1008.1 mb 0.00 in0.0 mm 0.00 in0.0 mm 0.00 in0.0 mm
10:48 AM 41.6°F5.3°C 31.8°F-0.1°C 68% Calm Calm 1.0 mph1.6 kmh 29.77 in1008.1 mb 0.00 in0.0 mm 0.00 in0.0 mm 0.00 in0.0 mm
10:49 AM 41.7°F5.4°C 31.9°F-0.1°C 68% Calm Calm -- 29.77 in1008.1 mb 0.00 in0.0 mm 0.00 in0.0 mm 0.00 in0.0 mm
10:50 AM 41.8°F5.4°C 32.0°F0.0°C 68% Calm Calm -- 29.77 in1008.1 mb 0.00 in0.0 mm 0.00 in0.0 mm 0.00 in0.0 mm
10:51 AM 41.9°F5.5°C 32.1°F0.1°C 68% Calm Calm -- 29.77 in1008.1 mb 0.00 in0.0 mm 0.00 in0.0 mm 0.00 in0.0 mm
10:52 AM 41.9°F5.5°C 32.1°F0.1°C 68% Calm Calm -- 29.77 in1008.1 mb 0.00 in0.0 mm 0.00 in0.0 mm 0.00 in0.0 mm
10:53 AM 42.0°F5.6°C 32.2°F0.1°C 68% Calm Calm -- 29.77 in1008.1 mb 0.00 in0.0 mm 0.00 in0.0 mm 0.00 in0.0 mm
10:54 AM 42.1°F5.6°C 32.3°F0.2°C 68% Calm Calm -- 29.77 in1008.1 mb 0.00 in0.0 mm 0.00 in0.0 mm 0.00 in0.0 mm
10:55 AM 42.2°F5.7°C 32.4°F0.2°C 68% 3.0 mph S4.8 kmh S 4.0 mph6.4 kmh 29.77 in1008.1 mb 0.00 in0.0 mm 0.00 in0.0 mm 0.00 in0.0 mm
10:56 AM 42.3°F5.7°C 32.5°F0.3°C 68% Calm Calm 4.0 mph6.4 kmh 29.77 in1008.1 mb 0.00 in0.0 mm 0.00 in0.0 mm 0.00 in0.0 mm
10:57 AM 42.3°F5.7°C 32.1°F0.1°C 67% 3.0 mph S4.8 kmh S 4.0 mph6.4 kmh 29.77 in1008.1 mb 0.00 in0.0 mm 0.00 in0.0 mm 0.00 in0.0 mm
10:58 AM 42.4°F5.8°C 31.9°F-0.1°C 66% 3.0 mph S4.8 kmh S 4.0 mph6.4 kmh 29.77 in1008.1 mb 0.00 in0.0 mm 0.00 in0.0 mm 0.00 in0.0 mm
10:59 AM 42.3°F5.7°C 31.8°F-0.1°C 66% 3.0 mph S4.8 kmh S 4.0 mph6.4 kmh 29.77 in1008.1 mb 0.00 in0.0 mm 0.00 in0.0 mm 0.00 in0.0 mm
11:00 AM 42.3°F5.7°C 31.8°F-0.1°C 66% Calm Calm 3.0 mph4.8 kmh 29.77 in1008.1 mb 0.00 in0.0 mm 0.00 in0.0 mm 0.00 in0.0 mm
11:01 AM 42.3°F5.7°C 31.8°F-0.1°C 66% Calm Calm -- 29.77 in1008.1 mb 0.00 in0.0 mm 0.00 in0.0 mm 0.00 in0.0 mm
11:02 AM 42.4°F5.8°C 31.9°F-0.1°C 66% Calm Calm -- 29.77 in1008.1 mb 0.00 in0.0 mm 0.00 in0.0 mm 0.00 in0.0 mm
11:03 AM 42.4°F5.8°C 31.9°F-0.1°C 66% Calm Calm -- 29.77 in1008.1 mb 0.00 in0.0 mm 0.00 in0.0 mm 0.00 in0.0 mm
11:04 AM 42.4°F5.8°C 31.9°F-0.1°C 66% Calm Calm -- 29.77 in1008.1 mb 0.00 in0.0 mm 0.00 in0.0 mm 0.00 in0.0 mm
11:05 AM 42.4°F5.8°C 31.9°F-0.1°C 66% Calm Calm -- 29.77 in1008.1 mb 0.00 in0.0 mm 0.00 in0.0 mm 0.00 in0.0 mm
11:06 AM 42.5°F5.8°C 32.0°F0.0°C 66% Calm Calm -- 29.77 in1008.1 mb 0.00 in0.0 mm 0.00 in0.0 mm 0.00 in0.0 mm
11:07 AM 42.6°F5.9°C 32.4°F0.2°C 67% 2.0 mph S3.2 kmh S 2.0 mph3.2 kmh 29.76 in1007.8 mb 0.00 in0.0 mm 0.00 in0.0 mm 0.00 in0.0 mm
11:08 AM 42.7°F5.9°C 32.5°F0.3°C 67% Calm Calm 2.0 mph3.2 kmh 29.76 in1007.8 mb 0.00 in0.0 mm 0.00 in0.0 mm 0.00 in0.0 mm
11:09 AM 42.8°F6.0°C 32.2°F0.1°C 66% 2.0 mph S3.2 kmh S 3.0 mph4.8 kmh 29.76 in1007.8 mb 0.00 in0.0 mm 0.00 in0.0 mm 0.00 in0.0 mm
11:10 AM 42.9°F6.1°C 32.0°F0.0°C 65% 3.0 mph S4.8 kmh S 4.0 mph6.4 kmh 29.76 in1007.8 mb 0.00 in0.0 mm 0.00 in0.0 mm 0.00 in0.0 mm
11:11 AM 43.0°F6.1°C 31.7°F-0.2°C 64% Calm Calm 4.0 mph6.4 kmh 29.76 in1007.8 mb 0.00 in0.0 mm 0.00 in0.0 mm 0.00 in0.0 mm
11:12 AM 43.1°F6.2°C 31.8°F-0.1°C 64% 4.0 mph S6.4 kmh S 4.0 mph6.4 kmh 29.76 in1007.8 mb 0.00 in0.0 mm 0.00 in0.0 mm 0.00 in0.0 mm
11:13 AM 43.2°F6.2°C 31.5°F-0.3°C 63% 1.0 mph S1.6 kmh S 4.0 mph6.4 kmh 29.76 in1007.8 mb 0.00 in0.0 mm 0.00 in0.0 mm 0.00 in0.0 mm
11:14 AM 43.3°F6.3°C 31.2°F-0.4°C 62% Calm Calm 3.0 mph4.8 kmh 29.76 in1007.8 mb 0.00 in0.0 mm 0.00 in0.0 mm 0.00 in0.0 mm
11:15 AM 43.4°F6.3°C 31.3°F-0.4°C 62% Calm Calm 1.0 mph1.6 kmh 29.76 in1007.8 mb 0.00 in0.0 mm 0.00 in0.0 mm 0.00 in0.0 mm
11:16 AM 43.5°F6.4°C 31.4°F-0.3°C 62% 2.0 mph S3.2 kmh S 4.0 mph6.4 kmh 29.76 in1007.8 mb 0.00 in0.0 mm 0.00 in0.0 mm 0.00 in0.0 mm
11:17 AM 43.6°F6.4°C 31.1°F-0.5°C 61% 1.0 mph S1.6 kmh S 4.0 mph6.4 kmh 29.76 in1007.8 mb 0.00 in0.0 mm 0.00 in0.0 mm 0.00 in0.0 mm
11:18 AM 43.7°F6.5°C 31.2°F-0.4°C 61% 3.0 mph S4.8 kmh S 4.0 mph6.4 kmh 29.76 in1007.8 mb 0.00 in0.0 mm 0.00 in0.0 mm 0.00 in0.0 mm
11:19 AM 43.8°F6.6°C 31.2°F-0.4°C 61% Calm Calm 4.0 mph6.4 kmh 29.76 in1007.8 mb 0.00 in0.0 mm 0.00 in0.0 mm 0.00 in0.0 mm
11:20 AM 43.9°F6.6°C 30.9°F-0.6°C 60% 4.0 mph S6.4 kmh S 4.0 mph6.4 kmh 29.76 in1007.8 mb 0.00 in0.0 mm 0.00 in0.0 mm 0.00 in0.0 mm
11:21 AM 44.0°F6.7°C 31.0°F-0.6°C 60% Calm Calm 4.0 mph6.4 kmh 29.76 in1007.8 mb 0.00 in0.0 mm 0.00 in0.0 mm 0.00 in0.0 mm
11:22 AM 44.1°F6.7°C 31.1°F-0.5°C 60% Calm Calm 3.0 mph4.8 kmh 29.76 in1007.8 mb 0.00 in0.0 mm 0.00 in0.0 mm 0.00 in0.0 mm
11:23 AM 44.3°F6.8°C 31.3°F-0.4°C 60% 3.0 mph S4.8 kmh S 3.0 mph4.8 kmh 29.76 in1007.8 mb 0.00 in0.0 mm 0.00 in0.0 mm 0.00 in0.0 mm
11:24 AM 44.4°F6.9°C 31.4°F-0.3°C 60% Calm Calm 5.0 mph8.0 kmh 29.76 in1007.8 mb 0.00 in0.0 mm 0.00 in0.0 mm 0.00 in0.0 mm
11:25 AM 44.5°F6.9°C 31.5°F-0.3°C 60% 2.0 mph S3.2 kmh S 6.0 mph9.7 kmh 29.77 in1008.1 mb 0.00 in0.0 mm 0.00 in0.0 mm 0.00 in0.0 mm
11:26 AM 44.6°F7.0°C 31.2°F-0.4°C 59% 2.0 mph S3.2 kmh S 8.0 mph12.9 kmh 29.77 in1008.1 mb 0.00 in0.0 mm 0.00 in0.0 mm 0.00 in0.0 mm
11:27 AM 44.8°F7.1°C 30.9°F-0.6°C 58% Calm Calm 8.0 mph12.9 kmh 29.77 in1008.1 mb 0.00 in0.0 mm 0.00 in0.0 mm 0.00 in0.0 mm
11:28 AM 44.9°F7.2°C 31.0°F-0.6°C 58% 3.0 mph S4.8 kmh S 6.0 mph9.7 kmh 29.77 in1008.1 mb 0.00 in0.0 mm 0.00 in0.0 mm 0.00 in0.0 mm
11:29 AM 45.0°F7.2°C 31.1°F-0.5°C 58% Calm Calm 6.0 mph9.7 kmh 29.76 in1007.8 mb 0.00 in0.0 mm 0.00 in0.0 mm 0.00 in0.0 mm
11:30 AM 45.0°F7.2°C 30.7°F-0.7°C 57% Calm Calm 3.0 mph4.8 kmh 29.76 in1007.8 mb 0.00 in0.0 mm 0.00 in0.0 mm 0.00 in0.0 mm
11:31 AM 45.1°F7.3°C 30.8°F-0.7°C 57% Calm Calm 5.0 mph8.0 kmh 29.76 in1007.8 mb 0.00 in0.0 mm 0.00 in0.0 mm 0.00 in0.0 mm
11:32 AM 45.2°F7.3°C 30.9°F-0.6°C 57% 1.0 mph S1.6 kmh S 5.0 mph8.0 kmh 29.76 in1007.8 mb 0.00 in0.0 mm 0.00 in0.0 mm 0.00 in0.0 mm
11:33 AM 45.3°F7.4°C 31.0°F-0.6°C 57% 4.0 mph S6.4 kmh S 4.0 mph6.4 kmh 29.76 in1007.8 mb 0.00 in0.0 mm 0.00 in0.0 mm 0.00 in0.0 mm
11:34 AM 45.4°F7.4°C 31.5°F-0.3°C 58% Calm Calm 4.0 mph6.4 kmh 29.76 in1007.8 mb 0.00 in0.0 mm 0.00 in0.0 mm 0.00 in0.0 mm
11:35 AM 45.4°F7.4°C 31.1°F-0.5°C 57% 2.0 mph S3.2 kmh S 5.0 mph8.0 kmh 29.76 in1007.8 mb 0.00 in0.0 mm 0.00 in0.0 mm 0.00 in0.0 mm
11:36 AM 45.5°F7.5°C 30.7°F-0.7°C 56% 1.0 mph S1.6 kmh S 5.0 mph8.0 kmh 29.76 in1007.8 mb 0.00 in0.0 mm 0.00 in0.0 mm 0.00 in0.0 mm
11:37 AM 45.6°F7.6°C 30.8°F-0.7°C 56% Calm Calm 4.0 mph6.4 kmh 29.76 in1007.8 mb 0.00 in0.0 mm 0.00 in0.0 mm 0.00 in0.0 mm
11:38 AM 45.7°F7.6°C 30.9°F-0.6°C 56% 2.0 mph S3.2 kmh S 4.0 mph6.4 kmh 29.76 in1007.8 mb 0.00 in0.0 mm 0.00 in0.0 mm 0.00 in0.0 mm
11:39 AM 45.8°F7.7°C 31.0°F-0.6°C 56% 2.0 mph S3.2 kmh S 3.0 mph4.8 kmh 29.76 in1007.8 mb 0.00 in0.0 mm 0.00 in0.0 mm 0.00 in0.0 mm
11:40 AM 45.9°F7.7°C 31.1°F-0.5°C 56% 2.0 mph S3.2 kmh S 6.0 mph9.7 kmh 29.76 in1007.8 mb 0.00 in0.0 mm 0.00 in0.0 mm 0.00 in0.0 mm
11:41 AM 45.9°F7.7°C 30.7°F-0.7°C 55% 2.0 mph S3.2 kmh S 5.0 mph8.0 kmh 29.76 in1007.8 mb 0.00 in0.0 mm 0.00 in0.0 mm 0.00 in0.0 mm
11:42 AM 46.0°F7.8°C 30.3°F-0.9°C 54% Calm Calm 3.0 mph4.8 kmh 29.76 in1007.8 mb 0.00 in0.0 mm 0.00 in0.0 mm 0.00 in0.0 mm
11:43 AM 46.0°F7.8°C 30.3°F-0.9°C 54% Calm Calm 1.0 mph1.6 kmh 29.75 in1007.5 mb 0.00 in0.0 mm 0.00 in0.0 mm 0.00 in0.0 mm
11:44 AM 46.1°F7.8°C 30.4°F-0.9°C 54% Calm Calm 1.0 mph1.6 kmh 29.76 in1007.8 mb 0.00 in0.0 mm 0.00 in0.0 mm 0.00 in0.0 mm
11:45 AM 46.2°F7.9°C 30.5°F-0.8°C 54% Calm Calm 3.0 mph4.8 kmh 29.75 in1007.5 mb 0.00 in0.0 mm 0.00 in0.0 mm 0.00 in0.0 mm
11:46 AM 46.3°F7.9°C 30.6°F-0.8°C 54% Calm Calm 3.0 mph4.8 kmh 29.75 in1007.5 mb 0.00 in0.0 mm 0.00 in0.0 mm 0.00 in0.0 mm
11:47 AM 46.4°F8.0°C 30.7°F-0.7°C 54% Calm Calm -- 29.75 in1007.5 mb 0.00 in0.0 mm 0.00 in0.0 mm 0.00 in0.0 mm
11:48 AM 46.5°F8.1°C 30.8°F-0.7°C 54% Calm Calm 3.0 mph4.8 kmh 29.75 in1007.5 mb 0.00 in0.0 mm 0.00 in0.0 mm 0.00 in0.0 mm
11:49 AM 46.7°F8.2°C 31.0°F-0.6°C 54% 6.0 mph S9.7 kmh S 10.0 mph16.1 kmh 29.75 in1007.5 mb 0.00 in0.0 mm 0.00 in0.0 mm 0.00 in0.0 mm
11:50 AM 46.8°F8.2°C 30.6°F-0.8°C 53% 7.0 mph S11.3 kmh S 10.0 mph16.1 kmh 29.75 in1007.5 mb 0.00 in0.0 mm 0.00 in0.0 mm 0.00 in0.0 mm
11:51 AM 46.9°F8.3°C 30.2°F-1.0°C 52% 7.0 mph S11.3 kmh S 11.0 mph17.7 kmh 29.75 in1007.5 mb 0.00 in0.0 mm 0.00 in0.0 mm 0.00 in0.0 mm
11:52 AM 46.9°F8.3°C 30.2°F-1.0°C 52% 4.0 mph S6.4 kmh S 11.0 mph17.7 kmh 29.75 in1007.5 mb 0.00 in0.0 mm 0.00 in0.0 mm 0.00 in0.0 mm
11:53 AM 47.0°F8.3°C 30.3°F-0.9°C 52% Calm Calm 9.0 mph14.5 kmh 29.75 in1007.5 mb 0.00 in0.0 mm 0.00 in0.0 mm 0.00 in0.0 mm
11:54 AM 47.0°F8.3°C 30.8°F-0.7°C 53% 4.0 mph S6.4 kmh S 5.0 mph8.0 kmh 29.75 in1007.5 mb 0.00 in0.0 mm 0.00 in0.0 mm 0.00 in0.0 mm
11:55 AM 47.1°F8.4°C 30.9°F-0.6°C 53% Calm Calm 4.0 mph6.4 kmh 29.75 in1007.5 mb 0.00 in0.0 mm 0.00 in0.0 mm 0.00 in0.0 mm
11:56 AM 47.2°F8.4°C 31.0°F-0.6°C 53% 5.0 mph S8.0 kmh S 7.0 mph11.3 kmh 29.75 in1007.5 mb 0.00 in0.0 mm 0.00 in0.0 mm 0.00 in0.0 mm
11:57 AM 47.3°F8.5°C 30.6°F-0.8°C 52% 2.0 mph S3.2 kmh S 7.0 mph11.3 kmh 29.74 in1007.1 mb 0.00 in0.0 mm 0.00 in0.0 mm 0.00 in0.0 mm
11:58 AM 47.3°F8.5°C 30.6°F-0.8°C 52% 2.0 mph S3.2 kmh S 7.0 mph11.3 kmh 29.75 in1007.5 mb 0.00 in0.0 mm 0.00 in0.0 mm 0.00 in0.0 mm
11:59 AM 47.4°F8.6°C 30.2°F-1.0°C 51% 3.0 mph S4.8 kmh S 7.0 mph11.3 kmh 29.74 in1007.1 mb 0.00 in0.0 mm 0.00 in0.0 mm 0.00 in0.0 mm
12:00 PM 47.5°F8.6°C 30.3°F-0.9°C 51% 3.0 mph S4.8 kmh S 6.0 mph9.7 kmh 29.74 in1007.1 mb 0.00 in0.0 mm 0.00 in0.0 mm 0.00 in0.0 mm
12:01 PM 47.6°F8.7°C 30.4°F-0.9°C 51% 5.0 mph S8.0 kmh S 5.0 mph8.0 kmh 29.74 in1007.1 mb 0.00 in0.0 mm 0.00 in0.0 mm 0.00 in0.0 mm
12:02 PM 47.7°F8.7°C 30.5°F-0.8°C 51% 2.0 mph S3.2 kmh S 6.0 mph9.7 kmh 29.74 in1007.1 mb 0.00 in0.0 mm 0.00 in0.0 mm 0.00 in0.0 mm
12:03 PM 47.9°F8.8°C 30.7°F-0.7°C 51% 2.0 mph S3.2 kmh S 6.0 mph9.7 kmh 29.74 in1007.1 mb 0.00 in0.0 mm 0.00 in0.0 mm 0.00 in0.0 mm
12:04 PM 48.0°F8.9°C 30.8°F-0.7°C 51% Calm Calm 5.0 mph8.0 kmh 29.74 in1007.1 mb 0.00 in0.0 mm 0.00 in0.0 mm 0.00 in0.0 mm
12:05 PM 48.1°F8.9°C 30.4°F-0.9°C 50% 6.0 mph S9.7 kmh S 6.0 mph9.7 kmh 29.74 in1007.1 mb 0.00 in0.0 mm 0.00 in0.0 mm 0.00 in0.0 mm
12:06 PM 48.3°F9.1°C 30.0°F-1.1°C 49% 5.0 mph S8.0 kmh S 13.0 mph20.9 kmh 29.74 in1007.1 mb 0.00 in0.0 mm 0.00 in0.0 mm 0.00 in0.0 mm
12:07 PM 48.5°F9.2°C 28.7°F-1.8°C 46% 5.0 mph S8.0 kmh S 13.0 mph20.9 kmh 29.74 in1007.1 mb 0.00 in0.0 mm 0.00 in0.0 mm 0.00 in0.0 mm
12:08 PM 48.7°F9.3°C 28.3°F-2.1°C 45% 2.0 mph S3.2 kmh S 6.0 mph9.7 kmh 29.73 in1006.8 mb 0.00 in0.0 mm 0.00 in0.0 mm 0.00 in0.0 mm
12:09 PM 48.9°F9.4°C 27.4°F-2.6°C 43% 3.0 mph SW4.8 kmh SW 9.0 mph14.5 kmh 29.73 in1006.8 mb 0.00 in0.0 mm 0.00 in0.0 mm 0.00 in0.0 mm
12:10 PM 49.1°F9.5°C 27.0°F-2.8°C 42% 7.0 mph SSW11.3 kmh SSW 13.0 mph20.9 kmh 29.73 in1006.8 mb 0.00 in0.0 mm 0.00 in0.0 mm 0.00 in0.0 mm
12:11 PM 49.3°F9.6°C 27.2°F-2.7°C 42% 6.0 mph SSW9.7 kmh SSW 13.0 mph20.9 kmh 29.73 in1006.8 mb 0.00 in0.0 mm 0.00 in0.0 mm 0.00 in0.0 mm
12:12 PM 49.4°F9.7°C 27.3°F-2.6°C 42% 7.0 mph SSW11.3 kmh SSW 9.0 mph14.5 kmh 29.73 in1006.8 mb 0.00 in0.0 mm 0.00 in0.0 mm 0.00 in0.0 mm
12:13 PM 49.5°F9.7°C 26.8°F-2.9°C 41% 4.0 mph S6.4 kmh S 8.0 mph12.9 kmh 29.73 in1006.8 mb 0.00 in0.0 mm 0.00 in0.0 mm 0.00 in0.0 mm
12:14 PM 49.6°F9.8°C 26.9°F-2.8°C 41% 4.0 mph SE6.4 kmh SE 8.0 mph12.9 kmh 29.73 in1006.8 mb 0.00 in0.0 mm 0.00 in0.0 mm 0.00 in0.0 mm
12:15 PM 49.6°F9.8°C 26.9°F-2.8°C 41% 5.0 mph SSE8.0 kmh SSE 7.0 mph11.3 kmh 29.73 in1006.8 mb 0.00 in0.0 mm 0.00 in0.0 mm 0.00 in0.0 mm
12:16 PM 49.7°F9.8°C 27.0°F-2.8°C 41% 5.0 mph S8.0 kmh S 7.0 mph11.3 kmh 29.73 in1006.8 mb 0.00 in0.0 mm 0.00 in0.0 mm 0.00 in0.0 mm
12:17 PM 49.7°F9.8°C 27.0°F-2.8°C 41% 4.0 mph S6.4 kmh S 8.0 mph12.9 kmh 29.73 in1006.8 mb 0.00 in0.0 mm 0.00 in0.0 mm 0.00 in0.0 mm
12:18 PM 49.8°F9.9°C 27.1°F-2.7°C 41% 5.0 mph SSW8.0 kmh SSW 8.0 mph12.9 kmh 29.73 in1006.8 mb 0.00 in0.0 mm 0.00 in0.0 mm 0.00 in0.0 mm
12:19 PM 49.7°F9.8°C 27.0°F-2.8°C 41% 1.0 mph SE1.6 kmh SE 9.0 mph14.5 kmh 29.73 in1006.8 mb 0.00 in0.0 mm 0.00 in0.0 mm 0.00 in0.0 mm
12:20 PM 49.7°F9.8°C 27.0°F-2.8°C 41% 3.0 mph SW4.8 kmh SW 9.0 mph14.5 kmh 29.73 in1006.8 mb 0.00 in0.0 mm 0.00 in0.0 mm 0.00 in0.0 mm
12:21 PM 49.7°F9.8°C 27.0°F-2.8°C 41% 7.0 mph NW11.3 kmh NW 11.0 mph17.7 kmh 29.73 in1006.8 mb 0.00 in0.0 mm 0.00 in0.0 mm 0.00 in0.0 mm
12:22 PM 49.7°F9.8°C 27.6°F-2.4°C 42% 3.0 mph E4.8 kmh E 11.0 mph17.7 kmh 29.73 in1006.8 mb 0.00 in0.0 mm 0.00 in0.0 mm 0.00 in0.0 mm
12:23 PM 49.6°F9.8°C 27.5°F-2.5°C 42% 2.0 mph SE3.2 kmh SE 6.0 mph9.7 kmh 29.72 in1006.4 mb 0.00 in0.0 mm 0.00 in0.0 mm 0.00 in0.0 mm
12:24 PM 49.6°F9.8°C 27.5°F-2.5°C 42% 3.0 mph S4.8 kmh S 6.0 mph9.7 kmh 29.72 in1006.4 mb 0.00 in0.0 mm 0.00 in0.0 mm 0.00 in0.0 mm
12:25 PM 49.7°F9.8°C 27.6°F-2.4°C 42% 4.0 mph SE6.4 kmh SE 6.0 mph9.7 kmh 29.72 in1006.4 mb 0.00 in0.0 mm 0.00 in0.0 mm 0.00 in0.0 mm
12:26 PM 49.7°F9.8°C 27.6°F-2.4°C 42% 4.0 mph SE6.4 kmh SE 8.0 mph12.9 kmh 29.72 in1006.4 mb 0.00 in0.0 mm 0.00 in0.0 mm 0.00 in0.0 mm
12:27 PM 49.7°F9.8°C 27.6°F-2.4°C 42% 4.0 mph S6.4 kmh S 8.0 mph12.9 kmh 29.72 in1006.4 mb 0.00 in0.0 mm 0.00 in0.0 mm 0.00 in0.0 mm
12:28 PM 49.8°F9.9°C 27.7°F-2.4°C 42% 2.0 mph S3.2 kmh S 4.0 mph6.4 kmh 29.72 in1006.4 mb 0.00 in0.0 mm 0.00 in0.0 mm 0.00 in0.0 mm
12:29 PM 49.8°F9.9°C 27.7°F-2.4°C 42% 1.0 mph NE1.6 kmh NE 8.0 mph12.9 kmh 29.72 in1006.4 mb 0.00 in0.0 mm 0.00 in0.0 mm 0.00 in0.0 mm
12:31 PM 49.9°F9.9°C 27.2°F-2.7°C 41% 3.0 mph S4.8 kmh S 8.0 mph12.9 kmh 29.72 in1006.4 mb 0.00 in0.0 mm 0.00 in0.0 mm 0.00 in0.0 mm
12:32 PM 50.0°F10.0°C 27.3°F-2.6°C 41% 5.0 mph S8.0 kmh S 8.0 mph12.9 kmh 29.72 in1006.4 mb 0.00 in0.0 mm 0.00 in0.0 mm 0.00 in0.0 mm
12:33 PM 50.0°F10.0°C 26.7°F-2.9°C 40% 1.0 mph SE1.6 kmh SE 7.0 mph11.3 kmh 29.72 in1006.4 mb 0.00 in0.0 mm 0.00 in0.0 mm 0.00 in0.0 mm
12:34 PM 50.1°F10.1°C 26.7°F-2.9°C 40% 2.0 mph SSE3.2 kmh SSE 6.0 mph9.7 kmh 29.72 in1006.4 mb 0.00 in0.0 mm 0.00 in0.0 mm 0.00 in0.0 mm
12:35 PM 50.1°F10.1°C 26.7°F-2.9°C 40% Calm Calm 4.0 mph6.4 kmh 29.72 in1006.4 mb 0.00 in0.0 mm 0.00 in0.0 mm 0.00 in0.0 mm
12:36 PM 50.2°F10.1°C 26.8°F-2.9°C 40% 5.0 mph SE8.0 kmh SE 6.0 mph9.7 kmh 29.71 in1006.1 mb 0.00 in0.0 mm 0.00 in0.0 mm 0.00 in0.0 mm
12:37 PM 50.3°F10.2°C 26.9°F-2.8°C 40% 2.0 mph SSW3.2 kmh SSW 7.0 mph11.3 kmh 29.71 in1006.1 mb 0.00 in0.0 mm 0.00 in0.0 mm 0.00 in0.0 mm
12:38 PM 50.3°F10.2°C 26.3°F-3.2°C 39% 4.0 mph SE6.4 kmh SE 7.0 mph11.3 kmh 29.71 in1006.1 mb 0.00 in0.0 mm 0.00 in0.0 mm 0.00 in0.0 mm
12:39 PM 50.3°F10.2°C 26.3°F-3.2°C 39% Calm Calm 7.0 mph11.3 kmh 29.71 in1006.1 mb 0.00 in0.0 mm 0.00 in0.0 mm 0.00 in0.0 mm
12:40 PM 50.4°F10.2°C 25.8°F-3.4°C 38% 4.0 mph SSE6.4 kmh SSE 7.0 mph11.3 kmh 29.71 in1006.1 mb 0.00 in0.0 mm 0.00 in0.0 mm 0.00 in0.0 mm
12:41 PM 50.5°F10.3°C 25.9°F-3.4°C 38% 6.0 mph S9.7 kmh S 7.0 mph11.3 kmh 29.71 in1006.1 mb 0.00 in0.0 mm 0.00 in0.0 mm 0.00 in0.0 mm
12:42 PM 50.5°F10.3°C 25.2°F-3.8°C 37% 4.0 mph S6.4 kmh S 6.0 mph9.7 kmh 29.71 in1006.1 mb 0.00 in0.0 mm 0.00 in0.0 mm 0.00 in0.0 mm
12:43 PM 50.6°F10.3°C 25.3°F-3.7°C 37% Calm Calm 5.0 mph8.0 kmh 29.71 in1006.1 mb 0.00 in0.0 mm 0.00 in0.0 mm 0.00 in0.0 mm
12:44 PM 50.6°F10.3°C 25.3°F-3.7°C 37% 6.0 mph SSE9.7 kmh SSE 6.0 mph9.7 kmh 29.71 in1006.1 mb 0.00 in0.0 mm 0.00 in0.0 mm 0.00 in0.0 mm
12:45 PM 50.6°F10.3°C 25.3°F-3.7°C 37% 3.0 mph S4.8 kmh S 7.0 mph11.3 kmh 29.71 in1006.1 mb 0.00 in0.0 mm 0.00 in0.0 mm 0.00 in0.0 mm
12:46 PM 50.6°F10.3°C 25.3°F-3.7°C 37% 4.0 mph SSE6.4 kmh SSE 6.0 mph9.7 kmh 29.70 in1005.8 mb 0.00 in0.0 mm 0.00 in0.0 mm 0.00 in0.0 mm
12:47 PM 50.7°F10.4°C 26.0°F-3.3°C 38% 6.0 mph SW9.7 kmh SW 6.0 mph9.7 kmh 29.70 in1005.8 mb 0.00 in0.0 mm 0.00 in0.0 mm 0.00 in0.0 mm
12:48 PM 50.7°F10.4°C 25.4°F-3.7°C 37% 7.0 mph SE11.3 kmh SE 7.0 mph11.3 kmh 29.70 in1005.8 mb 0.00 in0.0 mm 0.00 in0.0 mm 0.00 in0.0 mm
12:49 PM 50.8°F10.4°C 25.5°F-3.6°C 37% 3.0 mph SW4.8 kmh SW 7.0 mph11.3 kmh 29.70 in1005.8 mb 0.00 in0.0 mm 0.00 in0.0 mm 0.00 in0.0 mm
12:50 PM 50.8°F10.4°C 25.5°F-3.6°C 37% 5.0 mph S8.0 kmh S 10.0 mph16.1 kmh 29.70 in1005.8 mb 0.00 in0.0 mm 0.00 in0.0 mm 0.00 in0.0 mm
12:51 PM 50.8°F10.4°C 25.5°F-3.6°C 37% 3.0 mph SSW4.8 kmh SSW 10.0 mph16.1 kmh 29.70 in1005.8 mb 0.00 in0.0 mm 0.00 in0.0 mm 0.00 in0.0 mm
12:52 PM 50.8°F10.4°C 24.8°F-4.0°C 36% 4.0 mph SW6.4 kmh SW 8.0 mph12.9 kmh 29.70 in1005.8 mb 0.00 in0.0 mm 0.00 in0.0 mm 0.00 in0.0 mm
12:53 PM 50.8°F10.4°C 25.5°F-3.6°C 37% 4.0 mph SSW6.4 kmh SSW 8.0 mph12.9 kmh 29.70 in1005.8 mb 0.00 in0.0 mm 0.00 in0.0 mm 0.00 in0.0 mm
12:54 PM 50.8°F10.4°C 25.5°F-3.6°C 37% 4.0 mph S6.4 kmh S 7.0 mph11.3 kmh 29.70 in1005.8 mb 0.00 in0.0 mm 0.00 in0.0 mm 0.00 in0.0 mm
12:55 PM 50.8°F10.4°C 25.5°F-3.6°C 37% 6.0 mph S9.7 kmh S 8.0 mph12.9 kmh 29.70 in1005.8 mb 0.00 in0.0 mm 0.00 in0.0 mm 0.00 in0.0 mm
12:56 PM 50.8°F10.4°C 25.5°F-3.6°C 37% 1.0 mph NE1.6 kmh NE 8.0 mph12.9 kmh 29.69 in1005.4 mb 0.00 in0.0 mm 0.00 in0.0 mm 0.00 in0.0 mm
12:57 PM 50.8°F10.4°C 25.5°F-3.6°C 37% 4.0 mph SSE6.4 kmh SSE 7.0 mph11.3 kmh 29.69 in1005.4 mb 0.00 in0.0 mm 0.00 in0.0 mm 0.00 in0.0 mm
12:58 PM 50.9°F10.5°C 25.6°F-3.6°C 37% 6.0 mph ESE9.7 kmh ESE 7.0 mph11.3 kmh 29.69 in1005.4 mb 0.00 in0.0 mm 0.00 in0.0 mm 0.00 in0.0 mm
12:59 PM 50.9°F10.5°C 24.9°F-3.9°C 36% 2.0 mph SSW3.2 kmh SSW 7.0 mph11.3 kmh 29.69 in1005.4 mb 0.00 in0.0 mm 0.00 in0.0 mm 0.00 in0.0 mm
01:00 PM 50.9°F10.5°C 25.6°F-3.6°C 37% 5.0 mph S8.0 kmh S 10.0 mph16.1 kmh 29.69 in1005.4 mb 0.00 in0.0 mm 0.00 in0.0 mm 0.00 in0.0 mm
01:01 PM 50.9°F10.5°C 24.9°F-3.9°C 36% 5.0 mph SW8.0 kmh SW 10.0 mph16.1 kmh 29.69 in1005.4 mb 0.00 in0.0 mm 0.00 in0.0 mm 0.00 in0.0 mm
01:02 PM 51.0°F10.6°C 25.0°F-3.9°C 36% 3.0 mph SW4.8 kmh SW 7.0 mph11.3 kmh 29.69 in1005.4 mb 0.00 in0.0 mm 0.00 in0.0 mm 0.00 in0.0 mm
01:03 PM 51.0°F10.6°C 25.0°F-3.9°C 36% 5.0 mph S8.0 kmh S 10.0 mph16.1 kmh 29.69 in1005.4 mb 0.00 in0.0 mm 0.00 in0.0 mm 0.00 in0.0 mm
01:04 PM 51.0°F10.6°C 25.0°F-3.9°C 36% 4.0 mph S6.4 kmh S 10.0 mph16.1 kmh 29.69 in1005.4 mb 0.00 in0.0 mm 0.00 in0.0 mm 0.00 in0.0 mm
01:05 PM 51.1°F10.6°C 25.1°F-3.8°C 36% 8.0 mph SW12.9 kmh SW 10.0 mph16.1 kmh 29.68 in1005.1 mb 0.00 in0.0 mm 0.00 in0.0 mm 0.00 in0.0 mm
01:06 PM 51.2°F10.7°C 25.2°F-3.8°C 36% 2.0 mph SW3.2 kmh SW 10.0 mph16.1 kmh 29.68 in1005.1 mb 0.00 in0.0 mm 0.00 in0.0 mm 0.00 in0.0 mm
01:07 PM 51.2°F10.7°C 25.2°F-3.8°C 36% 4.0 mph S6.4 kmh S 10.0 mph16.1 kmh 29.69 in1005.4 mb 0.00 in0.0 mm 0.00 in0.0 mm 0.00 in0.0 mm
01:08 PM 51.3°F10.7°C 25.3°F-3.7°C 36% 2.0 mph SSW3.2 kmh SSW 8.0 mph12.9 kmh 29.69 in1005.4 mb 0.00 in0.0 mm 0.00 in0.0 mm 0.00 in0.0 mm
01:09 PM 51.4°F10.8°C 25.4°F-3.7°C 36% 7.0 mph S11.3 kmh S 9.0 mph14.5 kmh 29.69 in1005.4 mb 0.00 in0.0 mm 0.00 in0.0 mm 0.00 in0.0 mm
01:10 PM 51.4°F10.8°C 25.4°F-3.7°C 36% 2.0 mph S3.2 kmh S 9.0 mph14.5 kmh 29.69 in1005.4 mb 0.00 in0.0 mm 0.00 in0.0 mm 0.00 in0.0 mm
01:11 PM 51.5°F10.8°C 25.5°F-3.6°C 36% 5.0 mph SSW8.0 kmh SSW 7.0 mph11.3 kmh 29.68 in1005.1 mb 0.00 in0.0 mm 0.00 in0.0 mm 0.00 in0.0 mm
01:12 PM 51.5°F10.8°C 25.5°F-3.6°C 36% 5.0 mph SW8.0 kmh SW 10.0 mph16.1 kmh 29.68 in1005.1 mb 0.00 in0.0 mm 0.00 in0.0 mm 0.00 in0.0 mm
01:13 PM 51.6°F10.9°C 25.5°F-3.6°C 36% 6.0 mph S9.7 kmh S 10.0 mph16.1 kmh 29.68 in1005.1 mb 0.00 in0.0 mm 0.00 in0.0 mm 0.00 in0.0 mm
01:14 PM 51.7°F10.9°C 25.6°F-3.6°C 36% 8.0 mph SSE12.9 kmh SSE 10.0 mph16.1 kmh 29.68 in1005.1 mb 0.00 in0.0 mm 0.00 in0.0 mm 0.00 in0.0 mm
01:15 PM 51.8°F11.0°C 25.7°F-3.5°C 36% 2.0 mph SSE3.2 kmh SSE 8.0 mph12.9 kmh 29.68 in1005.1 mb 0.00 in0.0 mm 0.00 in0.0 mm 0.00 in0.0 mm
01:16 PM 51.8°F11.0°C 25.7°F-3.5°C 36% 5.0 mph S8.0 kmh S 9.0 mph14.5 kmh 29.68 in1005.1 mb 0.00 in0.0 mm 0.00 in0.0 mm 0.00 in0.0 mm
01:17 PM 51.9°F11.1°C 25.1°F-3.8°C 35% 7.0 mph SW11.3 kmh SW 9.0 mph14.5 kmh 29.67 in1004.7 mb 0.00 in0.0 mm 0.00 in0.0 mm 0.00 in0.0 mm
01:18 PM 52.0°F11.1°C 25.2°F-3.8°C 35% 9.0 mph S14.5 kmh S 14.0 mph22.5 kmh 29.67 in1004.7 mb 0.00 in0.0 mm 0.00 in0.0 mm 0.00 in0.0 mm
01:19 PM 52.0°F11.1°C 25.2°F-3.8°C 35% 5.0 mph S8.0 kmh S 9.0 mph14.5 kmh 29.68 in1005.1 mb 0.00 in0.0 mm 0.00 in0.0 mm 0.00 in0.0 mm
01:20 PM 52.1°F11.2°C 25.3°F-3.7°C 35% 4.0 mph S6.4 kmh S 12.0 mph19.3 kmh 29.68 in1005.1 mb 0.00 in0.0 mm 0.00 in0.0 mm 0.00 in0.0 mm
01:21 PM 52.2°F11.2°C 25.4°F-3.7°C 35% 2.0 mph S3.2 kmh S 12.0 mph19.3 kmh 29.67 in1004.7 mb 0.00 in0.0 mm 0.00 in0.0 mm 0.00 in0.0 mm
01:22 PM 52.2°F11.2°C 25.4°F-3.7°C 35% 4.0 mph S6.4 kmh S 7.0 mph11.3 kmh 29.68 in1005.1 mb 0.00 in0.0 mm 0.00 in0.0 mm 0.00 in0.0 mm
01:23 PM 52.3°F11.3°C 25.5°F-3.6°C 35% 1.0 mph SSE1.6 kmh SSE 7.0 mph11.3 kmh 29.67 in1004.7 mb 0.00 in0.0 mm 0.00 in0.0 mm 0.00 in0.0 mm
01:24 PM 52.3°F11.3°C 25.5°F-3.6°C 35% 4.0 mph NW6.4 kmh NW 6.0 mph9.7 kmh 29.67 in1004.7 mb 0.00 in0.0 mm 0.00 in0.0 mm 0.00 in0.0 mm
01:25 PM 52.4°F11.3°C 25.6°F-3.6°C 35% 4.0 mph SSW6.4 kmh SSW 7.0 mph11.3 kmh 29.67 in1004.7 mb 0.00 in0.0 mm 0.00 in0.0 mm 0.00 in0.0 mm
01:26 PM 52.4°F11.3°C 25.6°F-3.6°C 35% 6.0 mph SW9.7 kmh SW 9.0 mph14.5 kmh 29.67 in1004.7 mb 0.00 in0.0 mm 0.00 in0.0 mm 0.00 in0.0 mm
01:27 PM 52.4°F11.3°C 26.3°F-3.2°C 36% Calm Calm 9.0 mph14.5 kmh 29.68 in1005.1 mb 0.00 in0.0 mm 0.00 in0.0 mm 0.00 in0.0 mm
01:28 PM 52.4°F11.3°C 25.6°F-3.6°C 35% 1.0 mph S1.6 kmh S 6.0 mph9.7 kmh 29.67 in1004.7 mb 0.00 in0.0 mm 0.00 in0.0 mm 0.00 in0.0 mm
01:29 PM 52.4°F11.3°C 25.6°F-3.6°C 35% 3.0 mph S4.8 kmh S 5.0 mph8.0 kmh 29.67 in1004.7 mb 0.00 in0.0 mm 0.00 in0.0 mm 0.00 in0.0 mm
01:30 PM 52.4°F11.3°C 25.6°F-3.6°C 35% 1.0 mph S1.6 kmh S 6.0 mph9.7 kmh 29.67 in1004.7 mb 0.00 in0.0 mm 0.00 in0.0 mm 0.00 in0.0 mm
01:31 PM 52.5°F11.4°C 25.7°F-3.5°C 35% 3.0 mph SSW4.8 kmh SSW 8.0 mph12.9 kmh 29.67 in1004.7 mb 0.00 in0.0 mm 0.00 in0.0 mm 0.00 in0.0 mm
01:32 PM 52.5°F11.4°C 25.7°F-3.5°C 35% 5.0 mph SSW8.0 kmh SSW 8.0 mph12.9 kmh 29.67 in1004.7 mb 0.00 in0.0 mm 0.00 in0.0 mm 0.00 in0.0 mm
01:33 PM 52.5°F11.4°C 26.3°F-3.2°C 36% 2.0 mph SW3.2 kmh SW 5.0 mph8.0 kmh 29.67 in1004.7 mb 0.00 in0.0 mm 0.00 in0.0 mm 0.00 in0.0 mm
01:34 PM 52.5°F11.4°C 26.3°F-3.2°C 36% 3.0 mph SSW4.8 kmh SSW 6.0 mph9.7 kmh 29.67 in1004.7 mb 0.00 in0.0 mm 0.00 in0.0 mm 0.00 in0.0 mm
01:35 PM 52.5°F11.4°C 26.3°F-3.2°C 36% 2.0 mph S3.2 kmh S 7.0 mph11.3 kmh 29.67 in1004.7 mb 0.00 in0.0 mm 0.00 in0.0 mm 0.00 in0.0 mm
01:36 PM 52.5°F11.4°C 26.3°F-3.2°C 36% 2.0 mph S3.2 kmh S 7.0 mph11.3 kmh 29.67 in1004.7 mb 0.00 in0.0 mm 0.00 in0.0 mm 0.00 in0.0 mm
01:37 PM 52.5°F11.4°C 27.0°F-2.8°C 37% 6.0 mph SE9.7 kmh SE 8.0 mph12.9 kmh 29.67 in1004.7 mb 0.00 in0.0 mm 0.00 in0.0 mm 0.00 in0.0 mm
01:38 PM 52.5°F11.4°C 27.0°F-2.8°C 37% Calm Calm 8.0 mph12.9 kmh 29.66 in1004.4 mb 0.00 in0.0 mm 0.00 in0.0 mm 0.00 in0.0 mm
01:39 PM 52.5°F11.4°C 27.0°F-2.8°C 37% 4.0 mph SW6.4 kmh SW 7.0 mph11.3 kmh 29.66 in1004.4 mb 0.00 in0.0 mm 0.00 in0.0 mm 0.00 in0.0 mm
01:40 PM 52.5°F11.4°C 27.7°F-2.4°C 38% 1.0 mph SSW1.6 kmh SSW 7.0 mph11.3 kmh 29.66 in1004.4 mb 0.00 in0.0 mm 0.00 in0.0 mm 0.00 in0.0 mm
01:41 PM 52.6°F11.4°C 27.7°F-2.4°C 38% Calm Calm 5.0 mph8.0 kmh 29.66 in1004.4 mb 0.00 in0.0 mm 0.00 in0.0 mm 0.00 in0.0 mm
01:42 PM 52.6°F11.4°C 27.7°F-2.4°C 38% 3.0 mph S4.8 kmh S 4.0 mph6.4 kmh 29.66 in1004.4 mb 0.00 in0.0 mm 0.00 in0.0 mm 0.00 in0.0 mm
01:43 PM 52.6°F11.4°C 27.7°F-2.4°C 38% 1.0 mph SSW1.6 kmh SSW 4.0 mph6.4 kmh 29.66 in1004.4 mb 0.00 in0.0 mm 0.00 in0.0 mm 0.00 in0.0 mm
01:44 PM 52.6°F11.4°C 27.1°F-2.7°C 37% 1.0 mph S1.6 kmh S 5.0 mph8.0 kmh 29.66 in1004.4 mb 0.00 in0.0 mm 0.00 in0.0 mm 0.00 in0.0 mm
01:45 PM 52.7°F11.5°C 27.8°F-2.3°C 38% 1.0 mph SE1.6 kmh SE 5.0 mph8.0 kmh 29.66 in1004.4 mb 0.00 in0.0 mm 0.00 in0.0 mm 0.00 in0.0 mm
01:46 PM 52.7°F11.5°C 27.2°F-2.7°C 37% Calm Calm 5.0 mph8.0 kmh 29.66 in1004.4 mb 0.00 in0.0 mm 0.00 in0.0 mm 0.00 in0.0 mm
01:47 PM 52.8°F11.6°C 27.9°F-2.3°C 38% Calm Calm 6.0 mph9.7 kmh 29.66 in1004.4 mb 0.00 in0.0 mm 0.00 in0.0 mm 0.00 in0.0 mm
01:48 PM 52.8°F11.6°C 27.9°F-2.3°C 38% Calm Calm 4.0 mph6.4 kmh 29.65 in1004.1 mb 0.00 in0.0 mm 0.00 in0.0 mm 0.00 in0.0 mm
01:49 PM 52.9°F11.6°C 28.0°F-2.2°C 38% Calm Calm 1.0 mph1.6 kmh 29.65 in1004.1 mb 0.00 in0.0 mm 0.00 in0.0 mm 0.00 in0.0 mm
01:50 PM 53.0°F11.7°C 28.1°F-2.2°C 38% Calm Calm 7.0 mph11.3 kmh 29.65 in1004.1 mb 0.00 in0.0 mm 0.00 in0.0 mm 0.00 in0.0 mm
01:51 PM 53.0°F11.7°C 28.1°F-2.2°C 38% 1.0 mph S1.6 kmh S 7.0 mph11.3 kmh 29.65 in1004.1 mb 0.00 in0.0 mm 0.00 in0.0 mm 0.00 in0.0 mm
01:52 PM 53.1°F11.7°C 27.5°F-2.5°C 37% Calm Calm 7.0 mph11.3 kmh 29.65 in1004.1 mb 0.00 in0.0 mm 0.00 in0.0 mm 0.00 in0.0 mm
01:53 PM 53.1°F11.7°C 27.5°F-2.5°C 37% 2.0 mph ESE3.2 kmh ESE 9.0 mph14.5 kmh 29.65 in1004.1 mb 0.00 in0.0 mm 0.00 in0.0 mm 0.00 in0.0 mm
01:54 PM 53.1°F11.7°C 28.2°F-2.1°C 38% 4.0 mph NNE6.4 kmh NNE 6.0 mph9.7 kmh 29.65 in1004.1 mb 0.00 in0.0 mm 0.00 in0.0 mm 0.00 in0.0 mm
01:55 PM 53.1°F11.7°C 28.2°F-2.1°C 38% 2.0 mph WNW3.2 kmh WNW 4.0 mph6.4 kmh 29.64 in1003.7 mb 0.00 in0.0 mm 0.00 in0.0 mm 0.00 in0.0 mm
01:56 PM 53.1°F11.7°C 28.2°F-2.1°C 38% Calm Calm 6.0 mph9.7 kmh 29.65 in1004.1 mb 0.00 in0.0 mm 0.00 in0.0 mm 0.00 in0.0 mm
01:58 PM 53.1°F11.7°C 28.2°F-2.1°C 38% 1.0 mph SSE1.6 kmh SSE 5.0 mph8.0 kmh 29.64 in1003.7 mb 0.00 in0.0 mm 0.00 in0.0 mm 0.00 in0.0 mm
01:59 PM 53.1°F11.7°C 27.5°F-2.5°C 37% 6.0 mph SE9.7 kmh SE 6.0 mph9.7 kmh 29.65 in1004.1 mb 0.00 in0.0 mm 0.00 in0.0 mm 0.00 in0.0 mm
02:00 PM 53.1°F11.7°C 26.9°F-2.8°C 36% 6.0 mph S9.7 kmh S 8.0 mph12.9 kmh 29.65 in1004.1 mb 0.00 in0.0 mm 0.00 in0.0 mm 0.00 in0.0 mm
02:01 PM 53.1°F11.7°C 27.5°F-2.5°C 37% 9.0 mph SW14.5 kmh SW 12.0 mph19.3 kmh 29.65 in1004.1 mb 0.00 in0.0 mm 0.00 in0.0 mm 0.00 in0.0 mm
02:02 PM 53.1°F11.7°C 27.5°F-2.5°C 37% 4.0 mph SSW6.4 kmh SSW 12.0 mph19.3 kmh 29.65 in1004.1 mb 0.00 in0.0 mm 0.00 in0.0 mm 0.00 in0.0 mm
02:03 PM 53.1°F11.7°C 27.5°F-2.5°C 37% 2.0 mph SSE3.2 kmh SSE 7.0 mph11.3 kmh 29.65 in1004.1 mb 0.00 in0.0 mm 0.00 in0.0 mm 0.00 in0.0 mm
02:04 PM 53.0°F11.7°C 27.4°F-2.6°C 37% 4.0 mph S6.4 kmh S 7.0 mph11.3 kmh 29.65 in1004.1 mb 0.00 in0.0 mm 0.00 in0.0 mm 0.00 in0.0 mm
02:05 PM 53.0°F11.7°C 28.1°F-2.2°C 38% 1.0 mph S1.6 kmh S 4.0 mph6.4 kmh 29.65 in1004.1 mb 0.00 in0.0 mm 0.00 in0.0 mm 0.00 in0.0 mm
02:06 PM 53.0°F11.7°C 28.1°F-2.2°C 38% Calm Calm 5.0 mph8.0 kmh 29.65 in1004.1 mb 0.00 in0.0 mm 0.00 in0.0 mm 0.00 in0.0 mm
02:07 PM 53.0°F11.7°C 28.1°F-2.2°C 38% 3.0 mph SSW4.8 kmh SSW 8.0 mph12.9 kmh 29.64 in1003.7 mb 0.00 in0.0 mm 0.00 in0.0 mm 0.00 in0.0 mm
02:08 PM 53.0°F11.7°C 27.4°F-2.6°C 37% 3.0 mph S4.8 kmh S 8.0 mph12.9 kmh 29.65 in1004.1 mb 0.00 in0.0 mm 0.00 in0.0 mm 0.00 in0.0 mm
02:09 PM 53.0°F11.7°C 27.4°F-2.6°C 37% 2.0 mph SSE3.2 kmh SSE 6.0 mph9.7 kmh 29.65 in1004.1 mb 0.00 in0.0 mm 0.00 in0.0 mm 0.00 in0.0 mm
02:10 PM 53.0°F11.7°C 27.4°F-2.6°C 37% 3.0 mph S4.8 kmh S 6.0 mph9.7 kmh 29.64 in1003.7 mb 0.00 in0.0 mm 0.00 in0.0 mm 0.00 in0.0 mm
02:11 PM 53.0°F11.7°C 27.4°F-2.6°C 37% 3.0 mph S4.8 kmh S 6.0 mph9.7 kmh 29.64 in1003.7 mb 0.00 in0.0 mm 0.00 in0.0 mm 0.00 in0.0 mm
02:12 PM 53.0°F11.7°C 27.4°F-2.6°C 37% 6.0 mph ESE9.7 kmh ESE 8.0 mph12.9 kmh 29.64 in1003.7 mb 0.00 in0.0 mm 0.00 in0.0 mm 0.00 in0.0 mm
02:13 PM 53.0°F11.7°C 26.8°F-2.9°C 36% 6.0 mph SE9.7 kmh SE 7.0 mph11.3 kmh 29.64 in1003.7 mb 0.00 in0.0 mm 0.00 in0.0 mm 0.00 in0.0 mm
02:14 PM 53.1°F11.7°C 26.9°F-2.8°C 36% 5.0 mph SSW8.0 kmh SSW 9.0 mph14.5 kmh 29.64 in1003.7 mb 0.00 in0.0 mm 0.00 in0.0 mm 0.00 in0.0 mm
02:15 PM 53.2°F11.8°C 27.0°F-2.8°C 36% 6.0 mph S9.7 kmh S 9.0 mph14.5 kmh 29.64 in1003.7 mb 0.00 in0.0 mm 0.00 in0.0 mm 0.00 in0.0 mm
02:16 PM 53.4°F11.9°C 27.1°F-2.7°C 36% 11.0 mph WSW17.7 kmh WSW 11.0 mph17.7 kmh 29.64 in1003.7 mb 0.00 in0.0 mm 0.00 in0.0 mm 0.00 in0.0 mm
02:17 PM 53.5°F11.9°C 26.5°F-3.1°C 35% 3.0 mph S4.8 kmh S 11.0 mph17.7 kmh 29.64 in1003.7 mb 0.00 in0.0 mm 0.00 in0.0 mm 0.00 in0.0 mm
02:18 PM 53.7°F12.1°C 26.7°F-2.9°C 35% 1.0 mph SW1.6 kmh SW 5.0 mph8.0 kmh 29.64 in1003.7 mb 0.00 in0.0 mm 0.00 in0.0 mm 0.00 in0.0 mm
02:19 PM 53.9°F12.2°C 26.9°F-2.8°C 35% 6.0 mph SW9.7 kmh SW 6.0 mph9.7 kmh 29.63 in1003.4 mb 0.00 in0.0 mm 0.00 in0.0 mm 0.00 in0.0 mm
02:20 PM 54.0°F12.2°C 26.3°F-3.2°C 34% 3.0 mph SSW4.8 kmh SSW 7.0 mph11.3 kmh 29.63 in1003.4 mb 0.00 in0.0 mm 0.00 in0.0 mm 0.00 in0.0 mm
02:21 PM 54.2°F12.3°C 26.5°F-3.1°C 34% Calm Calm 7.0 mph11.3 kmh 29.63 in1003.4 mb 0.00 in0.0 mm 0.00 in0.0 mm 0.00 in0.0 mm
02:22 PM 54.5°F12.5°C 27.4°F-2.6°C 35% 3.0 mph S4.8 kmh S 5.0 mph8.0 kmh 29.63 in1003.4 mb 0.00 in0.0 mm 0.00 in0.0 mm 0.00 in0.0 mm
02:23 PM 54.7°F12.6°C 27.6°F-2.4°C 35% 5.0 mph SE8.0 kmh SE 5.0 mph8.0 kmh 29.63 in1003.4 mb 0.00 in0.0 mm 0.00 in0.0 mm 0.00 in0.0 mm
02:24 PM 54.9°F12.7°C 27.8°F-2.3°C 35% 1.0 mph S1.6 kmh S 7.0 mph11.3 kmh 29.62 in1003.0 mb 0.00 in0.0 mm 0.00 in0.0 mm 0.00 in0.0 mm
02:25 PM 55.2°F12.9°C 28.1°F-2.2°C 35% 3.0 mph NNE4.8 kmh NNE 7.0 mph11.3 kmh 29.62 in1003.0 mb 0.00 in0.0 mm 0.00 in0.0 mm 0.00 in0.0 mm
02:26 PM 55.5°F13.1°C 27.6°F-2.4°C 34% 1.0 mph NNE1.6 kmh NNE 5.0 mph8.0 kmh 29.63 in1003.4 mb 0.00 in0.0 mm 0.00 in0.0 mm 0.00 in0.0 mm
02:27 PM 55.6°F13.1°C 27.0°F-2.8°C 33% 4.0 mph NNE6.4 kmh NNE 5.0 mph8.0 kmh 29.62 in1003.0 mb 0.00 in0.0 mm 0.00 in0.0 mm 0.00 in0.0 mm
02:28 PM 55.8°F13.2°C 27.2°F-2.7°C 33% 2.0 mph NE3.2 kmh NE 4.0 mph6.4 kmh 29.63 in1003.4 mb 0.00 in0.0 mm 0.00 in0.0 mm 0.00 in0.0 mm
02:29 PM 55.9°F13.3°C 26.5°F-3.1°C 32% Calm Calm 4.0 mph6.4 kmh 29.62 in1003.0 mb 0.00 in0.0 mm 0.00 in0.0 mm 0.00 in0.0 mm
02:30 PM 56.0°F13.3°C 26.6°F-3.0°C 32% 3.0 mph S4.8 kmh S 6.0 mph9.7 kmh 29.63 in1003.4 mb 0.00 in0.0 mm 0.00 in0.0 mm 0.00 in0.0 mm
02:31 PM 56.2°F13.4°C 26.0°F-3.3°C 31% Calm Calm 6.0 mph9.7 kmh 29.62 in1003.0 mb 0.00 in0.0 mm 0.00 in0.0 mm 0.00 in0.0 mm
02:32 PM 56.2°F13.4°C 26.8°F-2.9°C 32% Calm Calm 3.0 mph4.8 kmh 29.62 in1003.0 mb 0.00 in0.0 mm 0.00 in0.0 mm 0.00 in0.0 mm
02:33 PM 56.3°F13.5°C 26.8°F-2.9°C 32% 2.0 mph S3.2 kmh S 5.0 mph8.0 kmh 29.62 in1003.0 mb 0.00 in0.0 mm 0.00 in0.0 mm 0.00 in0.0 mm
02:34 PM 56.4°F13.6°C 26.2°F-3.2°C 31% 2.0 mph S3.2 kmh S 5.0 mph8.0 kmh 29.62 in1003.0 mb 0.00 in0.0 mm 0.00 in0.0 mm 0.00 in0.0 mm
02:35 PM 56.4°F13.6°C 26.2°F-3.2°C 31% Calm Calm 5.0 mph8.0 kmh 29.62 in1003.0 mb 0.00 in0.0 mm 0.00 in0.0 mm 0.00 in0.0 mm
02:36 PM 56.5°F13.6°C 27.0°F-2.8°C 32% Calm Calm 4.0 mph6.4 kmh 29.62 in1003.0 mb 0.00 in0.0 mm 0.00 in0.0 mm 0.00 in0.0 mm
02:37 PM 56.6°F13.7°C 27.1°F-2.7°C 32% 1.0 mph S1.6 kmh S 4.0 mph6.4 kmh 29.62 in1003.0 mb 0.00 in0.0 mm 0.00 in0.0 mm 0.00 in0.0 mm
02:38 PM 56.6°F13.7°C 26.3°F-3.2°C 31% 1.0 mph SE1.6 kmh SE 5.0 mph8.0 kmh 29.62 in1003.0 mb 0.00 in0.0 mm 0.00 in0.0 mm 0.00 in0.0 mm
02:39 PM 56.7°F13.7°C 26.4°F-3.1°C 31% 2.0 mph SSE3.2 kmh SSE 5.0 mph8.0 kmh 29.62 in1003.0 mb 0.00 in0.0 mm 0.00 in0.0 mm 0.00 in0.0 mm
02:40 PM 56.6°F13.7°C 27.1°F-2.7°C 32% Calm Calm 2.0 mph3.2 kmh 29.62 in1003.0 mb 0.00 in0.0 mm 0.00 in0.0 mm 0.00 in0.0 mm
02:41 PM 56.7°F13.7°C 27.2°F-2.7°C 32% Calm Calm 2.0 mph3.2 kmh 29.62 in1003.0 mb 0.00 in0.0 mm 0.00 in0.0 mm 0.00 in0.0 mm
02:42 PM 56.6°F13.7°C 27.1°F-2.7°C 32% Calm Calm 4.0 mph6.4 kmh 29.62 in1003.0 mb 0.00 in0.0 mm 0.00 in0.0 mm 0.00 in0.0 mm
02:43 PM 56.6°F13.7°C 27.1°F-2.7°C 32% 1.0 mph SE1.6 kmh SE 4.0 mph6.4 kmh 29.61 in1002.7 mb 0.00 in0.0 mm 0.00 in0.0 mm 0.00 in0.0 mm
02:44 PM 56.6°F13.7°C 27.1°F-2.7°C 32% 5.0 mph SE8.0 kmh SE 5.0 mph8.0 kmh 29.62 in1003.0 mb 0.00 in0.0 mm 0.00 in0.0 mm 0.00 in0.0 mm
02:45 PM 56.6°F13.7°C 27.1°F-2.7°C 32% 1.0 mph S1.6 kmh S 8.0 mph12.9 kmh 29.61 in1002.7 mb 0.00 in0.0 mm 0.00 in0.0 mm 0.00 in0.0 mm
02:46 PM 56.6°F13.7°C 27.1°F-2.7°C 32% 3.0 mph SSW4.8 kmh SSW 8.0 mph12.9 kmh 29.61 in1002.7 mb 0.00 in0.0 mm 0.00 in0.0 mm 0.00 in0.0 mm
02:47 PM 56.5°F13.6°C 27.0°F-2.8°C 32% 4.0 mph SW6.4 kmh SW 6.0 mph9.7 kmh 29.61 in1002.7 mb 0.00 in0.0 mm 0.00 in0.0 mm 0.00 in0.0 mm
02:48 PM 56.5°F13.6°C 27.8°F-2.3°C 33% 1.0 mph SW1.6 kmh SW 4.0 mph6.4 kmh 29.61 in1002.7 mb 0.00 in0.0 mm 0.00 in0.0 mm 0.00 in0.0 mm
02:49 PM 56.6°F13.7°C 27.9°F-2.3°C 33% 1.0 mph ESE1.6 kmh ESE 4.0 mph6.4 kmh 29.61 in1002.7 mb 0.00 in0.0 mm 0.00 in0.0 mm 0.00 in0.0 mm
02:50 PM 56.6°F13.7°C 27.1°F-2.7°C 32% 4.0 mph SW6.4 kmh SW 8.0 mph12.9 kmh 29.61 in1002.7 mb 0.00 in0.0 mm 0.00 in0.0 mm 0.00 in0.0 mm
02:51 PM 56.6°F13.7°C 27.1°F-2.7°C 32% 2.0 mph SW3.2 kmh SW 8.0 mph12.9 kmh 29.60 in1002.4 mb 0.00 in0.0 mm 0.00 in0.0 mm 0.00 in0.0 mm
02:52 PM 56.6°F13.7°C 27.9°F-2.3°C 33% 2.0 mph SSE3.2 kmh SSE 8.0 mph12.9 kmh 29.60 in1002.4 mb 0.00 in0.0 mm 0.00 in0.0 mm 0.00 in0.0 mm
02:53 PM 56.7°F13.7°C 27.2°F-2.7°C 32% 4.0 mph SSW6.4 kmh SSW 8.0 mph12.9 kmh 29.60 in1002.4 mb 0.00 in0.0 mm 0.00 in0.0 mm 0.00 in0.0 mm
02:54 PM 56.7°F13.7°C 27.9°F-2.3°C 33% 4.0 mph SSW6.4 kmh SSW 7.0 mph11.3 kmh 29.60 in1002.4 mb 0.00 in0.0 mm 0.00 in0.0 mm 0.00 in0.0 mm
02:55 PM 56.8°F13.8°C 28.0°F-2.2°C 33% 4.0 mph SW6.4 kmh SW 9.0 mph14.5 kmh 29.60 in1002.4 mb 0.00 in0.0 mm 0.00 in0.0 mm 0.00 in0.0 mm
02:56 PM 56.9°F13.8°C 28.1°F-2.2°C 33% 2.0 mph N3.2 kmh N 6.0 mph9.7 kmh 29.60 in1002.4 mb 0.00 in0.0 mm 0.00 in0.0 mm 0.00 in0.0 mm
02:57 PM 57.0°F13.9°C 28.2°F-2.1°C 33% 1.0 mph SSW1.6 kmh SSW 7.0 mph11.3 kmh 29.60 in1002.4 mb 0.00 in0.0 mm 0.00 in0.0 mm 0.00 in0.0 mm
02:58 PM 57.1°F13.9°C 27.5°F-2.5°C 32% 4.0 mph N6.4 kmh N 7.0 mph11.3 kmh 29.60 in1002.4 mb 0.00 in0.0 mm 0.00 in0.0 mm 0.00 in0.0 mm
02:59 PM 57.2°F14.0°C 27.6°F-2.4°C 32% 5.0 mph E8.0 kmh E 7.0 mph11.3 kmh 29.60 in1002.4 mb 0.00 in0.0 mm 0.00 in0.0 mm 0.00 in0.0 mm
03:00 PM 57.3°F14.1°C 27.7°F-2.4°C 32% 3.0 mph SSW4.8 kmh SSW 9.0 mph14.5 kmh 29.60 in1002.4 mb 0.00 in0.0 mm 0.00 in0.0 mm 0.00 in0.0 mm
03:01 PM 57.5°F14.2°C 27.9°F-2.3°C 32% 7.0 mph SW11.3 kmh SW 9.0 mph14.5 kmh 29.60 in1002.4 mb 0.00 in0.0 mm 0.00 in0.0 mm 0.00 in0.0 mm
03:02 PM 57.6°F14.2°C 27.2°F-2.7°C 31% 8.0 mph S12.9 kmh S 10.0 mph16.1 kmh 29.60 in1002.4 mb 0.00 in0.0 mm 0.00 in0.0 mm 0.00 in0.0 mm
03:03 PM 57.7°F14.3°C 27.3°F-2.6°C 31% 2.0 mph WSW3.2 kmh WSW 10.0 mph16.1 kmh 29.60 in1002.4 mb 0.00 in0.0 mm 0.00 in0.0 mm 0.00 in0.0 mm
03:04 PM 57.7°F14.3°C 27.3°F-2.6°C 31% 2.0 mph SW3.2 kmh SW 12.0 mph19.3 kmh 29.60 in1002.4 mb 0.00 in0.0 mm 0.00 in0.0 mm 0.00 in0.0 mm
03:05 PM 57.8°F14.3°C 26.6°F-3.0°C 30% 2.0 mph WSW3.2 kmh WSW 12.0 mph19.3 kmh 29.60 in1002.4 mb 0.00 in0.0 mm 0.00 in0.0 mm 0.00 in0.0 mm
03:06 PM 57.9°F14.4°C 27.5°F-2.5°C 31% 3.0 mph W4.8 kmh W 6.0 mph9.7 kmh 29.60 in1002.4 mb 0.00 in0.0 mm 0.00 in0.0 mm 0.00 in0.0 mm
03:07 PM 58.1°F14.5°C 27.7°F-2.4°C 31% 2.0 mph SSE3.2 kmh SSE 7.0 mph11.3 kmh 29.60 in1002.4 mb 0.00 in0.0 mm 0.00 in0.0 mm 0.00 in0.0 mm
03:08 PM 58.1°F14.5°C 27.7°F-2.4°C 31% 4.0 mph ESE6.4 kmh ESE 10.0 mph16.1 kmh 29.60 in1002.4 mb 0.00 in0.0 mm 0.00 in0.0 mm 0.00 in0.0 mm
03:09 PM 58.2°F14.6°C 27.7°F-2.4°C 31% 1.0 mph SSW1.6 kmh SSW 10.0 mph16.1 kmh 29.60 in1002.4 mb 0.00 in0.0 mm 0.00 in0.0 mm 0.00 in0.0 mm
03:10 PM 58.3°F14.6°C 27.8°F-2.3°C 31% 2.0 mph SSE3.2 kmh SSE 8.0 mph12.9 kmh 29.59 in1002.0 mb 0.00 in0.0 mm 0.00 in0.0 mm 0.00 in0.0 mm
03:11 PM 58.4°F14.7°C 27.9°F-2.3°C 31% 1.0 mph S1.6 kmh S 6.0 mph9.7 kmh 29.59 in1002.0 mb 0.00 in0.0 mm 0.00 in0.0 mm 0.00 in0.0 mm
03:12 PM 58.5°F14.7°C 27.2°F-2.7°C 30% 8.0 mph SSE12.9 kmh SSE 10.0 mph16.1 kmh 29.59 in1002.0 mb 0.00 in0.0 mm 0.00 in0.0 mm 0.00 in0.0 mm
03:13 PM 58.6°F14.8°C 27.3°F-2.6°C 30% 6.0 mph SSE9.7 kmh SSE 10.0 mph16.1 kmh 29.59 in1002.0 mb 0.00 in0.0 mm 0.00 in0.0 mm 0.00 in0.0 mm
03:14 PM 58.6°F14.8°C 27.3°F-2.6°C 30% 6.0 mph WSW9.7 kmh WSW 8.0 mph12.9 kmh 29.59 in1002.0 mb 0.00 in0.0 mm 0.00 in0.0 mm 0.00 in0.0 mm
03:15 PM 58.7°F14.8°C 27.4°F-2.6°C 30% 3.0 mph SW4.8 kmh SW 9.0 mph14.5 kmh 29.59 in1002.0 mb 0.00 in0.0 mm 0.00 in0.0 mm 0.00 in0.0 mm
03:16 PM 58.8°F14.9°C 26.6°F-3.0°C 29% 6.0 mph SSW9.7 kmh SSW 7.0 mph11.3 kmh 29.59 in1002.0 mb 0.00 in0.0 mm 0.00 in0.0 mm 0.00 in0.0 mm
03:17 PM 58.9°F14.9°C 27.6°F-2.4°C 30% Calm Calm 7.0 mph11.3 kmh 29.59 in1002.0 mb 0.00 in0.0 mm 0.00 in0.0 mm 0.00 in0.0 mm
03:18 PM 58.9°F14.9°C 26.7°F-2.9°C 29% 5.0 mph SSE8.0 kmh SSE 7.0 mph11.3 kmh 29.59 in1002.0 mb 0.00 in0.0 mm 0.00 in0.0 mm 0.00 in0.0 mm
03:19 PM 59.0°F15.0°C 26.8°F-2.9°C 29% 6.0 mph E9.7 kmh E 7.0 mph11.3 kmh 29.59 in1002.0 mb 0.00 in0.0 mm 0.00 in0.0 mm 0.00 in0.0 mm
03:20 PM 59.1°F15.1°C 26.9°F-2.8°C 29% 1.0 mph S1.6 kmh S 7.0 mph11.3 kmh 29.59 in1002.0 mb 0.00 in0.0 mm 0.00 in0.0 mm 0.00 in0.0 mm
03:21 PM 59.2°F15.1°C 27.8°F-2.3°C 30% 2.0 mph W3.2 kmh W 7.0 mph11.3 kmh 29.59 in1002.0 mb 0.00 in0.0 mm 0.00 in0.0 mm 0.00 in0.0 mm
03:22 PM 59.2°F15.1°C 27.0°F-2.8°C 29% 1.0 mph W1.6 kmh W 7.0 mph11.3 kmh 29.59 in1002.0 mb 0.00 in0.0 mm 0.00 in0.0 mm 0.00 in0.0 mm
03:23 PM 59.3°F15.2°C 27.1°F-2.7°C 29% 3.0 mph SW4.8 kmh SW 7.0 mph11.3 kmh 29.59 in1002.0 mb 0.00 in0.0 mm 0.00 in0.0 mm 0.00 in0.0 mm
03:24 PM 59.3°F15.2°C 27.1°F-2.7°C 29% 1.0 mph SE1.6 kmh SE 7.0 mph11.3 kmh 29.59 in1002.0 mb 0.00 in0.0 mm 0.00 in0.0 mm 0.00 in0.0 mm
03:25 PM 59.4°F15.2°C 27.2°F-2.7°C 29% 2.0 mph SSW3.2 kmh SSW 7.0 mph11.3 kmh 29.59 in1002.0 mb 0.00 in0.0 mm 0.00 in0.0 mm 0.00 in0.0 mm
03:26 PM 59.4°F15.2°C 27.2°F-2.7°C 29% 4.0 mph SSE6.4 kmh SSE 6.0 mph9.7 kmh 29.59 in1002.0 mb 0.00 in0.0 mm 0.00 in0.0 mm 0.00 in0.0 mm
03:27 PM 59.4°F15.2°C 27.2°F-2.7°C 29% 4.0 mph S6.4 kmh S 10.0 mph16.1 kmh 29.59 in1002.0 mb 0.00 in0.0 mm 0.00 in0.0 mm 0.00 in0.0 mm
03:28 PM 59.5°F15.3°C 27.2°F-2.7°C 29% 5.0 mph S8.0 kmh S 10.0 mph16.1 kmh 29.58 in1001.7 mb 0.00 in0.0 mm 0.00 in0.0 mm 0.00 in0.0 mm
03:29 PM 59.5°F15.3°C 27.2°F-2.7°C 29% 1.0 mph W1.6 kmh W 8.0 mph12.9 kmh 29.59 in1002.0 mb 0.00 in0.0 mm 0.00 in0.0 mm 0.00 in0.0 mm
03:31 PM 59.5°F15.3°C 26.4°F-3.1°C 28% 8.0 mph SSE12.9 kmh SSE 9.0 mph14.5 kmh 29.59 in1002.0 mb 0.00 in0.0 mm 0.00 in0.0 mm 0.00 in0.0 mm
03:32 PM 59.6°F15.3°C 26.5°F-3.1°C 28% 6.0 mph SSE9.7 kmh SSE 8.0 mph12.9 kmh 29.58 in1001.7 mb 0.00 in0.0 mm 0.00 in0.0 mm 0.00 in0.0 mm
03:33 PM 59.6°F15.3°C 26.5°F-3.1°C 28% 1.0 mph S1.6 kmh S 6.0 mph9.7 kmh 29.58 in1001.7 mb 0.00 in0.0 mm 0.00 in0.0 mm 0.00 in0.0 mm
03:34 PM 59.7°F15.4°C 26.6°F-3.0°C 28% 7.0 mph W11.3 kmh W 7.0 mph11.3 kmh 29.58 in1001.7 mb 0.00 in0.0 mm 0.00 in0.0 mm 0.00 in0.0 mm
03:35 PM 59.7°F15.4°C 26.6°F-3.0°C 28% Calm Calm 7.0 mph11.3 kmh 29.58 in1001.7 mb 0.00 in0.0 mm 0.00 in0.0 mm 0.00 in0.0 mm
03:36 PM 59.7°F15.4°C 25.7°F-3.5°C 27% 2.0 mph SW3.2 kmh SW 6.0 mph9.7 kmh 29.58 in1001.7 mb 0.00 in0.0 mm 0.00 in0.0 mm 0.00 in0.0 mm
03:37 PM 59.7°F15.4°C 26.6°F-3.0°C 28% 5.0 mph WSW8.0 kmh WSW 6.0 mph9.7 kmh 29.58 in1001.7 mb 0.00 in0.0 mm 0.00 in0.0 mm 0.00 in0.0 mm
03:38 PM 59.8°F15.4°C 26.7°F-2.9°C 28% 3.0 mph S4.8 kmh S 9.0 mph14.5 kmh 29.58 in1001.7 mb 0.00 in0.0 mm 0.00 in0.0 mm 0.00 in0.0 mm
03:39 PM 59.7°F15.4°C 25.7°F-3.5°C 27% Calm Calm 9.0 mph14.5 kmh 29.58 in1001.7 mb 0.00 in0.0 mm 0.00 in0.0 mm 0.00 in0.0 mm
03:40 PM 59.7°F15.4°C 25.7°F-3.5°C 27% 2.0 mph SSW3.2 kmh SSW 4.0 mph6.4 kmh 29.58 in1001.7 mb 0.00 in0.0 mm 0.00 in0.0 mm 0.00 in0.0 mm
03:41 PM 59.7°F15.4°C 25.7°F-3.5°C 27% Calm Calm 5.0 mph8.0 kmh 29.58 in1001.7 mb 0.00 in0.0 mm 0.00 in0.0 mm 0.00 in0.0 mm
03:42 PM 59.6°F15.3°C 26.5°F-3.1°C 28% 5.0 mph SW8.0 kmh SW 7.0 mph11.3 kmh 29.58 in1001.7 mb 0.00 in0.0 mm 0.00 in0.0 mm 0.00 in0.0 mm
03:43 PM 59.6°F15.3°C 26.5°F-3.1°C 28% 3.0 mph SSW4.8 kmh SSW 7.0 mph11.3 kmh 29.58 in1001.7 mb 0.00 in0.0 mm 0.00 in0.0 mm 0.00 in0.0 mm
03:44 PM 59.5°F15.3°C 25.5°F-3.6°C 27% 7.0 mph W11.3 kmh W 7.0 mph11.3 kmh 29.58 in1001.7 mb 0.00 in0.0 mm 0.00 in0.0 mm 0.00 in0.0 mm
03:45 PM 59.4°F15.2°C 25.4°F-3.7°C 27% 3.0 mph E4.8 kmh E 7.0 mph11.3 kmh 29.58 in1001.7 mb 0.00 in0.0 mm 0.00 in0.0 mm 0.00 in0.0 mm
03:46 PM 59.3°F15.2°C 26.2°F-3.2°C 28% 1.0 mph ESE1.6 kmh ESE 8.0 mph12.9 kmh 29.58 in1001.7 mb 0.00 in0.0 mm 0.00 in0.0 mm 0.00 in0.0 mm
03:47 PM 59.2°F15.1°C 26.1°F-3.3°C 28% 8.0 mph E12.9 kmh E 8.0 mph12.9 kmh 29.58 in1001.7 mb 0.00 in0.0 mm 0.00 in0.0 mm 0.00 in0.0 mm
03:48 PM 59.1°F15.1°C 26.1°F-3.3°C 28% 5.0 mph NW8.0 kmh NW 8.0 mph12.9 kmh 29.58 in1001.7 mb 0.00 in0.0 mm 0.00 in0.0 mm 0.00 in0.0 mm
03:49 PM 59.0°F15.0°C 26.0°F-3.3°C 28% 7.0 mph SSW11.3 kmh SSW 8.0 mph12.9 kmh 29.59 in1002.0 mb 0.00 in0.0 mm 0.00 in0.0 mm 0.00 in0.0 mm
03:50 PM 58.9°F14.9°C 25.9°F-3.4°C 28% 2.0 mph SSE3.2 kmh SSE 9.0 mph14.5 kmh 29.58 in1001.7 mb 0.00 in0.0 mm 0.00 in0.0 mm 0.00 in0.0 mm
03:51 PM 58.9°F14.9°C 25.9°F-3.4°C 28% 1.0 mph S1.6 kmh S 5.0 mph8.0 kmh 29.59 in1002.0 mb 0.00 in0.0 mm 0.00 in0.0 mm 0.00 in0.0 mm
03:52 PM 58.8°F14.9°C 25.8°F-3.4°C 28% 2.0 mph E3.2 kmh E 6.0 mph9.7 kmh 29.59 in1002.0 mb 0.00 in0.0 mm 0.00 in0.0 mm 0.00 in0.0 mm
03:53 PM 58.8°F14.9°C 25.8°F-3.4°C 28% 6.0 mph SSE9.7 kmh SSE 8.0 mph12.9 kmh 29.59 in1002.0 mb 0.00 in0.0 mm 0.00 in0.0 mm 0.00 in0.0 mm
03:54 PM 58.7°F14.8°C 25.7°F-3.5°C 28% 4.0 mph S6.4 kmh S 9.0 mph14.5 kmh 29.59 in1002.0 mb 0.00 in0.0 mm 0.00 in0.0 mm 0.00 in0.0 mm
03:55 PM 58.7°F14.8°C 26.6°F-3.0°C 29% 5.0 mph S8.0 kmh S 8.0 mph12.9 kmh 29.59 in1002.0 mb 0.00 in0.0 mm 0.00 in0.0 mm 0.00 in0.0 mm
03:56 PM 58.8°F14.9°C 26.6°F-3.0°C 29% Calm Calm 6.0 mph9.7 kmh 29.59 in1002.0 mb 0.00 in0.0 mm 0.00 in0.0 mm 0.00 in0.0 mm
03:57 PM 58.8°F14.9°C 26.6°F-3.0°C 29% 2.0 mph NNW3.2 kmh NNW 7.0 mph11.3 kmh 29.58 in1001.7 mb 0.00 in0.0 mm 0.00 in0.0 mm 0.00 in0.0 mm
03:58 PM 58.9°F14.9°C 26.7°F-2.9°C 29% 7.0 mph S11.3 kmh S 7.0 mph11.3 kmh 29.58 in1001.7 mb 0.00 in0.0 mm 0.00 in0.0 mm 0.00 in0.0 mm
03:59 PM 59.0°F15.0°C 26.8°F-2.9°C 29% 5.0 mph SE8.0 kmh SE 7.0 mph11.3 kmh 29.58 in1001.7 mb 0.00 in0.0 mm 0.00 in0.0 mm 0.00 in0.0 mm
04:01 PM 59.2°F15.1°C 26.1°F-3.3°C 28% 3.0 mph SSW4.8 kmh SSW 9.0 mph14.5 kmh 29.58 in1001.7 mb 0.00 in0.0 mm 0.00 in0.0 mm 0.00 in0.0 mm
04:02 PM 59.3°F15.2°C 26.2°F-3.2°C 28% 2.0 mph SSE3.2 kmh SSE 9.0 mph14.5 kmh 29.58 in1001.7 mb 0.00 in0.0 mm 0.00 in0.0 mm 0.00 in0.0 mm
04:03 PM 59.3°F15.2°C 26.2°F-3.2°C 28% 1.0 mph SSE1.6 kmh SSE 8.0 mph12.9 kmh 29.58 in1001.7 mb 0.00 in0.0 mm 0.00 in0.0 mm 0.00 in0.0 mm
04:04 PM 59.4°F15.2°C 27.2°F-2.7°C 29% 3.0 mph SSW4.8 kmh SSW 7.0 mph11.3 kmh 29.59 in1002.0 mb 0.00 in0.0 mm 0.00 in0.0 mm 0.00 in0.0 mm
04:05 PM 59.5°F15.3°C 27.2°F-2.7°C 29% 1.0 mph W1.6 kmh W 6.0 mph9.7 kmh 29.58 in1001.7 mb 0.00 in0.0 mm 0.00 in0.0 mm 0.00 in0.0 mm
04:06 PM 59.6°F15.3°C 26.5°F-3.1°C 28% 7.0 mph SW11.3 kmh SW 7.0 mph11.3 kmh 29.58 in1001.7 mb 0.00 in0.0 mm 0.00 in0.0 mm 0.00 in0.0 mm
04:07 PM 59.8°F15.4°C 26.7°F-2.9°C 28% 7.0 mph W11.3 kmh W 8.0 mph12.9 kmh 29.58 in1001.7 mb 0.00 in0.0 mm 0.00 in0.0 mm 0.00 in0.0 mm
04:08 PM 59.8°F15.4°C 26.7°F-2.9°C 28% 4.0 mph SW6.4 kmh SW 8.0 mph12.9 kmh 29.59 in1002.0 mb 0.00 in0.0 mm 0.00 in0.0 mm 0.00 in0.0 mm
04:09 PM 59.9°F15.5°C 26.7°F-2.9°C 28% 2.0 mph WSW3.2 kmh WSW 7.0 mph11.3 kmh 29.58 in1001.7 mb 0.00 in0.0 mm 0.00 in0.0 mm 0.00 in0.0 mm
04:10 PM 60.0°F15.6°C 26.0°F-3.3°C 27% 5.0 mph E8.0 kmh E 11.0 mph17.7 kmh 29.58 in1001.7 mb 0.00 in0.0 mm 0.00 in0.0 mm 0.00 in0.0 mm
04:11 PM 60.1°F15.6°C 26.0°F-3.3°C 27% 5.0 mph SW8.0 kmh SW 10.0 mph16.1 kmh 29.58 in1001.7 mb 0.00 in0.0 mm 0.00 in0.0 mm 0.00 in0.0 mm
04:12 PM 60.1°F15.6°C 26.0°F-3.3°C 27% 2.0 mph S3.2 kmh S 10.0 mph16.1 kmh 29.59 in1002.0 mb 0.00 in0.0 mm 0.00 in0.0 mm 0.00 in0.0 mm
04:13 PM 60.2°F15.7°C 26.1°F-3.3°C 27% 4.0 mph SW6.4 kmh SW 8.0 mph12.9 kmh 29.58 in1001.7 mb 0.00 in0.0 mm 0.00 in0.0 mm 0.00 in0.0 mm
04:14 PM 60.2°F15.7°C 26.1°F-3.3°C 27% 4.0 mph SSW6.4 kmh SSW 8.0 mph12.9 kmh 29.58 in1001.7 mb 0.00 in0.0 mm 0.00 in0.0 mm 0.00 in0.0 mm
04:15 PM 60.2°F15.7°C 26.1°F-3.3°C 27% 7.0 mph SW11.3 kmh SW 10.0 mph16.1 kmh 29.58 in1001.7 mb 0.00 in0.0 mm 0.00 in0.0 mm 0.00 in0.0 mm
04:16 PM 60.2°F15.7°C 26.1°F-3.3°C 27% 5.0 mph SSE8.0 kmh SSE 10.0 mph16.1 kmh 29.58 in1001.7 mb 0.00 in0.0 mm 0.00 in0.0 mm 0.00 in0.0 mm
04:17 PM 60.1°F15.6°C 26.0°F-3.3°C 27% 5.0 mph SW8.0 kmh SW 12.0 mph19.3 kmh 29.58 in1001.7 mb 0.00 in0.0 mm 0.00 in0.0 mm 0.00 in0.0 mm
04:18 PM 60.0°F15.6°C 26.0°F-3.3°C 27% 5.0 mph S8.0 kmh S 10.0 mph16.1 kmh 29.58 in1001.7 mb 0.00 in0.0 mm 0.00 in0.0 mm 0.00 in0.0 mm
04:19 PM 60.0°F15.6°C 26.0°F-3.3°C 27% 4.0 mph S6.4 kmh S 10.0 mph16.1 kmh 29.58 in1001.7 mb 0.00 in0.0 mm 0.00 in0.0 mm 0.00 in0.0 mm
04:20 PM 60.0°F15.6°C 26.0°F-3.3°C 27% 7.0 mph SSW11.3 kmh SSW 10.0 mph16.1 kmh 29.58 in1001.7 mb 0.00 in0.0 mm 0.00 in0.0 mm 0.00 in0.0 mm
04:21 PM 60.0°F15.6°C 26.0°F-3.3°C 27% 4.0 mph SW6.4 kmh SW 8.0 mph12.9 kmh 29.58 in1001.7 mb 0.00 in0.0 mm 0.00 in0.0 mm 0.00 in0.0 mm
04:22 PM 60.0°F15.6°C 26.0°F-3.3°C 27% 8.0 mph WSW12.9 kmh WSW 8.0 mph12.9 kmh 29.58 in1001.7 mb 0.00 in0.0 mm 0.00 in0.0 mm 0.00 in0.0 mm
04:23 PM 60.0°F15.6°C 26.0°F-3.3°C 27% 7.0 mph SSW11.3 kmh SSW 8.0 mph12.9 kmh 29.58 in1001.7 mb 0.00 in0.0 mm 0.00 in0.0 mm 0.00 in0.0 mm
04:24 PM 60.0°F15.6°C 26.0°F-3.3°C 27% 7.0 mph SW11.3 kmh SW 9.0 mph14.5 kmh 29.58 in1001.7 mb 0.00 in0.0 mm 0.00 in0.0 mm 0.00 in0.0 mm
04:25 PM 60.0°F15.6°C 26.0°F-3.3°C 27% 7.0 mph SW11.3 kmh SW 9.0 mph14.5 kmh 29.58 in1001.7 mb 0.00 in0.0 mm 0.00 in0.0 mm 0.00 in0.0 mm
04:26 PM 60.1°F15.6°C 26.9°F-2.8°C 28% 6.0 mph SW9.7 kmh SW 10.0 mph16.1 kmh 29.58 in1001.7 mb 0.00 in0.0 mm 0.00 in0.0 mm 0.00 in0.0 mm
04:27 PM 60.1°F15.6°C 26.9°F-2.8°C 28% 4.0 mph SSW6.4 kmh SSW 8.0 mph12.9 kmh 29.58 in1001.7 mb 0.00 in0.0 mm 0.00 in0.0 mm 0.00 in0.0 mm
04:28 PM 60.2°F15.7°C 27.0°F-2.8°C 28% 6.0 mph S9.7 kmh S 6.0 mph9.7 kmh 29.58 in1001.7 mb 0.00 in0.0 mm 0.00 in0.0 mm 0.00 in0.0 mm
04:29 PM 60.2°F15.7°C 26.1°F-3.3°C 27% 3.0 mph SW4.8 kmh SW 7.0 mph11.3 kmh 29.58 in1001.7 mb 0.00 in0.0 mm 0.00 in0.0 mm 0.00 in0.0 mm
04:31 PM 60.3°F15.7°C 26.2°F-3.2°C 27% 10.0 mph SW16.1 kmh SW 14.0 mph22.5 kmh 29.58 in1001.7 mb 0.00 in0.0 mm 0.00 in0.0 mm 0.00 in0.0 mm
04:32 PM 60.3°F15.7°C 26.2°F-3.2°C 27% 8.0 mph SW12.9 kmh SW 14.0 mph22.5 kmh 29.58 in1001.7 mb 0.00 in0.0 mm 0.00 in0.0 mm 0.00 in0.0 mm
04:33 PM 60.3°F15.7°C 26.2°F-3.2°C 27% 9.0 mph SSW14.5 kmh SSW 11.0 mph17.7 kmh 29.58 in1001.7 mb 0.00 in0.0 mm 0.00 in0.0 mm 0.00 in0.0 mm
04:34 PM 60.3°F15.7°C 26.2°F-3.2°C 27% 5.0 mph SW8.0 kmh SW 11.0 mph17.7 kmh 29.58 in1001.7 mb 0.00 in0.0 mm 0.00 in0.0 mm 0.00 in0.0 mm
04:35 PM 60.3°F15.7°C 26.2°F-3.2°C 27% 4.0 mph SW6.4 kmh SW 12.0 mph19.3 kmh 29.58 in1001.7 mb 0.00 in0.0 mm 0.00 in0.0 mm 0.00 in0.0 mm
04:36 PM 60.4°F15.8°C 26.3°F-3.2°C 27% 6.0 mph SW9.7 kmh SW 12.0 mph19.3 kmh 29.58 in1001.7 mb 0.00 in0.0 mm 0.00 in0.0 mm 0.00 in0.0 mm
04:37 PM 60.5°F15.8°C 26.4°F-3.1°C 27% 6.0 mph SW9.7 kmh SW 8.0 mph12.9 kmh 29.58 in1001.7 mb 0.00 in0.0 mm 0.00 in0.0 mm 0.00 in0.0 mm
04:38 PM 60.6°F15.9°C 26.5°F-3.1°C 27% 3.0 mph SW4.8 kmh SW 11.0 mph17.7 kmh 29.58 in1001.7 mb 0.00 in0.0 mm 0.00 in0.0 mm 0.00 in0.0 mm
04:39 PM 60.6°F15.9°C 25.6°F-3.6°C 26% 10.0 mph S16.1 kmh S 11.0 mph17.7 kmh 29.58 in1001.7 mb 0.00 in0.0 mm 0.00 in0.0 mm 0.00 in0.0 mm
04:40 PM 60.7°F15.9°C 25.6°F-3.6°C 26% 11.0 mph S17.7 kmh S 11.0 mph17.7 kmh 29.58 in1001.7 mb 0.00 in0.0 mm 0.00 in0.0 mm 0.00 in0.0 mm
04:41 PM 60.7°F15.9°C 25.6°F-3.6°C 26% 10.0 mph SSW16.1 kmh SSW 11.0 mph17.7 kmh 29.58 in1001.7 mb 0.00 in0.0 mm 0.00 in0.0 mm 0.00 in0.0 mm
04:42 PM 60.7°F15.9°C 25.6°F-3.6°C 26% 4.0 mph SSW6.4 kmh SSW 10.0 mph16.1 kmh 29.58 in1001.7 mb 0.00 in0.0 mm 0.00 in0.0 mm 0.00 in0.0 mm
04:43 PM 60.7°F15.9°C 25.6°F-3.6°C 26% 5.0 mph SSW8.0 kmh SSW 10.0 mph16.1 kmh 29.58 in1001.7 mb 0.00 in0.0 mm 0.00 in0.0 mm 0.00 in0.0 mm
04:44 PM 60.8°F16.0°C 25.7°F-3.5°C 26% 7.0 mph SW11.3 kmh SW 10.0 mph16.1 kmh 29.58 in1001.7 mb 0.00 in0.0 mm 0.00 in0.0 mm 0.00 in0.0 mm
04:45 PM 60.9°F16.1°C 26.7°F-2.9°C 27% 5.0 mph S8.0 kmh S 11.0 mph17.7 kmh 29.58 in1001.7 mb 0.00 in0.0 mm 0.00 in0.0 mm 0.00 in0.0 mm
04:46 PM 60.9°F16.1°C 25.8°F-3.4°C 26% 4.0 mph SW6.4 kmh SW 11.0 mph17.7 kmh 29.58 in1001.7 mb 0.00 in0.0 mm 0.00 in0.0 mm 0.00 in0.0 mm
04:47 PM 61.0°F16.1°C 25.9°F-3.4°C 26% 5.0 mph S8.0 kmh S 10.0 mph16.1 kmh 29.58 in1001.7 mb 0.00 in0.0 mm 0.00 in0.0 mm 0.00 in0.0 mm
04:48 PM 61.0°F16.1°C 25.9°F-3.4°C 26% 5.0 mph SW8.0 kmh SW 11.0 mph17.7 kmh 29.58 in1001.7 mb 0.00 in0.0 mm 0.00 in0.0 mm 0.00 in0.0 mm
04:49 PM 61.0°F16.1°C 25.9°F-3.4°C 26% 4.0 mph S6.4 kmh S 10.0 mph16.1 kmh 29.58 in1001.7 mb 0.00 in0.0 mm 0.00 in0.0 mm 0.00 in0.0 mm
04:50 PM 61.0°F16.1°C 26.8°F-2.9°C 27% 12.0 mph SSW19.3 kmh SSW 12.0 mph19.3 kmh 29.58 in1001.7 mb 0.00 in0.0 mm 0.00 in0.0 mm 0.00 in0.0 mm
04:51 PM 61.0°F16.1°C 26.8°F-2.9°C 27% 5.0 mph SW8.0 kmh SW 12.0 mph19.3 kmh 29.59 in1002.0 mb 0.00 in0.0 mm 0.00 in0.0 mm 0.00 in0.0 mm
04:52 PM 61.0°F16.1°C 25.9°F-3.4°C 26% 5.0 mph SW8.0 kmh SW 12.0 mph19.3 kmh 29.59 in1002.0 mb 0.00 in0.0 mm 0.00 in0.0 mm 0.00 in0.0 mm
04:53 PM 61.1°F16.2°C 26.0°F-3.3°C 26% 7.0 mph SSW11.3 kmh SSW 11.0 mph17.7 kmh 29.59 in1002.0 mb 0.00 in0.0 mm 0.00 in0.0 mm 0.00 in0.0 mm
04:54 PM 61.0°F16.1°C 25.9°F-3.4°C 26% 5.0 mph SW8.0 kmh SW 10.0 mph16.1 kmh 29.59 in1002.0 mb 0.00 in0.0 mm 0.00 in0.0 mm 0.00 in0.0 mm
04:55 PM 61.0°F16.1°C 25.9°F-3.4°C 26% 2.0 mph S3.2 kmh S 9.0 mph14.5 kmh 29.59 in1002.0 mb 0.00 in0.0 mm 0.00 in0.0 mm 0.00 in0.0 mm
04:56 PM 61.0°F16.1°C 25.9°F-3.4°C 26% 7.0 mph SSW11.3 kmh SSW 7.0 mph11.3 kmh 29.58 in1001.7 mb 0.00 in0.0 mm 0.00 in0.0 mm 0.00 in0.0 mm
04:57 PM 61.0°F16.1°C 25.9°F-3.4°C 26% 5.0 mph S8.0 kmh S 7.0 mph11.3 kmh 29.58 in1001.7 mb 0.00 in0.0 mm 0.00 in0.0 mm 0.00 in0.0 mm
04:58 PM 61.1°F16.2°C 26.0°F-3.3°C 26% 6.0 mph SSW9.7 kmh SSW 7.0 mph11.3 kmh 29.58 in1001.7 mb 0.00 in0.0 mm 0.00 in0.0 mm 0.00 in0.0 mm
04:59 PM 61.1°F16.2°C 26.0°F-3.3°C 26% 4.0 mph S6.4 kmh S 9.0 mph14.5 kmh 29.59 in1002.0 mb 0.00 in0.0 mm 0.00 in0.0 mm 0.00 in0.0 mm
05:00 PM 61.2°F16.2°C 26.1°F-3.3°C 26% 5.0 mph S8.0 kmh S 9.0 mph14.5 kmh 29.59 in1002.0 mb 0.00 in0.0 mm 0.00 in0.0 mm 0.00 in0.0 mm
05:01 PM 61.3°F16.3°C 26.2°F-3.2°C 26% 4.0 mph SSW6.4 kmh SSW 10.0 mph16.1 kmh 29.59 in1002.0 mb 0.00 in0.0 mm 0.00 in0.0 mm 0.00 in0.0 mm
05:02 PM 61.3°F16.3°C 26.2°F-3.2°C 26% 2.0 mph S3.2 kmh S 10.0 mph16.1 kmh 29.59 in1002.0 mb 0.00 in0.0 mm 0.00 in0.0 mm 0.00 in0.0 mm
05:03 PM 61.4°F16.3°C 25.3°F-3.7°C 25% 4.0 mph SSW6.4 kmh SSW 6.0 mph9.7 kmh 29.59 in1002.0 mb 0.00 in0.0 mm 0.00 in0.0 mm 0.00 in0.0 mm
05:04 PM 61.4°F16.3°C 25.3°F-3.7°C 25% 3.0 mph S4.8 kmh S 6.0 mph9.7 kmh 29.59 in1002.0 mb 0.00 in0.0 mm 0.00 in0.0 mm 0.00 in0.0 mm
05:05 PM 61.4°F16.3°C 25.3°F-3.7°C 25% 4.0 mph SSW6.4 kmh SSW 6.0 mph9.7 kmh 29.59 in1002.0 mb 0.00 in0.0 mm 0.00 in0.0 mm 0.00 in0.0 mm
05:06 PM 61.3°F16.3°C 25.2°F-3.8°C 25% 5.0 mph SW8.0 kmh SW 7.0 mph11.3 kmh 29.60 in1002.4 mb 0.00 in0.0 mm 0.00 in0.0 mm 0.00 in0.0 mm
05:07 PM 61.2°F16.2°C 25.1°F-3.8°C 25% 8.0 mph S12.9 kmh S 8.0 mph12.9 kmh 29.60 in1002.4 mb 0.00 in0.0 mm 0.00 in0.0 mm 0.00 in0.0 mm
05:08 PM 61.1°F16.2°C 25.0°F-3.9°C 25% 6.0 mph SSW9.7 kmh SSW 8.0 mph12.9 kmh 29.60 in1002.4 mb 0.00 in0.0 mm 0.00 in0.0 mm 0.00 in0.0 mm
05:09 PM 61.0°F16.1°C 25.9°F-3.4°C 26% 8.0 mph S12.9 kmh S 8.0 mph12.9 kmh 29.60 in1002.4 mb 0.00 in0.0 mm 0.00 in0.0 mm 0.00 in0.0 mm
05:10 PM 60.9°F16.1°C 25.8°F-3.4°C 26% 5.0 mph S8.0 kmh S 8.0 mph12.9 kmh 29.60 in1002.4 mb 0.00 in0.0 mm 0.00 in0.0 mm 0.00 in0.0 mm
05:11 PM 60.8°F16.0°C 25.7°F-3.5°C 26% Calm Calm 8.0 mph12.9 kmh 29.61 in1002.7 mb 0.00 in0.0 mm 0.00 in0.0 mm 0.00 in0.0 mm
05:12 PM 60.8°F16.0°C 25.7°F-3.5°C 26% 3.0 mph S4.8 kmh S 3.0 mph4.8 kmh 29.60 in1002.4 mb 0.00 in0.0 mm 0.00 in0.0 mm 0.00 in0.0 mm
05:13 PM 60.7°F15.9°C 26.6°F-3.0°C 27% 4.0 mph S6.4 kmh S 7.0 mph11.3 kmh 29.60 in1002.4 mb 0.00 in0.0 mm 0.00 in0.0 mm 0.00 in0.0 mm
05:14 PM 60.7°F15.9°C 26.6°F-3.0°C 27% 3.0 mph S4.8 kmh S 5.0 mph8.0 kmh 29.60 in1002.4 mb 0.00 in0.0 mm 0.00 in0.0 mm 0.00 in0.0 mm
05:15 PM 60.6°F15.9°C 26.5°F-3.1°C 27% 3.0 mph S4.8 kmh S 5.0 mph8.0 kmh 29.60 in1002.4 mb 0.00 in0.0 mm 0.00 in0.0 mm 0.00 in0.0 mm
05:16 PM 60.5°F15.8°C 27.3°F-2.6°C 28% 4.0 mph S6.4 kmh S 4.0 mph6.4 kmh 29.61 in1002.7 mb 0.00 in0.0 mm 0.00 in0.0 mm 0.00 in0.0 mm
05:17 PM 60.4°F15.8°C 26.3°F-3.2°C 27% 4.0 mph S6.4 kmh S 6.0 mph9.7 kmh 29.60 in1002.4 mb 0.00 in0.0 mm 0.00 in0.0 mm 0.00 in0.0 mm
05:18 PM 60.3°F15.7°C 26.2°F-3.2°C 27% 1.0 mph SSW1.6 kmh SSW 6.0 mph9.7 kmh 29.60 in1002.4 mb 0.00 in0.0 mm 0.00 in0.0 mm 0.00 in0.0 mm
05:19 PM 60.2°F15.7°C 27.0°F-2.8°C 28% 2.0 mph S3.2 kmh S 3.0 mph4.8 kmh 29.60 in1002.4 mb 0.00 in0.0 mm 0.00 in0.0 mm 0.00 in0.0 mm
05:20 PM 60.1°F15.6°C 26.9°F-2.8°C 28% 2.0 mph SSW3.2 kmh SSW 5.0 mph8.0 kmh 29.60 in1002.4 mb 0.00 in0.0 mm 0.00 in0.0 mm 0.00 in0.0 mm
05:21 PM 60.0°F15.6°C 26.0°F-3.3°C 27% Calm Calm 5.0 mph8.0 kmh 29.60 in1002.4 mb 0.00 in0.0 mm 0.00 in0.0 mm 0.00 in0.0 mm
05:22 PM 59.9°F15.5°C 25.9°F-3.4°C 27% Calm Calm 3.0 mph4.8 kmh 29.61 in1002.7 mb 0.00 in0.0 mm 0.00 in0.0 mm 0.00 in0.0 mm
05:23 PM 59.8°F15.4°C 26.7°F-2.9°C 28% Calm Calm 4.0 mph6.4 kmh 29.60 in1002.4 mb 0.00 in0.0 mm 0.00 in0.0 mm 0.00 in0.0 mm
05:24 PM 59.7°F15.4°C 26.6°F-3.0°C 28% Calm Calm 4.0 mph6.4 kmh 29.60 in1002.4 mb 0.00 in0.0 mm 0.00 in0.0 mm 0.00 in0.0 mm
05:25 PM 59.6°F15.3°C 26.5°F-3.1°C 28% Calm Calm -- 29.60 in1002.4 mb 0.00 in0.0 mm 0.00 in0.0 mm 0.00 in0.0 mm
05:26 PM 59.5°F15.3°C 26.4°F-3.1°C 28% Calm Calm -- 29.60 in1002.4 mb 0.00 in0.0 mm 0.00 in0.0 mm 0.00 in0.0 mm
05:27 PM 59.4°F15.2°C 26.3°F-3.2°C 28% Calm Calm -- 29.61 in1002.7 mb 0.00 in0.0 mm 0.00 in0.0 mm 0.00 in0.0 mm
05:28 PM 59.4°F15.2°C 26.3°F-3.2°C 28% Calm Calm -- 29.60 in1002.4 mb 0.00 in0.0 mm 0.00 in0.0 mm 0.00 in0.0 mm
05:29 PM 59.3°F15.2°C 27.1°F-2.7°C 29% Calm Calm 1.0 mph1.6 kmh 29.60 in1002.4 mb 0.00 in0.0 mm 0.00 in0.0 mm 0.00 in0.0 mm
05:30 PM 59.3°F15.2°C 27.1°F-2.7°C 29% Calm Calm 1.0 mph1.6 kmh 29.60 in1002.4 mb 0.00 in0.0 mm 0.00 in0.0 mm 0.00 in0.0 mm
05:31 PM 59.2°F15.1°C 27.0°F-2.8°C 29% Calm Calm -- 29.60 in1002.4 mb 0.00 in0.0 mm 0.00 in0.0 mm 0.00 in0.0 mm
05:32 PM 59.2°F15.1°C 27.0°F-2.8°C 29% Calm Calm -- 29.60 in1002.4 mb 0.00 in0.0 mm 0.00 in0.0 mm 0.00 in0.0 mm
05:33 PM 59.1°F15.1°C 26.9°F-2.8°C 29% Calm Calm 2.0 mph3.2 kmh 29.60 in1002.4 mb 0.00 in0.0 mm 0.00 in0.0 mm 0.00 in0.0 mm
05:34 PM 59.1°F15.1°C 26.9°F-2.8°C 29% Calm Calm 2.0 mph3.2 kmh 29.60 in1002.4 mb 0.00 in0.0 mm 0.00 in0.0 mm 0.00 in0.0 mm
05:35 PM 59.1°F15.1°C 26.9°F-2.8°C 29% Calm Calm -- 29.59 in1002.0 mb 0.00 in0.0 mm 0.00 in0.0 mm 0.00 in0.0 mm
05:36 PM 59.1°F15.1°C 26.9°F-2.8°C 29% Calm Calm -- 29.59 in1002.0 mb 0.00 in0.0 mm 0.00 in0.0 mm 0.00 in0.0 mm
05:37 PM 59.2°F15.1°C 27.0°F-2.8°C 29% Calm Calm -- 29.59 in1002.0 mb 0.00 in0.0 mm 0.00 in0.0 mm 0.00 in0.0 mm
05:38 PM 59.3°F15.2°C 27.1°F-2.7°C 29% Calm Calm 2.0 mph3.2 kmh 29.59 in1002.0 mb 0.00 in0.0 mm 0.00 in0.0 mm 0.00 in0.0 mm
05:39 PM 59.4°F15.2°C 27.2°F-2.7°C 29% Calm Calm 2.0 mph3.2 kmh 29.59 in1002.0 mb 0.00 in0.0 mm 0.00 in0.0 mm 0.00 in0.0 mm
05:40 PM 59.5°F15.3°C 26.4°F-3.1°C 28% Calm Calm 2.0 mph3.2 kmh 29.59 in1002.0 mb 0.00 in0.0 mm 0.00 in0.0 mm 0.00 in0.0 mm
05:41 PM 59.7°F15.4°C 26.6°F-3.0°C 28% Calm Calm 2.0 mph3.2 kmh 29.59 in1002.0 mb 0.00 in0.0 mm 0.00 in0.0 mm 0.00 in0.0 mm
05:42 PM 59.8°F15.4°C 26.7°F-2.9°C 28% Calm Calm 1.0 mph1.6 kmh 29.58 in1001.7 mb 0.00 in0.0 mm 0.00 in0.0 mm 0.00 in0.0 mm
05:43 PM 59.9°F15.5°C 26.7°F-2.9°C 28% Calm Calm 4.0 mph6.4 kmh 29.59 in1002.0 mb 0.00 in0.0 mm 0.00 in0.0 mm 0.00 in0.0 mm
05:44 PM 60.0°F15.6°C 26.8°F-2.9°C 28% Calm Calm 1.0 mph1.6 kmh 29.59 in1002.0 mb 0.00 in0.0 mm 0.00 in0.0 mm 0.00 in0.0 mm
05:45 PM 60.1°F15.6°C 26.9°F-2.8°C 28% Calm Calm 1.0 mph1.6 kmh 29.58 in1001.7 mb 0.00 in0.0 mm 0.00 in0.0 mm 0.00 in0.0 mm
05:46 PM 60.2°F15.7°C 26.1°F-3.3°C 27% Calm Calm 4.0 mph6.4 kmh 29.58 in1001.7 mb 0.00 in0.0 mm 0.00 in0.0 mm 0.00 in0.0 mm
05:47 PM 60.3°F15.7°C 26.2°F-3.2°C 27% 1.0 mph SE1.6 kmh SE 5.0 mph8.0 kmh 29.58 in1001.7 mb 0.00 in0.0 mm 0.00 in0.0 mm 0.00 in0.0 mm
05:48 PM 60.3°F15.7°C 26.2°F-3.2°C 27% 1.0 mph SE1.6 kmh SE 5.0 mph8.0 kmh 29.58 in1001.7 mb 0.00 in0.0 mm 0.00 in0.0 mm 0.00 in0.0 mm
05:49 PM 60.4°F15.8°C 28.0°F-2.2°C 29% Calm Calm 4.0 mph6.4 kmh 29.57 in1001.4 mb 0.00 in0.0 mm 0.00 in0.0 mm 0.00 in0.0 mm
05:50 PM 60.4°F15.8°C 28.0°F-2.2°C 29% 7.0 mph S11.3 kmh S 7.0 mph11.3 kmh 29.57 in1001.4 mb 0.00 in0.0 mm 0.00 in0.0 mm 0.00 in0.0 mm
05:51 PM 60.4°F15.8°C 26.3°F-3.2°C 27% Calm Calm 7.0 mph11.3 kmh 29.57 in1001.4 mb 0.00 in0.0 mm 0.00 in0.0 mm 0.00 in0.0 mm
05:52 PM 60.4°F15.8°C 26.3°F-3.2°C 27% Calm Calm 2.0 mph3.2 kmh 29.57 in1001.4 mb 0.00 in0.0 mm 0.00 in0.0 mm 0.00 in0.0 mm
05:53 PM 60.3°F15.7°C 26.2°F-3.2°C 27% Calm Calm -- 29.56 in1001.0 mb 0.00 in0.0 mm 0.00 in0.0 mm 0.00 in0.0 mm
05:54 PM 60.3°F15.7°C 26.2°F-3.2°C 27% Calm Calm 2.0 mph3.2 kmh 29.56 in1001.0 mb 0.00 in0.0 mm 0.00 in0.0 mm 0.00 in0.0 mm
05:55 PM 60.3°F15.7°C 26.2°F-3.2°C 27% Calm Calm 2.0 mph3.2 kmh 29.56 in1001.0 mb 0.00 in0.0 mm 0.00 in0.0 mm 0.00 in0.0 mm
05:56 PM 60.3°F15.7°C 26.2°F-3.2°C 27% Calm Calm -- 29.56 in1001.0 mb 0.00 in0.0 mm 0.00 in0.0 mm 0.00 in0.0 mm
05:57 PM 60.3°F15.7°C 26.2°F-3.2°C 27% Calm Calm 1.0 mph1.6 kmh 29.56 in1001.0 mb 0.00 in0.0 mm 0.00 in0.0 mm 0.00 in0.0 mm
05:58 PM 60.2°F15.7°C 26.1°F-3.3°C 27% Calm Calm 2.0 mph3.2 kmh 29.56 in1001.0 mb 0.00 in0.0 mm 0.00 in0.0 mm 0.00 in0.0 mm
05:59 PM 60.2°F15.7°C 26.1°F-3.3°C 27% Calm Calm 2.0 mph3.2 kmh 29.57 in1001.4 mb 0.00 in0.0 mm 0.00 in0.0 mm 0.00 in0.0 mm
06:00 PM 60.2°F15.7°C 27.0°F-2.8°C 28% Calm Calm -- 29.57 in1001.4 mb 0.00 in0.0 mm 0.00 in0.0 mm 0.00 in0.0 mm
06:01 PM 60.1°F15.6°C 26.9°F-2.8°C 28% Calm Calm -- 29.58 in1001.7 mb 0.00 in0.0 mm 0.00 in0.0 mm 0.00 in0.0 mm
06:02 PM 60.1°F15.6°C 26.9°F-2.8°C 28% 3.0 mph S4.8 kmh S 3.0 mph4.8 kmh 29.58 in1001.7 mb 0.00 in0.0 mm 0.00 in0.0 mm 0.00 in0.0 mm
06:03 PM 60.0°F15.6°C 26.8°F-2.9°C 28% 2.0 mph S3.2 kmh S 3.0 mph4.8 kmh 29.58 in1001.7 mb 0.00 in0.0 mm 0.00 in0.0 mm 0.00 in0.0 mm
06:04 PM 59.9°F15.5°C 26.7°F-2.9°C 28% 2.0 mph S3.2 kmh S 3.0 mph4.8 kmh 29.59 in1002.0 mb 0.00 in0.0 mm 0.00 in0.0 mm 0.00 in0.0 mm
06:05 PM 59.8°F15.4°C 26.7°F-2.9°C 28% 3.0 mph S4.8 kmh S 6.0 mph9.7 kmh 29.59 in1002.0 mb 0.00 in0.0 mm 0.00 in0.0 mm 0.00 in0.0 mm
06:06 PM 59.7°F15.4°C 27.4°F-2.6°C 29% Calm Calm 6.0 mph9.7 kmh 29.59 in1002.0 mb 0.00 in0.0 mm 0.00 in0.0 mm 0.00 in0.0 mm
06:07 PM 59.6°F15.3°C 27.3°F-2.6°C 29% Calm Calm 4.0 mph6.4 kmh 29.59 in1002.0 mb 0.00 in0.0 mm 0.00 in0.0 mm 0.00 in0.0 mm
06:08 PM 59.5°F15.3°C 27.2°F-2.7°C 29% 1.0 mph S1.6 kmh S 4.0 mph6.4 kmh 29.60 in1002.4 mb 0.00 in0.0 mm 0.00 in0.0 mm 0.00 in0.0 mm
06:09 PM 59.4°F15.2°C 27.2°F-2.7°C 29% 2.0 mph S3.2 kmh S 4.0 mph6.4 kmh 29.60 in1002.4 mb 0.00 in0.0 mm 0.00 in0.0 mm 0.00 in0.0 mm
06:10 PM 59.2°F15.1°C 27.8°F-2.3°C 30% 3.0 mph S4.8 kmh S 3.0 mph4.8 kmh 29.61 in1002.7 mb 0.00 in0.0 mm 0.00 in0.0 mm 0.00 in0.0 mm
06:11 PM 59.0°F15.0°C 27.6°F-2.4°C 30% Calm Calm 4.0 mph6.4 kmh 29.60 in1002.4 mb 0.00 in0.0 mm 0.00 in0.0 mm 0.00 in0.0 mm
06:12 PM 58.9°F14.9°C 28.3°F-2.1°C 31% Calm Calm 4.0 mph6.4 kmh 29.60 in1002.4 mb 0.00 in0.0 mm 0.00 in0.0 mm 0.00 in0.0 mm
06:13 PM 58.7°F14.8°C 28.2°F-2.1°C 31% Calm Calm 1.0 mph1.6 kmh 29.60 in1002.4 mb 0.00 in0.0 mm 0.00 in0.0 mm 0.00 in0.0 mm
06:14 PM 58.6°F14.8°C 28.1°F-2.2°C 31% Calm Calm 1.0 mph1.6 kmh 29.60 in1002.4 mb 0.00 in0.0 mm 0.00 in0.0 mm 0.00 in0.0 mm
06:15 PM 58.5°F14.7°C 28.8°F-1.8°C 32% 2.0 mph S3.2 kmh S 2.0 mph3.2 kmh 29.60 in1002.4 mb 0.00 in0.0 mm 0.00 in0.0 mm 0.00 in0.0 mm
06:16 PM 58.4°F14.7°C 28.7°F-1.8°C 32% 1.0 mph S1.6 kmh S 2.0 mph3.2 kmh 29.60 in1002.4 mb 0.00 in0.0 mm 0.00 in0.0 mm 0.00 in0.0 mm
06:17 PM 58.3°F14.6°C 28.6°F-1.9°C 32% 3.0 mph S4.8 kmh S 4.0 mph6.4 kmh 29.60 in1002.4 mb 0.00 in0.0 mm 0.00 in0.0 mm 0.00 in0.0 mm
06:18 PM 58.1°F14.5°C 29.2°F-1.6°C 33% 6.0 mph S9.7 kmh S 6.0 mph9.7 kmh 29.60 in1002.4 mb 0.00 in0.0 mm 0.00 in0.0 mm 0.00 in0.0 mm
06:19 PM 57.9°F14.4°C 29.7°F-1.3°C 34% 2.0 mph SSW3.2 kmh SSW 6.0 mph9.7 kmh 29.60 in1002.4 mb 0.00 in0.0 mm 0.00 in0.0 mm 0.00 in0.0 mm
06:20 PM 57.6°F14.2°C 29.5°F-1.4°C 34% Calm Calm 6.0 mph9.7 kmh 29.59 in1002.0 mb 0.00 in0.0 mm 0.00 in0.0 mm 0.00 in0.0 mm
06:21 PM 57.4°F14.1°C 30.0°F-1.1°C 35% Calm Calm 3.0 mph4.8 kmh 29.59 in1002.0 mb 0.00 in0.0 mm 0.00 in0.0 mm 0.00 in0.0 mm
06:22 PM 57.2°F14.0°C 29.8°F-1.2°C 35% 1.0 mph SSW1.6 kmh SSW 3.0 mph4.8 kmh 29.59 in1002.0 mb 0.00 in0.0 mm 0.00 in0.0 mm 0.00 in0.0 mm
06:23 PM 57.1°F13.9°C 29.0°F-1.7°C 34% 2.0 mph SSW3.2 kmh SSW 3.0 mph4.8 kmh 29.59 in1002.0 mb 0.00 in0.0 mm 0.00 in0.0 mm 0.00 in0.0 mm
06:24 PM 56.9°F13.8°C 28.8°F-1.8°C 34% Calm Calm 3.0 mph4.8 kmh 29.59 in1002.0 mb 0.00 in0.0 mm 0.00 in0.0 mm 0.00 in0.0 mm
06:25 PM 56.8°F13.8°C 29.5°F-1.4°C 35% Calm Calm -- 29.59 in1002.0 mb 0.00 in0.0 mm 0.00 in0.0 mm 0.00 in0.0 mm
06:26 PM 56.7°F13.7°C 29.4°F-1.4°C 35% Calm Calm -- 29.59 in1002.0 mb 0.00 in0.0 mm 0.00 in0.0 mm 0.00 in0.0 mm
06:27 PM 56.7°F13.7°C 28.7°F-1.8°C 34% Calm Calm 2.0 mph3.2 kmh 29.59 in1002.0 mb 0.00 in0.0 mm 0.00 in0.0 mm 0.00 in0.0 mm
06:28 PM 56.6°F13.7°C 28.6°F-1.9°C 34% Calm Calm 2.0 mph3.2 kmh 29.60 in1002.4 mb 0.00 in0.0 mm 0.00 in0.0 mm 0.00 in0.0 mm
06:29 PM 56.6°F13.7°C 28.6°F-1.9°C 34% 3.0 mph SSW4.8 kmh SSW 5.0 mph8.0 kmh 29.60 in1002.4 mb 0.00 in0.0 mm 0.00 in0.0 mm 0.00 in0.0 mm
06:31 PM 56.5°F13.6°C 27.8°F-2.3°C 33% 3.0 mph SSW4.8 kmh SSW 6.0 mph9.7 kmh 29.60 in1002.4 mb 0.00 in0.0 mm 0.00 in0.0 mm 0.00 in0.0 mm
06:32 PM 56.5°F13.6°C 27.8°F-2.3°C 33% 1.0 mph SSW1.6 kmh SSW 3.0 mph4.8 kmh 29.61 in1002.7 mb 0.00 in0.0 mm 0.00 in0.0 mm 0.00 in0.0 mm
06:33 PM 56.5°F13.6°C 27.0°F-2.8°C 32% Calm Calm 3.0 mph4.8 kmh 29.61 in1002.7 mb 0.00 in0.0 mm 0.00 in0.0 mm 0.00 in0.0 mm
06:34 PM 56.5°F13.6°C 27.0°F-2.8°C 32% Calm Calm -- 29.61 in1002.7 mb 0.00 in0.0 mm 0.00 in0.0 mm 0.00 in0.0 mm
06:35 PM 56.6°F13.7°C 27.9°F-2.3°C 33% Calm Calm -- 29.61 in1002.7 mb 0.00 in0.0 mm 0.00 in0.0 mm 0.00 in0.0 mm
06:36 PM 56.6°F13.7°C 27.1°F-2.7°C 32% Calm Calm -- 29.61 in1002.7 mb 0.00 in0.0 mm 0.00 in0.0 mm 0.00 in0.0 mm
06:37 PM 56.6°F13.7°C 27.1°F-2.7°C 32% Calm Calm -- 29.61 in1002.7 mb 0.00 in0.0 mm 0.00 in0.0 mm 0.00 in0.0 mm
06:38 PM 56.6°F13.7°C 27.1°F-2.7°C 32% Calm Calm -- 29.62 in1003.0 mb 0.00 in0.0 mm 0.00 in0.0 mm 0.00 in0.0 mm
06:39 PM 56.6°F13.7°C 27.1°F-2.7°C 32% Calm Calm -- 29.62 in1003.0 mb 0.00 in0.0 mm 0.00 in0.0 mm 0.00 in0.0 mm
06:40 PM 56.7°F13.7°C 27.9°F-2.3°C 33% Calm Calm -- 29.62 in1003.0 mb 0.00 in0.0 mm 0.00 in0.0 mm 0.00 in0.0 mm
06:41 PM 56.6°F13.7°C 27.9°F-2.3°C 33% Calm Calm 3.0 mph4.8 kmh 29.63 in1003.4 mb 0.00 in0.0 mm 0.00 in0.0 mm 0.00 in0.0 mm
06:42 PM 56.6°F13.7°C 28.6°F-1.9°C 34% Calm Calm 3.0 mph4.8 kmh 29.63 in1003.4 mb 0.00 in0.0 mm 0.00 in0.0 mm 0.00 in0.0 mm
06:43 PM 56.6°F13.7°C 28.6°F-1.9°C 34% Calm Calm -- 29.63 in1003.4 mb 0.00 in0.0 mm 0.00 in0.0 mm 0.00 in0.0 mm
06:44 PM 56.6°F13.7°C 29.3°F-1.5°C 35% Calm Calm -- 29.63 in1003.4 mb 0.00 in0.0 mm 0.00 in0.0 mm 0.00 in0.0 mm
06:45 PM 56.6°F13.7°C 29.3°F-1.5°C 35% Calm Calm -- 29.63 in1003.4 mb 0.00 in0.0 mm 0.00 in0.0 mm 0.00 in0.0 mm
06:46 PM 56.5°F13.6°C 29.2°F-1.6°C 35% Calm Calm -- 29.64 in1003.7 mb 0.00 in0.0 mm 0.00 in0.0 mm 0.00 in0.0 mm
06:47 PM 56.5°F13.6°C 29.2°F-1.6°C 35% Calm Calm -- 29.64 in1003.7 mb 0.00 in0.0 mm 0.00 in0.0 mm 0.00 in0.0 mm
06:48 PM 56.4°F13.6°C 29.1°F-1.6°C 35% 4.0 mph SSW6.4 kmh SSW 6.0 mph9.7 kmh 29.65 in1004.1 mb 0.00 in0.0 mm 0.00 in0.0 mm 0.00 in0.0 mm
06:49 PM 56.4°F13.6°C 29.1°F-1.6°C 35% 4.0 mph SSW6.4 kmh SSW 6.0 mph9.7 kmh 29.65 in1004.1 mb 0.00 in0.0 mm 0.00 in0.0 mm 0.00 in0.0 mm
06:50 PM 56.3°F13.5°C 30.4°F-0.9°C 37% 7.0 mph WSW11.3 kmh WSW 14.0 mph22.5 kmh 29.65 in1004.1 mb 0.00 in0.0 mm 0.00 in0.0 mm 0.00 in0.0 mm
06:51 PM 56.4°F13.6°C 31.8°F-0.1°C 39% 7.0 mph NNW11.3 kmh NNW 14.0 mph22.5 kmh 29.64 in1003.7 mb 0.00 in0.0 mm 0.00 in0.0 mm 0.00 in0.0 mm
06:52 PM 56.4°F13.6°C 32.4°F0.2°C 40% Calm Calm 7.0 mph11.3 kmh 29.64 in1003.7 mb 0.00 in0.0 mm 0.00 in0.0 mm 0.00 in0.0 mm
06:53 PM 56.5°F13.6°C 32.5°F0.3°C 40% 7.0 mph WSW11.3 kmh WSW 10.0 mph16.1 kmh 29.65 in1004.1 mb 0.00 in0.0 mm 0.00 in0.0 mm 0.00 in0.0 mm
06:54 PM 56.6°F13.7°C 32.6°F0.3°C 40% 3.0 mph WSW4.8 kmh WSW 10.0 mph16.1 kmh 29.64 in1003.7 mb 0.00 in0.0 mm 0.00 in0.0 mm 0.00 in0.0 mm
06:55 PM 56.7°F13.7°C 32.7°F0.4°C 40% Calm Calm 6.0 mph9.7 kmh 29.64 in1003.7 mb 0.00 in0.0 mm 0.00 in0.0 mm 0.00 in0.0 mm
06:56 PM 56.7°F13.7°C 32.7°F0.4°C 40% Calm Calm 1.0 mph1.6 kmh 29.64 in1003.7 mb 0.00 in0.0 mm 0.00 in0.0 mm 0.00 in0.0 mm
06:57 PM 56.8°F13.8°C 32.8°F0.4°C 40% 4.0 mph SE6.4 kmh SE 7.0 mph11.3 kmh 29.64 in1003.7 mb 0.00 in0.0 mm 0.00 in0.0 mm 0.00 in0.0 mm
06:58 PM 56.8°F13.8°C 31.5°F-0.3°C 38% 6.0 mph S9.7 kmh S 7.0 mph11.3 kmh 29.64 in1003.7 mb 0.00 in0.0 mm 0.00 in0.0 mm 0.00 in0.0 mm
06:59 PM 56.9°F13.8°C 32.2°F0.1°C 39% Calm Calm 7.0 mph11.3 kmh 29.64 in1003.7 mb 0.00 in0.0 mm 0.00 in0.0 mm 0.00 in0.0 mm
07:01 PM 57.0°F13.9°C 32.3°F0.2°C 39% Calm Calm 4.0 mph6.4 kmh 29.64 in1003.7 mb 0.00 in0.0 mm 0.00 in0.0 mm 0.00 in0.0 mm
07:02 PM 57.1°F13.9°C 31.8°F-0.1°C 38% 5.0 mph SW8.0 kmh SW 9.0 mph14.5 kmh 29.64 in1003.7 mb 0.00 in0.0 mm 0.00 in0.0 mm 0.00 in0.0 mm
07:03 PM 57.2°F14.0°C 31.2°F-0.4°C 37% Calm Calm 9.0 mph14.5 kmh 29.63 in1003.4 mb 0.00 in0.0 mm 0.00 in0.0 mm 0.00 in0.0 mm
07:04 PM 57.3°F14.1°C 31.9°F-0.1°C 38% 2.0 mph SW3.2 kmh SW 3.0 mph4.8 kmh 29.64 in1003.7 mb 0.00 in0.0 mm 0.00 in0.0 mm 0.00 in0.0 mm
07:05 PM 57.3°F14.1°C 31.3°F-0.4°C 37% Calm Calm 2.0 mph3.2 kmh 29.64 in1003.7 mb 0.00 in0.0 mm 0.00 in0.0 mm 0.00 in0.0 mm
07:06 PM 57.5°F14.2°C 31.5°F-0.3°C 37% 7.0 mph SW11.3 kmh SW 7.0 mph11.3 kmh 29.64 in1003.7 mb 0.00 in0.0 mm 0.00 in0.0 mm 0.00 in0.0 mm
07:07 PM 57.5°F14.2°C 31.5°F-0.3°C 37% 5.0 mph SW8.0 kmh SW 7.0 mph11.3 kmh 29.64 in1003.7 mb 0.00 in0.0 mm 0.00 in0.0 mm 0.00 in0.0 mm
07:08 PM 57.6°F14.2°C 31.5°F-0.3°C 37% 3.0 mph SW4.8 kmh SW 7.0 mph11.3 kmh 29.64 in1003.7 mb 0.00 in0.0 mm 0.00 in0.0 mm 0.00 in0.0 mm
07:09 PM 57.7°F14.3°C 31.6°F-0.2°C 37% Calm Calm 4.0 mph6.4 kmh 29.64 in1003.7 mb 0.00 in0.0 mm 0.00 in0.0 mm 0.00 in0.0 mm
07:10 PM 57.7°F14.3°C 31.6°F-0.2°C 37% Calm Calm 5.0 mph8.0 kmh 29.64 in1003.7 mb 0.00 in0.0 mm 0.00 in0.0 mm 0.00 in0.0 mm
07:11 PM 57.7°F14.3°C 32.3°F0.2°C 38% 4.0 mph SW6.4 kmh SW 6.0 mph9.7 kmh 29.65 in1004.1 mb 0.00 in0.0 mm 0.00 in0.0 mm 0.00 in0.0 mm
07:12 PM 57.7°F14.3°C 32.3°F0.2°C 38% 2.0 mph SW3.2 kmh SW 6.0 mph9.7 kmh 29.64 in1003.7 mb 0.00 in0.0 mm 0.00 in0.0 mm 0.00 in0.0 mm
07:13 PM 57.6°F14.2°C 32.9°F0.5°C 39% 2.0 mph SW3.2 kmh SW 3.0 mph4.8 kmh 29.64 in1003.7 mb 0.00 in0.0 mm 0.00 in0.0 mm 0.00 in0.0 mm
07:14 PM 57.5°F14.2°C 32.8°F0.4°C 39% Calm Calm 3.0 mph4.8 kmh 29.64 in1003.7 mb 0.00 in0.0 mm 0.00 in0.0 mm 0.00 in0.0 mm
07:15 PM 57.5°F14.2°C 32.8°F0.4°C 39% Calm Calm 2.0 mph3.2 kmh 29.64 in1003.7 mb 0.00 in0.0 mm 0.00 in0.0 mm 0.00 in0.0 mm
07:16 PM 57.4°F14.1°C 32.7°F0.4°C 39% Calm Calm -- 29.64 in1003.7 mb 0.00 in0.0 mm 0.00 in0.0 mm 0.00 in0.0 mm
07:17 PM 57.4°F14.1°C 32.7°F0.4°C 39% Calm Calm -- 29.64 in1003.7 mb 0.00 in0.0 mm 0.00 in0.0 mm 0.00 in0.0 mm
07:18 PM 57.3°F14.1°C 32.6°F0.3°C 39% Calm Calm 1.0 mph1.6 kmh 29.64 in1003.7 mb 0.00 in0.0 mm 0.00 in0.0 mm 0.00 in0.0 mm
07:19 PM 57.3°F14.1°C 32.6°F0.3°C 39% Calm Calm -- 29.64 in1003.7 mb 0.00 in0.0 mm 0.00 in0.0 mm 0.00 in0.0 mm
07:20 PM 57.2°F14.0°C 32.5°F0.3°C 39% Calm Calm -- 29.64 in1003.7 mb 0.00 in0.0 mm 0.00 in0.0 mm 0.00 in0.0 mm
07:21 PM 57.2°F14.0°C 32.5°F0.3°C 39% Calm Calm -- 29.63 in1003.4 mb 0.00 in0.0 mm 0.00 in0.0 mm 0.00 in0.0 mm
07:22 PM 57.1°F13.9°C 32.4°F0.2°C 39% Calm Calm -- 29.64 in1003.7 mb 0.00 in0.0 mm 0.00 in0.0 mm 0.00 in0.0 mm
07:23 PM 57.1°F13.9°C 32.4°F0.2°C 39% Calm Calm -- 29.64 in1003.7 mb 0.00 in0.0 mm 0.00 in0.0 mm 0.00 in0.0 mm
07:24 PM 57.1°F13.9°C 32.4°F0.2°C 39% Calm Calm -- 29.64 in1003.7 mb 0.00 in0.0 mm 0.00 in0.0 mm 0.00 in0.0 mm
07:25 PM 57.1°F13.9°C 31.8°F-0.1°C 38% Calm Calm -- 29.63 in1003.4 mb 0.00 in0.0 mm 0.00 in0.0 mm 0.00 in0.0 mm
07:26 PM 57.0°F13.9°C 32.3°F0.2°C 39% Calm Calm -- 29.64 in1003.7 mb 0.00 in0.0 mm 0.00 in0.0 mm 0.00 in0.0 mm
07:27 PM 57.0°F13.9°C 31.7°F-0.2°C 38% Calm Calm -- 29.63 in1003.4 mb 0.00 in0.0 mm 0.00 in0.0 mm 0.00 in0.0 mm
07:28 PM 57.0°F13.9°C 31.7°F-0.2°C 38% Calm Calm -- 29.62 in1003.0 mb 0.00 in0.0 mm 0.00 in0.0 mm 0.00 in0.0 mm
07:29 PM 57.0°F13.9°C 32.3°F0.2°C 39% Calm Calm 1.0 mph1.6 kmh 29.62 in1003.0 mb 0.00 in0.0 mm 0.00 in0.0 mm 0.00 in0.0 mm
07:30 PM 56.9°F13.8°C 32.2°F0.1°C 39% 1.0 mph SW1.6 kmh SW 2.0 mph3.2 kmh 29.61 in1002.7 mb 0.00 in0.0 mm 0.00 in0.0 mm 0.00 in0.0 mm
07:31 PM 56.9°F13.8°C 32.2°F0.1°C 39% Calm Calm 3.0 mph4.8 kmh 29.61 in1002.7 mb 0.00 in0.0 mm 0.00 in0.0 mm 0.00 in0.0 mm
07:32 PM 56.9°F13.8°C 32.2°F0.1°C 39% Calm Calm 3.0 mph4.8 kmh 29.61 in1002.7 mb 0.00 in0.0 mm 0.00 in0.0 mm 0.00 in0.0 mm
07:33 PM 56.9°F13.8°C 32.2°F0.1°C 39% 1.0 mph SSW1.6 kmh SSW 1.0 mph1.6 kmh 29.61 in1002.7 mb 0.00 in0.0 mm 0.00 in0.0 mm 0.00 in0.0 mm
07:34 PM 56.9°F13.8°C 31.6°F-0.2°C 38% 1.0 mph SSW1.6 kmh SSW 1.0 mph1.6 kmh 29.61 in1002.7 mb 0.00 in0.0 mm 0.00 in0.0 mm 0.00 in0.0 mm
07:35 PM 56.9°F13.8°C 31.6°F-0.2°C 38% Calm Calm 2.0 mph3.2 kmh 29.61 in1002.7 mb 0.00 in0.0 mm 0.00 in0.0 mm 0.00 in0.0 mm
07:36 PM 56.9°F13.8°C 32.2°F0.1°C 39% Calm Calm -- 29.62 in1003.0 mb 0.00 in0.0 mm 0.00 in0.0 mm 0.00 in0.0 mm
07:37 PM 56.9°F13.8°C 32.2°F0.1°C 39% Calm Calm -- 29.61 in1002.7 mb 0.00 in0.0 mm 0.00 in0.0 mm 0.00 in0.0 mm
07:38 PM 56.9°F13.8°C 32.2°F0.1°C 39% 2.0 mph S3.2 kmh S 2.0 mph3.2 kmh 29.61 in1002.7 mb 0.00 in0.0 mm 0.00 in0.0 mm 0.00 in0.0 mm
07:39 PM 56.9°F13.8°C 32.2°F0.1°C 39% 3.0 mph S4.8 kmh S 5.0 mph8.0 kmh 29.61 in1002.7 mb 0.00 in0.0 mm 0.00 in0.0 mm 0.00 in0.0 mm
07:40 PM 56.8°F13.8°C 32.1°F0.1°C 39% 3.0 mph S4.8 kmh S 8.0 mph12.9 kmh 29.60 in1002.4 mb 0.00 in0.0 mm 0.00 in0.0 mm 0.00 in0.0 mm
07:41 PM 56.8°F13.8°C 32.1°F0.1°C 39% 13.0 mph SW20.9 kmh SW 13.0 mph20.9 kmh 29.60 in1002.4 mb 0.00 in0.0 mm 0.00 in0.0 mm 0.00 in0.0 mm
07:42 PM 56.8°F13.8°C 32.1°F0.1°C 39% 3.0 mph SSW4.8 kmh SSW 13.0 mph20.9 kmh 29.60 in1002.4 mb 0.00 in0.0 mm 0.00 in0.0 mm 0.00 in0.0 mm
07:43 PM 56.7°F13.7°C 32.7°F0.4°C 40% 4.0 mph S6.4 kmh S 9.0 mph14.5 kmh 29.60 in1002.4 mb 0.00 in0.0 mm 0.00 in0.0 mm 0.00 in0.0 mm
07:44 PM 56.6°F13.7°C 32.6°F0.3°C 40% 7.0 mph SW11.3 kmh SW 9.0 mph14.5 kmh 29.60 in1002.4 mb 0.00 in0.0 mm 0.00 in0.0 mm 0.00 in0.0 mm
07:45 PM 56.5°F13.6°C 32.5°F0.3°C 40% 6.0 mph SSW9.7 kmh SSW 9.0 mph14.5 kmh 29.60 in1002.4 mb 0.00 in0.0 mm 0.00 in0.0 mm 0.00 in0.0 mm
07:46 PM 56.4°F13.6°C 33.0°F0.6°C 41% 1.0 mph SSW1.6 kmh SSW 9.0 mph14.5 kmh 29.60 in1002.4 mb 0.00 in0.0 mm 0.00 in0.0 mm 0.00 in0.0 mm
07:47 PM 56.3°F13.5°C 32.9°F0.5°C 41% Calm Calm 3.0 mph4.8 kmh 29.60 in1002.4 mb 0.00 in0.0 mm 0.00 in0.0 mm 0.00 in0.0 mm
07:48 PM 56.2°F13.4°C 32.8°F0.4°C 41% Calm Calm 2.0 mph3.2 kmh 29.60 in1002.4 mb 0.00 in0.0 mm 0.00 in0.0 mm 0.00 in0.0 mm
07:49 PM 56.2°F13.4°C 32.8°F0.4°C 41% Calm Calm 6.0 mph9.7 kmh 29.60 in1002.4 mb 0.00 in0.0 mm 0.00 in0.0 mm 0.00 in0.0 mm
07:50 PM 56.1°F13.4°C 33.3°F0.7°C 42% Calm Calm 6.0 mph9.7 kmh 29.59 in1002.0 mb 0.00 in0.0 mm 0.00 in0.0 mm 0.00 in0.0 mm
07:51 PM 56.0°F13.3°C 33.3°F0.7°C 42% 1.0 mph SE1.6 kmh SE 5.0 mph8.0 kmh 29.60 in1002.4 mb 0.00 in0.0 mm 0.00 in0.0 mm 0.00 in0.0 mm
07:52 PM 56.0°F13.3°C 33.8°F1.0°C 43% Calm Calm 5.0 mph8.0 kmh 29.60 in1002.4 mb 0.00 in0.0 mm 0.00 in0.0 mm 0.00 in0.0 mm
07:53 PM 55.9°F13.3°C 33.8°F1.0°C 43% 1.0 mph SE1.6 kmh SE 2.0 mph3.2 kmh 29.60 in1002.4 mb 0.00 in0.0 mm 0.00 in0.0 mm 0.00 in0.0 mm
07:54 PM 55.8°F13.2°C 34.2°F1.2°C 44% Calm Calm 2.0 mph3.2 kmh 29.60 in1002.4 mb 0.00 in0.0 mm 0.00 in0.0 mm 0.00 in0.0 mm
07:55 PM 55.8°F13.2°C 34.2°F1.2°C 44% Calm Calm 6.0 mph9.7 kmh 29.61 in1002.7 mb 0.00 in0.0 mm 0.00 in0.0 mm 0.00 in0.0 mm
07:56 PM 55.7°F13.2°C 34.1°F1.2°C 44% Calm Calm 6.0 mph9.7 kmh 29.61 in1002.7 mb 0.00 in0.0 mm 0.00 in0.0 mm 0.00 in0.0 mm
07:57 PM 55.6°F13.1°C 34.6°F1.4°C 45% 3.0 mph SSW4.8 kmh SSW 6.0 mph9.7 kmh 29.61 in1002.7 mb 0.00 in0.0 mm 0.00 in0.0 mm 0.00 in0.0 mm
07:58 PM 55.5°F13.1°C 35.1°F1.7°C 46% 1.0 mph S1.6 kmh S 6.0 mph9.7 kmh 29.61 in1002.7 mb 0.00 in0.0 mm 0.00 in0.0 mm 0.00 in0.0 mm
07:59 PM 55.4°F13.0°C 35.0°F1.7°C 46% 2.0 mph S3.2 kmh S 5.0 mph8.0 kmh 29.62 in1003.0 mb 0.00 in0.0 mm 0.00 in0.0 mm 0.00 in0.0 mm
08:01 PM 55.2°F12.9°C 35.3°F1.8°C 47% Calm Calm 6.0 mph9.7 kmh 29.61 in1002.7 mb 0.00 in0.0 mm 0.00 in0.0 mm 0.00 in0.0 mm
08:02 PM 55.0°F12.8°C 35.2°F1.8°C 47% 2.0 mph S3.2 kmh S 3.0 mph4.8 kmh 29.61 in1002.7 mb 0.00 in0.0 mm 0.00 in0.0 mm 0.00 in0.0 mm
08:03 PM 54.9°F12.7°C 35.6°F2.0°C 48% Calm Calm 3.0 mph4.8 kmh 29.61 in1002.7 mb 0.00 in0.0 mm 0.00 in0.0 mm 0.00 in0.0 mm
08:04 PM 54.8°F12.7°C 35.5°F1.9°C 48% Calm Calm 2.0 mph3.2 kmh 29.61 in1002.7 mb 0.00 in0.0 mm 0.00 in0.0 mm 0.00 in0.0 mm
08:05 PM 54.7°F12.6°C 35.4°F1.9°C 48% 1.0 mph S1.6 kmh S 3.0 mph4.8 kmh 29.61 in1002.7 mb 0.00 in